<?xml version="1.0" encoding="UTF-8" standalone="no" ?>
<gpx xmlns="http://www.topografix.com/GPX/1/1" xmlns:xsi="http://www.w3.org/2001/XMLSchema-instance" xsi:schemaLocation="http://www.topografix.com/GPX/1/1 http://www.topografix.com/GPX/1/1/gpx.xsd" version="1.1" creator="VisuGPX - https://www.visugpx.com">
  <metadata>
    <name>J8 L'Ospedale - Porto Vecchio</name>
  </metadata>
  <trk>
    <name><![CDATA[02-MAI-22 03:32:42 PM]]></name>
    <extensions>
      <line xmlns="http://www.topografix.com/GPX/gpx_style/0/2">
        <color>0000FF</color>
        <width>4</width>
      </line>
    </extensions>
    <trkseg>
      <trkpt lat="41.65124" lon="9.19317">
        <ele>883.59</ele>
        <time>2022-05-01T14:17:58Z</time>
      </trkpt>
      <trkpt lat="41.65124" lon="9.19317">
        <ele>881.19</ele>
        <time>2022-05-01T14:18:07Z</time>
      </trkpt>
      <trkpt lat="41.65124" lon="9.19317">
        <ele>881.19</ele>
        <time>2022-05-01T14:18:08Z</time>
      </trkpt>
      <trkpt lat="41.65122" lon="9.19317">
        <ele>880.22</ele>
        <time>2022-05-01T14:18:19Z</time>
      </trkpt>
      <trkpt lat="41.65121" lon="9.19319">
        <ele>880.71</ele>
        <time>2022-05-01T14:18:37Z</time>
      </trkpt>
      <trkpt lat="41.65121" lon="9.19311">
        <ele>880.22</ele>
        <time>2022-05-01T14:18:59Z</time>
      </trkpt>
      <trkpt lat="41.65101" lon="9.19301">
        <ele>880.71</ele>
        <time>2022-05-01T14:19:23Z</time>
      </trkpt>
      <trkpt lat="41.651" lon="9.19313">
        <ele>877.34</ele>
        <time>2022-05-01T15:33:52Z</time>
      </trkpt>
      <trkpt lat="41.65101" lon="9.19313">
        <ele>877.34</ele>
        <time>2022-05-01T15:33:53Z</time>
      </trkpt>
      <trkpt lat="41.65109" lon="9.19319">
        <ele>877.34</ele>
        <time>2022-05-01T15:34:34Z</time>
      </trkpt>
      <trkpt lat="41.6511" lon="9.1932">
        <ele>878.78</ele>
        <time>2022-05-01T15:34:56Z</time>
      </trkpt>
      <trkpt lat="41.65111" lon="9.19327">
        <ele>877.82</ele>
        <time>2022-05-01T15:35:29Z</time>
      </trkpt>
      <trkpt lat="41.65104" lon="9.19318">
        <ele>877.82</ele>
        <time>2022-05-01T15:36:02Z</time>
      </trkpt>
      <trkpt lat="41.65104" lon="9.19322">
        <ele>878.3</ele>
        <time>2022-05-01T15:36:28Z</time>
      </trkpt>
      <trkpt lat="41.65093" lon="9.19319">
        <ele>878.3</ele>
        <time>2022-05-01T15:36:57Z</time>
      </trkpt>
      <trkpt lat="41.65103" lon="9.19324">
        <ele>878.78</ele>
        <time>2022-05-01T15:37:30Z</time>
      </trkpt>
      <trkpt lat="41.65104" lon="9.19327">
        <ele>879.26</ele>
        <time>2022-05-01T15:37:58Z</time>
      </trkpt>
      <trkpt lat="41.65106" lon="9.19325">
        <ele>878.78</ele>
        <time>2022-05-01T15:38:24Z</time>
      </trkpt>
      <trkpt lat="41.65111" lon="9.19329">
        <ele>878.78</ele>
        <time>2022-05-01T15:38:51Z</time>
      </trkpt>
      <trkpt lat="41.65111" lon="9.1933">
        <ele>876.86</ele>
        <time>2022-05-01T15:38:52Z</time>
      </trkpt>
      <trkpt lat="41.65111" lon="9.1933">
        <ele>876.86</ele>
        <time>2022-05-01T15:38:53Z</time>
      </trkpt>
      <trkpt lat="41.6511" lon="9.19329">
        <ele>875.42</ele>
        <time>2022-05-01T15:38:57Z</time>
      </trkpt>
      <trkpt lat="41.65112" lon="9.19345">
        <ele>868.69</ele>
        <time>2022-05-02T07:57:46Z</time>
      </trkpt>
      <trkpt lat="41.65112" lon="9.19345">
        <ele>867.73</ele>
        <time>2022-05-02T07:57:47Z</time>
      </trkpt>
      <trkpt lat="41.65112" lon="9.19355">
        <ele>867.25</ele>
        <time>2022-05-02T07:57:55Z</time>
      </trkpt>
      <trkpt lat="41.65118" lon="9.19376">
        <ele>866.29</ele>
        <time>2022-05-02T07:58:11Z</time>
      </trkpt>
      <trkpt lat="41.65122" lon="9.19391">
        <ele>865.32</ele>
        <time>2022-05-02T07:58:27Z</time>
      </trkpt>
      <trkpt lat="41.65128" lon="9.19401">
        <ele>864.84</ele>
        <time>2022-05-02T07:58:36Z</time>
      </trkpt>
      <trkpt lat="41.65138" lon="9.19417">
        <ele>863.88</ele>
        <time>2022-05-02T07:58:51Z</time>
      </trkpt>
      <trkpt lat="41.65141" lon="9.19434">
        <ele>861.96</ele>
        <time>2022-05-02T07:59:04Z</time>
      </trkpt>
      <trkpt lat="41.65133" lon="9.19443">
        <ele>860.52</ele>
        <time>2022-05-02T07:59:19Z</time>
      </trkpt>
      <trkpt lat="41.65128" lon="9.19447">
        <ele>860.04</ele>
        <time>2022-05-02T07:59:31Z</time>
      </trkpt>
      <trkpt lat="41.65114" lon="9.19441">
        <ele>858.11</ele>
        <time>2022-05-02T07:59:44Z</time>
      </trkpt>
      <trkpt lat="41.65103" lon="9.19434">
        <ele>854.75</ele>
        <time>2022-05-02T07:59:54Z</time>
      </trkpt>
      <trkpt lat="41.651" lon="9.19431">
        <ele>852.83</ele>
        <time>2022-05-02T07:59:57Z</time>
      </trkpt>
      <trkpt lat="41.65098" lon="9.19429">
        <ele>850.42</ele>
        <time>2022-05-02T08:00:03Z</time>
      </trkpt>
      <trkpt lat="41.65097" lon="9.19428">
        <ele>849.46</ele>
        <time>2022-05-02T08:00:05Z</time>
      </trkpt>
      <trkpt lat="41.65094" lon="9.19425">
        <ele>848.02</ele>
        <time>2022-05-02T08:00:09Z</time>
      </trkpt>
      <trkpt lat="41.65085" lon="9.19416">
        <ele>845.14</ele>
        <time>2022-05-02T08:00:20Z</time>
      </trkpt>
      <trkpt lat="41.65071" lon="9.19407">
        <ele>843.69</ele>
        <time>2022-05-02T08:00:38Z</time>
      </trkpt>
      <trkpt lat="41.65059" lon="9.19401">
        <ele>842.73</ele>
        <time>2022-05-02T08:00:55Z</time>
      </trkpt>
      <trkpt lat="41.65057" lon="9.19401">
        <ele>843.21</ele>
        <time>2022-05-02T08:01:10Z</time>
      </trkpt>
      <trkpt lat="41.6505" lon="9.19401">
        <ele>841.77</ele>
        <time>2022-05-02T08:01:28Z</time>
      </trkpt>
      <trkpt lat="41.65047" lon="9.19425">
        <ele>839.85</ele>
        <time>2022-05-02T08:01:47Z</time>
      </trkpt>
      <trkpt lat="41.65047" lon="9.19432">
        <ele>839.85</ele>
        <time>2022-05-02T08:02:01Z</time>
      </trkpt>
      <trkpt lat="41.65051" lon="9.19438">
        <ele>838.89</ele>
        <time>2022-05-02T08:02:06Z</time>
      </trkpt>
      <trkpt lat="41.65067" lon="9.19454">
        <ele>837.93</ele>
        <time>2022-05-02T08:02:20Z</time>
      </trkpt>
      <trkpt lat="41.65085" lon="9.19473">
        <ele>836</ele>
        <time>2022-05-02T08:02:38Z</time>
      </trkpt>
      <trkpt lat="41.65092" lon="9.19484">
        <ele>834.56</ele>
        <time>2022-05-02T08:02:53Z</time>
      </trkpt>
      <trkpt lat="41.65092" lon="9.19484">
        <ele>835.04</ele>
        <time>2022-05-02T08:02:54Z</time>
      </trkpt>
      <trkpt lat="41.65098" lon="9.19486">
        <ele>835.04</ele>
        <time>2022-05-02T08:03:02Z</time>
      </trkpt>
      <trkpt lat="41.65099" lon="9.19486">
        <ele>835.04</ele>
        <time>2022-05-02T08:03:20Z</time>
      </trkpt>
      <trkpt lat="41.65118" lon="9.19503">
        <ele>835.52</ele>
        <time>2022-05-02T08:03:40Z</time>
      </trkpt>
      <trkpt lat="41.65131" lon="9.19513">
        <ele>836.48</ele>
        <time>2022-05-02T08:04:01Z</time>
      </trkpt>
      <trkpt lat="41.65137" lon="9.19515">
        <ele>837.45</ele>
        <time>2022-05-02T08:04:23Z</time>
      </trkpt>
      <trkpt lat="41.65154" lon="9.19535">
        <ele>838.41</ele>
        <time>2022-05-02T08:04:46Z</time>
      </trkpt>
      <trkpt lat="41.65162" lon="9.19538">
        <ele>839.37</ele>
        <time>2022-05-02T08:05:04Z</time>
      </trkpt>
      <trkpt lat="41.65173" lon="9.19549">
        <ele>841.77</ele>
        <time>2022-05-02T08:05:22Z</time>
      </trkpt>
      <trkpt lat="41.65183" lon="9.19559">
        <ele>842.73</ele>
        <time>2022-05-02T08:05:37Z</time>
      </trkpt>
      <trkpt lat="41.65194" lon="9.1957">
        <ele>843.21</ele>
        <time>2022-05-02T08:05:52Z</time>
      </trkpt>
      <trkpt lat="41.65209" lon="9.19592">
        <ele>844.18</ele>
        <time>2022-05-02T08:06:11Z</time>
      </trkpt>
      <trkpt lat="41.65221" lon="9.19604">
        <ele>843.69</ele>
        <time>2022-05-02T08:06:28Z</time>
      </trkpt>
      <trkpt lat="41.65225" lon="9.19623">
        <ele>844.18</ele>
        <time>2022-05-02T08:06:45Z</time>
      </trkpt>
      <trkpt lat="41.65232" lon="9.19646">
        <ele>843.69</ele>
        <time>2022-05-02T08:06:59Z</time>
      </trkpt>
      <trkpt lat="41.65233" lon="9.19671">
        <ele>844.66</ele>
        <time>2022-05-02T08:07:12Z</time>
      </trkpt>
      <trkpt lat="41.65234" lon="9.19676">
        <ele>843.21</ele>
        <time>2022-05-02T08:07:15Z</time>
      </trkpt>
      <trkpt lat="41.65233" lon="9.19702">
        <ele>842.73</ele>
        <time>2022-05-02T08:07:32Z</time>
      </trkpt>
      <trkpt lat="41.65238" lon="9.19716">
        <ele>842.73</ele>
        <time>2022-05-02T08:07:46Z</time>
      </trkpt>
      <trkpt lat="41.65239" lon="9.19719">
        <ele>843.21</ele>
        <time>2022-05-02T08:07:48Z</time>
      </trkpt>
      <trkpt lat="41.65242" lon="9.19736">
        <ele>841.29</ele>
        <time>2022-05-02T08:08:03Z</time>
      </trkpt>
      <trkpt lat="41.65242" lon="9.19741">
        <ele>841.29</ele>
        <time>2022-05-02T08:08:07Z</time>
      </trkpt>
      <trkpt lat="41.65248" lon="9.19754">
        <ele>839.85</ele>
        <time>2022-05-02T08:08:19Z</time>
      </trkpt>
      <trkpt lat="41.65248" lon="9.19771">
        <ele>837.93</ele>
        <time>2022-05-02T08:08:35Z</time>
      </trkpt>
      <trkpt lat="41.65254" lon="9.19776">
        <ele>838.89</ele>
        <time>2022-05-02T08:08:48Z</time>
      </trkpt>
      <trkpt lat="41.65254" lon="9.19777">
        <ele>838.41</ele>
        <time>2022-05-02T08:08:50Z</time>
      </trkpt>
      <trkpt lat="41.65263" lon="9.1979">
        <ele>840.33</ele>
        <time>2022-05-02T08:09:05Z</time>
      </trkpt>
      <trkpt lat="41.6527" lon="9.198">
        <ele>840.33</ele>
        <time>2022-05-02T08:09:18Z</time>
      </trkpt>
      <trkpt lat="41.65281" lon="9.19809">
        <ele>838.89</ele>
        <time>2022-05-02T08:09:33Z</time>
      </trkpt>
      <trkpt lat="41.65283" lon="9.19813">
        <ele>837.93</ele>
        <time>2022-05-02T08:09:38Z</time>
      </trkpt>
      <trkpt lat="41.65292" lon="9.19823">
        <ele>836.48</ele>
        <time>2022-05-02T08:09:50Z</time>
      </trkpt>
      <trkpt lat="41.65297" lon="9.19826">
        <ele>836.48</ele>
        <time>2022-05-02T08:10:04Z</time>
      </trkpt>
      <trkpt lat="41.65313" lon="9.1984">
        <ele>833.6</ele>
        <time>2022-05-02T08:10:20Z</time>
      </trkpt>
      <trkpt lat="41.65316" lon="9.19847">
        <ele>832.16</ele>
        <time>2022-05-02T08:10:25Z</time>
      </trkpt>
      <trkpt lat="41.65321" lon="9.19851">
        <ele>831.68</ele>
        <time>2022-05-02T08:10:30Z</time>
      </trkpt>
      <trkpt lat="41.65323" lon="9.19864">
        <ele>828.31</ele>
        <time>2022-05-02T08:10:44Z</time>
      </trkpt>
      <trkpt lat="41.65319" lon="9.19871">
        <ele>828.31</ele>
        <time>2022-05-02T08:10:58Z</time>
      </trkpt>
      <trkpt lat="41.65318" lon="9.19873">
        <ele>827.35</ele>
        <time>2022-05-02T08:11:01Z</time>
      </trkpt>
      <trkpt lat="41.65307" lon="9.19881">
        <ele>824.95</ele>
        <time>2022-05-02T08:11:12Z</time>
      </trkpt>
      <trkpt lat="41.65304" lon="9.19885">
        <ele>823.51</ele>
        <time>2022-05-02T08:11:16Z</time>
      </trkpt>
      <trkpt lat="41.65305" lon="9.19903">
        <ele>820.62</ele>
        <time>2022-05-02T08:11:31Z</time>
      </trkpt>
      <trkpt lat="41.65307" lon="9.19907">
        <ele>821.1</ele>
        <time>2022-05-02T08:11:46Z</time>
      </trkpt>
      <trkpt lat="41.6531" lon="9.19902">
        <ele>821.1</ele>
        <time>2022-05-02T08:12:19Z</time>
      </trkpt>
      <trkpt lat="41.65319" lon="9.19903">
        <ele>821.1</ele>
        <time>2022-05-02T08:12:34Z</time>
      </trkpt>
      <trkpt lat="41.65329" lon="9.19897">
        <ele>820.14</ele>
        <time>2022-05-02T08:12:53Z</time>
      </trkpt>
      <trkpt lat="41.6534" lon="9.19896">
        <ele>819.66</ele>
        <time>2022-05-02T08:13:18Z</time>
      </trkpt>
      <trkpt lat="41.65353" lon="9.19908">
        <ele>820.14</ele>
        <time>2022-05-02T08:13:39Z</time>
      </trkpt>
      <trkpt lat="41.65358" lon="9.19915">
        <ele>823.03</ele>
        <time>2022-05-02T08:13:53Z</time>
      </trkpt>
      <trkpt lat="41.65355" lon="9.19934">
        <ele>824.47</ele>
        <time>2022-05-02T08:14:08Z</time>
      </trkpt>
      <trkpt lat="41.6536" lon="9.1995">
        <ele>823.99</ele>
        <time>2022-05-02T08:14:25Z</time>
      </trkpt>
      <trkpt lat="41.65355" lon="9.19959">
        <ele>822.55</ele>
        <time>2022-05-02T08:14:40Z</time>
      </trkpt>
      <trkpt lat="41.65356" lon="9.19974">
        <ele>822.55</ele>
        <time>2022-05-02T08:15:15Z</time>
      </trkpt>
      <trkpt lat="41.65363" lon="9.19987">
        <ele>822.06</ele>
        <time>2022-05-02T08:15:31Z</time>
      </trkpt>
      <trkpt lat="41.65379" lon="9.20005">
        <ele>821.58</ele>
        <time>2022-05-02T08:15:50Z</time>
      </trkpt>
      <trkpt lat="41.65381" lon="9.20029">
        <ele>820.62</ele>
        <time>2022-05-02T08:16:06Z</time>
      </trkpt>
      <trkpt lat="41.65378" lon="9.20046">
        <ele>817.26</ele>
        <time>2022-05-02T08:16:21Z</time>
      </trkpt>
      <trkpt lat="41.65368" lon="9.20052">
        <ele>814.37</ele>
        <time>2022-05-02T08:16:38Z</time>
      </trkpt>
      <trkpt lat="41.6536" lon="9.20042">
        <ele>811.01</ele>
        <time>2022-05-02T08:16:50Z</time>
      </trkpt>
      <trkpt lat="41.65358" lon="9.20041">
        <ele>810.05</ele>
        <time>2022-05-02T08:16:52Z</time>
      </trkpt>
      <trkpt lat="41.65349" lon="9.20033">
        <ele>809.09</ele>
        <time>2022-05-02T08:17:01Z</time>
      </trkpt>
      <trkpt lat="41.65336" lon="9.20027">
        <ele>805.72</ele>
        <time>2022-05-02T08:17:14Z</time>
      </trkpt>
      <trkpt lat="41.65337" lon="9.20044">
        <ele>803.32</ele>
        <time>2022-05-02T08:17:28Z</time>
      </trkpt>
      <trkpt lat="41.65333" lon="9.20059">
        <ele>800.92</ele>
        <time>2022-05-02T08:17:45Z</time>
      </trkpt>
      <trkpt lat="41.65333" lon="9.20075">
        <ele>798.03</ele>
        <time>2022-05-02T08:18:00Z</time>
      </trkpt>
      <trkpt lat="41.65335" lon="9.20093">
        <ele>796.11</ele>
        <time>2022-05-02T08:18:15Z</time>
      </trkpt>
      <trkpt lat="41.65335" lon="9.20112">
        <ele>794.19</ele>
        <time>2022-05-02T08:18:31Z</time>
      </trkpt>
      <trkpt lat="41.65339" lon="9.20132">
        <ele>791.78</ele>
        <time>2022-05-02T08:18:47Z</time>
      </trkpt>
      <trkpt lat="41.65338" lon="9.20155">
        <ele>788.9</ele>
        <time>2022-05-02T08:19:08Z</time>
      </trkpt>
      <trkpt lat="41.65332" lon="9.20163">
        <ele>787.46</ele>
        <time>2022-05-02T08:19:26Z</time>
      </trkpt>
      <trkpt lat="41.65328" lon="9.20172">
        <ele>785.53</ele>
        <time>2022-05-02T08:19:39Z</time>
      </trkpt>
      <trkpt lat="41.6532" lon="9.20163">
        <ele>782.17</ele>
        <time>2022-05-02T08:19:54Z</time>
      </trkpt>
      <trkpt lat="41.65312" lon="9.20175">
        <ele>779.29</ele>
        <time>2022-05-02T08:20:10Z</time>
      </trkpt>
      <trkpt lat="41.65306" lon="9.20161">
        <ele>777.36</ele>
        <time>2022-05-02T08:20:23Z</time>
      </trkpt>
      <trkpt lat="41.65305" lon="9.20159">
        <ele>776.88</ele>
        <time>2022-05-02T08:20:24Z</time>
      </trkpt>
      <trkpt lat="41.65303" lon="9.20147">
        <ele>774.96</ele>
        <time>2022-05-02T08:20:38Z</time>
      </trkpt>
      <trkpt lat="41.65294" lon="9.20134">
        <ele>772.08</ele>
        <time>2022-05-02T08:20:54Z</time>
      </trkpt>
      <trkpt lat="41.65288" lon="9.20144">
        <ele>769.67</ele>
        <time>2022-05-02T08:21:08Z</time>
      </trkpt>
      <trkpt lat="41.65282" lon="9.20156">
        <ele>768.71</ele>
        <time>2022-05-02T08:21:21Z</time>
      </trkpt>
      <trkpt lat="41.65276" lon="9.20165">
        <ele>765.83</ele>
        <time>2022-05-02T08:21:34Z</time>
      </trkpt>
      <trkpt lat="41.65272" lon="9.20171">
        <ele>763.42</ele>
        <time>2022-05-02T08:21:48Z</time>
      </trkpt>
      <trkpt lat="41.65267" lon="9.20187">
        <ele>760.54</ele>
        <time>2022-05-02T08:22:05Z</time>
      </trkpt>
      <trkpt lat="41.65266" lon="9.2021">
        <ele>757.18</ele>
        <time>2022-05-02T08:22:22Z</time>
      </trkpt>
      <trkpt lat="41.65266" lon="9.20225">
        <ele>754.77</ele>
        <time>2022-05-02T08:22:37Z</time>
      </trkpt>
      <trkpt lat="41.65266" lon="9.20237">
        <ele>752.37</ele>
        <time>2022-05-02T08:22:52Z</time>
      </trkpt>
      <trkpt lat="41.65259" lon="9.20234">
        <ele>749.97</ele>
        <time>2022-05-02T08:23:11Z</time>
      </trkpt>
      <trkpt lat="41.65253" lon="9.20246">
        <ele>746.6</ele>
        <time>2022-05-02T08:23:28Z</time>
      </trkpt>
      <trkpt lat="41.65247" lon="9.20241">
        <ele>746.12</ele>
        <time>2022-05-02T08:23:48Z</time>
      </trkpt>
      <trkpt lat="41.65249" lon="9.20257">
        <ele>745.64</ele>
        <time>2022-05-02T08:24:07Z</time>
      </trkpt>
      <trkpt lat="41.65254" lon="9.2028">
        <ele>743.72</ele>
        <time>2022-05-02T08:24:23Z</time>
      </trkpt>
      <trkpt lat="41.65256" lon="9.20298">
        <ele>742.76</ele>
        <time>2022-05-02T08:24:42Z</time>
      </trkpt>
      <trkpt lat="41.65257" lon="9.20315">
        <ele>741.31</ele>
        <time>2022-05-02T08:25:04Z</time>
      </trkpt>
      <trkpt lat="41.65252" lon="9.20329">
        <ele>738.91</ele>
        <time>2022-05-02T08:25:20Z</time>
      </trkpt>
      <trkpt lat="41.6524" lon="9.20317">
        <ele>736.03</ele>
        <time>2022-05-02T08:25:32Z</time>
      </trkpt>
      <trkpt lat="41.6523" lon="9.20297">
        <ele>734.1</ele>
        <time>2022-05-02T08:25:50Z</time>
      </trkpt>
      <trkpt lat="41.65222" lon="9.2029">
        <ele>730.74</ele>
        <time>2022-05-02T08:26:03Z</time>
      </trkpt>
      <trkpt lat="41.65211" lon="9.20295">
        <ele>729.78</ele>
        <time>2022-05-02T08:26:20Z</time>
      </trkpt>
      <trkpt lat="41.65212" lon="9.20289">
        <ele>729.78</ele>
        <time>2022-05-02T08:26:39Z</time>
      </trkpt>
      <trkpt lat="41.65212" lon="9.20281">
        <ele>728.34</ele>
        <time>2022-05-02T08:26:52Z</time>
      </trkpt>
      <trkpt lat="41.65209" lon="9.20278">
        <ele>726.89</ele>
        <time>2022-05-02T08:26:55Z</time>
      </trkpt>
      <trkpt lat="41.65199" lon="9.20268">
        <ele>724.49</ele>
        <time>2022-05-02T08:27:08Z</time>
      </trkpt>
      <trkpt lat="41.65196" lon="9.20267">
        <ele>723.05</ele>
        <time>2022-05-02T08:27:15Z</time>
      </trkpt>
      <trkpt lat="41.65192" lon="9.20283">
        <ele>721.13</ele>
        <time>2022-05-02T08:27:30Z</time>
      </trkpt>
      <trkpt lat="41.65189" lon="9.20285">
        <ele>718.72</ele>
        <time>2022-05-02T08:27:46Z</time>
      </trkpt>
      <trkpt lat="41.65194" lon="9.20292">
        <ele>718.24</ele>
        <time>2022-05-02T08:28:13Z</time>
      </trkpt>
      <trkpt lat="41.6519" lon="9.2029">
        <ele>717.76</ele>
        <time>2022-05-02T08:28:39Z</time>
      </trkpt>
      <trkpt lat="41.65175" lon="9.20306">
        <ele>715.84</ele>
        <time>2022-05-02T08:28:58Z</time>
      </trkpt>
      <trkpt lat="41.65173" lon="9.20306">
        <ele>714.4</ele>
        <time>2022-05-02T08:29:02Z</time>
      </trkpt>
      <trkpt lat="41.65165" lon="9.20296">
        <ele>711.51</ele>
        <time>2022-05-02T08:29:18Z</time>
      </trkpt>
      <trkpt lat="41.65161" lon="9.20278">
        <ele>709.11</ele>
        <time>2022-05-02T08:29:33Z</time>
      </trkpt>
      <trkpt lat="41.65155" lon="9.20273">
        <ele>707.67</ele>
        <time>2022-05-02T08:29:47Z</time>
      </trkpt>
      <trkpt lat="41.65152" lon="9.20271">
        <ele>706.71</ele>
        <time>2022-05-02T08:29:51Z</time>
      </trkpt>
      <trkpt lat="41.65147" lon="9.2025">
        <ele>705.26</ele>
        <time>2022-05-02T08:30:10Z</time>
      </trkpt>
      <trkpt lat="41.65141" lon="9.20244">
        <ele>703.34</ele>
        <time>2022-05-02T08:30:27Z</time>
      </trkpt>
      <trkpt lat="41.65131" lon="9.20253">
        <ele>699.98</ele>
        <time>2022-05-02T08:30:40Z</time>
      </trkpt>
      <trkpt lat="41.65124" lon="9.2027">
        <ele>698.53</ele>
        <time>2022-05-02T08:30:54Z</time>
      </trkpt>
      <trkpt lat="41.6512" lon="9.20285">
        <ele>696.13</ele>
        <time>2022-05-02T08:31:12Z</time>
      </trkpt>
      <trkpt lat="41.65119" lon="9.20302">
        <ele>693.25</ele>
        <time>2022-05-02T08:31:29Z</time>
      </trkpt>
      <trkpt lat="41.65115" lon="9.20317">
        <ele>692.29</ele>
        <time>2022-05-02T08:31:43Z</time>
      </trkpt>
      <trkpt lat="41.6511" lon="9.20336">
        <ele>688.92</ele>
        <time>2022-05-02T08:32:01Z</time>
      </trkpt>
      <trkpt lat="41.65108" lon="9.20357">
        <ele>686.52</ele>
        <time>2022-05-02T08:32:18Z</time>
      </trkpt>
      <trkpt lat="41.65102" lon="9.20385">
        <ele>684.6</ele>
        <time>2022-05-02T08:32:36Z</time>
      </trkpt>
      <trkpt lat="41.65101" lon="9.2039">
        <ele>684.6</ele>
        <time>2022-05-02T08:32:53Z</time>
      </trkpt>
      <trkpt lat="41.65096" lon="9.204">
        <ele>683.63</ele>
        <time>2022-05-02T08:33:17Z</time>
      </trkpt>
      <trkpt lat="41.65093" lon="9.20411">
        <ele>683.15</ele>
        <time>2022-05-02T08:33:35Z</time>
      </trkpt>
      <trkpt lat="41.6509" lon="9.20431">
        <ele>682.67</ele>
        <time>2022-05-02T08:33:55Z</time>
      </trkpt>
      <trkpt lat="41.65082" lon="9.20452">
        <ele>683.15</ele>
        <time>2022-05-02T08:34:10Z</time>
      </trkpt>
      <trkpt lat="41.65079" lon="9.20471">
        <ele>683.15</ele>
        <time>2022-05-02T08:34:28Z</time>
      </trkpt>
      <trkpt lat="41.65071" lon="9.20476">
        <ele>681.71</ele>
        <time>2022-05-02T08:34:55Z</time>
      </trkpt>
      <trkpt lat="41.65059" lon="9.20497">
        <ele>679.31</ele>
        <time>2022-05-02T08:35:12Z</time>
      </trkpt>
      <trkpt lat="41.65051" lon="9.2051">
        <ele>675.94</ele>
        <time>2022-05-02T08:35:25Z</time>
      </trkpt>
      <trkpt lat="41.65038" lon="9.20518">
        <ele>673.06</ele>
        <time>2022-05-02T08:35:38Z</time>
      </trkpt>
      <trkpt lat="41.65019" lon="9.20524">
        <ele>670.18</ele>
        <time>2022-05-02T08:35:57Z</time>
      </trkpt>
      <trkpt lat="41.65008" lon="9.20528">
        <ele>668.25</ele>
        <time>2022-05-02T08:36:06Z</time>
      </trkpt>
      <trkpt lat="41.64993" lon="9.20532">
        <ele>665.85</ele>
        <time>2022-05-02T08:36:23Z</time>
      </trkpt>
      <trkpt lat="41.6498" lon="9.2053">
        <ele>663.93</ele>
        <time>2022-05-02T08:36:38Z</time>
      </trkpt>
      <trkpt lat="41.64965" lon="9.2053">
        <ele>660.56</ele>
        <time>2022-05-02T08:36:53Z</time>
      </trkpt>
      <trkpt lat="41.64951" lon="9.20537">
        <ele>657.2</ele>
        <time>2022-05-02T08:37:08Z</time>
      </trkpt>
      <trkpt lat="41.64933" lon="9.20545">
        <ele>654.8</ele>
        <time>2022-05-02T08:37:28Z</time>
      </trkpt>
      <trkpt lat="41.64912" lon="9.20554">
        <ele>652.87</ele>
        <time>2022-05-02T08:37:48Z</time>
      </trkpt>
      <trkpt lat="41.64913" lon="9.20556">
        <ele>653.35</ele>
        <time>2022-05-02T08:38:12Z</time>
      </trkpt>
      <trkpt lat="41.64902" lon="9.20563">
        <ele>651.91</ele>
        <time>2022-05-02T08:38:33Z</time>
      </trkpt>
      <trkpt lat="41.64902" lon="9.20563">
        <ele>651.91</ele>
        <time>2022-05-02T08:38:34Z</time>
      </trkpt>
      <trkpt lat="41.64887" lon="9.20575">
        <ele>649.51</ele>
        <time>2022-05-02T08:38:49Z</time>
      </trkpt>
      <trkpt lat="41.64882" lon="9.20577">
        <ele>647.1</ele>
        <time>2022-05-02T08:38:58Z</time>
      </trkpt>
      <trkpt lat="41.64873" lon="9.20577">
        <ele>644.7</ele>
        <time>2022-05-02T08:39:10Z</time>
      </trkpt>
      <trkpt lat="41.64863" lon="9.20574">
        <ele>641.34</ele>
        <time>2022-05-02T08:39:26Z</time>
      </trkpt>
      <trkpt lat="41.64847" lon="9.20576">
        <ele>638.45</ele>
        <time>2022-05-02T08:39:41Z</time>
      </trkpt>
      <trkpt lat="41.64834" lon="9.20577">
        <ele>637.01</ele>
        <time>2022-05-02T08:39:52Z</time>
      </trkpt>
      <trkpt lat="41.64816" lon="9.20582">
        <ele>634.13</ele>
        <time>2022-05-02T08:40:08Z</time>
      </trkpt>
      <trkpt lat="41.64803" lon="9.20583">
        <ele>632.68</ele>
        <time>2022-05-02T08:40:23Z</time>
      </trkpt>
      <trkpt lat="41.6479" lon="9.20587">
        <ele>630.28</ele>
        <time>2022-05-02T08:40:37Z</time>
      </trkpt>
      <trkpt lat="41.64775" lon="9.20583">
        <ele>627.88</ele>
        <time>2022-05-02T08:40:51Z</time>
      </trkpt>
      <trkpt lat="41.64771" lon="9.2058">
        <ele>626.44</ele>
        <time>2022-05-02T08:40:54Z</time>
      </trkpt>
      <trkpt lat="41.64757" lon="9.20585">
        <ele>622.59</ele>
        <time>2022-05-02T08:41:08Z</time>
      </trkpt>
      <trkpt lat="41.64752" lon="9.20579">
        <ele>622.11</ele>
        <time>2022-05-02T08:41:22Z</time>
      </trkpt>
      <trkpt lat="41.64751" lon="9.20578">
        <ele>621.63</ele>
        <time>2022-05-02T08:41:24Z</time>
      </trkpt>
      <trkpt lat="41.64746" lon="9.20582">
        <ele>622.11</ele>
        <time>2022-05-02T08:41:38Z</time>
      </trkpt>
      <trkpt lat="41.64748" lon="9.20577">
        <ele>622.59</ele>
        <time>2022-05-02T08:42:03Z</time>
      </trkpt>
      <trkpt lat="41.64759" lon="9.20571">
        <ele>622.59</ele>
        <time>2022-05-02T08:42:34Z</time>
      </trkpt>
      <trkpt lat="41.64741" lon="9.20564">
        <ele>621.15</ele>
        <time>2022-05-02T08:43:06Z</time>
      </trkpt>
      <trkpt lat="41.64722" lon="9.20562">
        <ele>618.75</ele>
        <time>2022-05-02T08:43:22Z</time>
      </trkpt>
      <trkpt lat="41.64716" lon="9.20558">
        <ele>615.86</ele>
        <time>2022-05-02T08:43:29Z</time>
      </trkpt>
      <trkpt lat="41.64704" lon="9.20554">
        <ele>612.5</ele>
        <time>2022-05-02T08:43:40Z</time>
      </trkpt>
      <trkpt lat="41.64695" lon="9.20561">
        <ele>609.61</ele>
        <time>2022-05-02T08:43:52Z</time>
      </trkpt>
      <trkpt lat="41.64694" lon="9.20562">
        <ele>609.61</ele>
        <time>2022-05-02T08:43:53Z</time>
      </trkpt>
      <trkpt lat="41.64697" lon="9.20579">
        <ele>606.73</ele>
        <time>2022-05-02T08:44:12Z</time>
      </trkpt>
      <trkpt lat="41.64693" lon="9.20599">
        <ele>603.36</ele>
        <time>2022-05-02T08:44:26Z</time>
      </trkpt>
      <trkpt lat="41.64688" lon="9.2062">
        <ele>602.4</ele>
        <time>2022-05-02T08:44:43Z</time>
      </trkpt>
      <trkpt lat="41.64693" lon="9.20638">
        <ele>600.96</ele>
        <time>2022-05-02T08:44:58Z</time>
      </trkpt>
      <trkpt lat="41.64695" lon="9.2064">
        <ele>599.04</ele>
        <time>2022-05-02T08:45:12Z</time>
      </trkpt>
      <trkpt lat="41.64698" lon="9.20634">
        <ele>599.52</ele>
        <time>2022-05-02T08:45:43Z</time>
      </trkpt>
      <trkpt lat="41.64694" lon="9.20643">
        <ele>598.08</ele>
        <time>2022-05-02T08:46:01Z</time>
      </trkpt>
      <trkpt lat="41.64683" lon="9.20665">
        <ele>594.71</ele>
        <time>2022-05-02T08:46:16Z</time>
      </trkpt>
      <trkpt lat="41.64668" lon="9.20671">
        <ele>592.31</ele>
        <time>2022-05-02T08:46:32Z</time>
      </trkpt>
      <trkpt lat="41.64658" lon="9.20668">
        <ele>589.43</ele>
        <time>2022-05-02T08:46:42Z</time>
      </trkpt>
      <trkpt lat="41.64642" lon="9.2066">
        <ele>586.06</ele>
        <time>2022-05-02T08:47:00Z</time>
      </trkpt>
      <trkpt lat="41.64627" lon="9.20665">
        <ele>582.7</ele>
        <time>2022-05-02T08:47:16Z</time>
      </trkpt>
      <trkpt lat="41.64614" lon="9.20669">
        <ele>579.81</ele>
        <time>2022-05-02T08:47:30Z</time>
      </trkpt>
      <trkpt lat="41.64601" lon="9.20667">
        <ele>577.89</ele>
        <time>2022-05-02T08:47:45Z</time>
      </trkpt>
      <trkpt lat="41.6459" lon="9.20664">
        <ele>575.97</ele>
        <time>2022-05-02T08:47:58Z</time>
      </trkpt>
      <trkpt lat="41.64572" lon="9.20656">
        <ele>575.01</ele>
        <time>2022-05-02T08:48:14Z</time>
      </trkpt>
      <trkpt lat="41.6455" lon="9.20645">
        <ele>572.6</ele>
        <time>2022-05-02T08:48:34Z</time>
      </trkpt>
      <trkpt lat="41.64534" lon="9.20635">
        <ele>570.68</ele>
        <time>2022-05-02T08:48:50Z</time>
      </trkpt>
      <trkpt lat="41.64517" lon="9.20634">
        <ele>569.24</ele>
        <time>2022-05-02T08:49:04Z</time>
      </trkpt>
      <trkpt lat="41.64493" lon="9.20624">
        <ele>567.8</ele>
        <time>2022-05-02T08:49:22Z</time>
      </trkpt>
      <trkpt lat="41.64477" lon="9.20613">
        <ele>566.83</ele>
        <time>2022-05-02T08:49:38Z</time>
      </trkpt>
      <trkpt lat="41.64462" lon="9.20606">
        <ele>564.43</ele>
        <time>2022-05-02T08:49:53Z</time>
      </trkpt>
      <trkpt lat="41.64439" lon="9.20612">
        <ele>563.47</ele>
        <time>2022-05-02T08:50:11Z</time>
      </trkpt>
      <trkpt lat="41.64419" lon="9.20616">
        <ele>562.51</ele>
        <time>2022-05-02T08:50:30Z</time>
      </trkpt>
      <trkpt lat="41.64402" lon="9.20617">
        <ele>560.11</ele>
        <time>2022-05-02T08:50:49Z</time>
      </trkpt>
      <trkpt lat="41.64397" lon="9.20616">
        <ele>560.11</ele>
        <time>2022-05-02T08:51:14Z</time>
      </trkpt>
      <trkpt lat="41.64399" lon="9.20615">
        <ele>559.14</ele>
        <time>2022-05-02T08:51:35Z</time>
      </trkpt>
      <trkpt lat="41.64377" lon="9.20614">
        <ele>556.26</ele>
        <time>2022-05-02T08:51:52Z</time>
      </trkpt>
      <trkpt lat="41.64366" lon="9.20612">
        <ele>552.9</ele>
        <time>2022-05-02T08:52:06Z</time>
      </trkpt>
      <trkpt lat="41.64355" lon="9.20611">
        <ele>550.01</ele>
        <time>2022-05-02T08:52:20Z</time>
      </trkpt>
      <trkpt lat="41.64342" lon="9.20604">
        <ele>547.13</ele>
        <time>2022-05-02T08:52:35Z</time>
      </trkpt>
      <trkpt lat="41.64334" lon="9.20605">
        <ele>545.69</ele>
        <time>2022-05-02T08:52:43Z</time>
      </trkpt>
      <trkpt lat="41.64321" lon="9.20609">
        <ele>545.2</ele>
        <time>2022-05-02T08:52:57Z</time>
      </trkpt>
      <trkpt lat="41.64326" lon="9.20601">
        <ele>545.2</ele>
        <time>2022-05-02T08:53:27Z</time>
      </trkpt>
      <trkpt lat="41.64326" lon="9.20603">
        <ele>544.72</ele>
        <time>2022-05-02T08:53:56Z</time>
      </trkpt>
      <trkpt lat="41.64326" lon="9.20607">
        <ele>545.69</ele>
        <time>2022-05-02T08:54:20Z</time>
      </trkpt>
      <trkpt lat="41.6432" lon="9.20604">
        <ele>544.24</ele>
        <time>2022-05-02T08:54:51Z</time>
      </trkpt>
      <trkpt lat="41.64306" lon="9.20595">
        <ele>542.8</ele>
        <time>2022-05-02T08:55:07Z</time>
      </trkpt>
      <trkpt lat="41.64285" lon="9.20586">
        <ele>539.92</ele>
        <time>2022-05-02T08:55:27Z</time>
      </trkpt>
      <trkpt lat="41.64269" lon="9.20579">
        <ele>536.55</ele>
        <time>2022-05-02T08:55:44Z</time>
      </trkpt>
      <trkpt lat="41.64251" lon="9.20566">
        <ele>533.67</ele>
        <time>2022-05-02T08:56:02Z</time>
      </trkpt>
      <trkpt lat="41.64238" lon="9.20553">
        <ele>532.23</ele>
        <time>2022-05-02T08:56:18Z</time>
      </trkpt>
      <trkpt lat="41.64233" lon="9.20551">
        <ele>531.27</ele>
        <time>2022-05-02T08:56:31Z</time>
      </trkpt>
      <trkpt lat="41.64218" lon="9.2056">
        <ele>528.86</ele>
        <time>2022-05-02T08:56:46Z</time>
      </trkpt>
      <trkpt lat="41.64217" lon="9.2056">
        <ele>528.38</ele>
        <time>2022-05-02T08:56:48Z</time>
      </trkpt>
      <trkpt lat="41.64199" lon="9.20565">
        <ele>525.98</ele>
        <time>2022-05-02T08:57:04Z</time>
      </trkpt>
      <trkpt lat="41.64189" lon="9.20577">
        <ele>522.13</ele>
        <time>2022-05-02T08:57:17Z</time>
      </trkpt>
      <trkpt lat="41.64188" lon="9.20578">
        <ele>522.13</ele>
        <time>2022-05-02T08:57:18Z</time>
      </trkpt>
      <trkpt lat="41.64171" lon="9.206">
        <ele>519.73</ele>
        <time>2022-05-02T08:57:34Z</time>
      </trkpt>
      <trkpt lat="41.64159" lon="9.20617">
        <ele>516.85</ele>
        <time>2022-05-02T08:57:49Z</time>
      </trkpt>
      <trkpt lat="41.6415" lon="9.20636">
        <ele>513.96</ele>
        <time>2022-05-02T08:58:03Z</time>
      </trkpt>
      <trkpt lat="41.64139" lon="9.20647">
        <ele>511.56</ele>
        <time>2022-05-02T08:58:18Z</time>
      </trkpt>
      <trkpt lat="41.64139" lon="9.20649">
        <ele>511.56</ele>
        <time>2022-05-02T08:58:40Z</time>
      </trkpt>
      <trkpt lat="41.64131" lon="9.20677">
        <ele>509.16</ele>
        <time>2022-05-02T08:59:02Z</time>
      </trkpt>
      <trkpt lat="41.64123" lon="9.20705">
        <ele>506.27</ele>
        <time>2022-05-02T08:59:22Z</time>
      </trkpt>
      <trkpt lat="41.6412" lon="9.20716">
        <ele>503.39</ele>
        <time>2022-05-02T08:59:31Z</time>
      </trkpt>
      <trkpt lat="41.64111" lon="9.20723">
        <ele>500.98</ele>
        <time>2022-05-02T08:59:45Z</time>
      </trkpt>
      <trkpt lat="41.64099" lon="9.20735">
        <ele>498.1</ele>
        <time>2022-05-02T08:59:57Z</time>
      </trkpt>
      <trkpt lat="41.64087" lon="9.20749">
        <ele>494.74</ele>
        <time>2022-05-02T09:00:10Z</time>
      </trkpt>
      <trkpt lat="41.64073" lon="9.20756">
        <ele>492.81</ele>
        <time>2022-05-02T09:00:30Z</time>
      </trkpt>
      <trkpt lat="41.64067" lon="9.20763">
        <ele>491.37</ele>
        <time>2022-05-02T09:01:00Z</time>
      </trkpt>
      <trkpt lat="41.64056" lon="9.20763">
        <ele>489.93</ele>
        <time>2022-05-02T09:01:18Z</time>
      </trkpt>
      <trkpt lat="41.64041" lon="9.20763">
        <ele>486.56</ele>
        <time>2022-05-02T09:01:34Z</time>
      </trkpt>
      <trkpt lat="41.64019" lon="9.20761">
        <ele>484.16</ele>
        <time>2022-05-02T09:01:51Z</time>
      </trkpt>
      <trkpt lat="41.64006" lon="9.20763">
        <ele>481.28</ele>
        <time>2022-05-02T09:02:02Z</time>
      </trkpt>
      <trkpt lat="41.63989" lon="9.20763">
        <ele>478.39</ele>
        <time>2022-05-02T09:02:16Z</time>
      </trkpt>
      <trkpt lat="41.63974" lon="9.20767">
        <ele>475.03</ele>
        <time>2022-05-02T09:02:26Z</time>
      </trkpt>
      <trkpt lat="41.63967" lon="9.2077">
        <ele>473.11</ele>
        <time>2022-05-02T09:02:32Z</time>
      </trkpt>
      <trkpt lat="41.63947" lon="9.20782">
        <ele>470.22</ele>
        <time>2022-05-02T09:02:48Z</time>
      </trkpt>
      <trkpt lat="41.6393" lon="9.20799">
        <ele>466.86</ele>
        <time>2022-05-02T09:03:06Z</time>
      </trkpt>
      <trkpt lat="41.63933" lon="9.20809">
        <ele>465.9</ele>
        <time>2022-05-02T09:03:25Z</time>
      </trkpt>
      <trkpt lat="41.63931" lon="9.20806">
        <ele>465.42</ele>
        <time>2022-05-02T09:03:52Z</time>
      </trkpt>
      <trkpt lat="41.63935" lon="9.20808">
        <ele>465.42</ele>
        <time>2022-05-02T09:04:28Z</time>
      </trkpt>
      <trkpt lat="41.6393" lon="9.20825">
        <ele>462.53</ele>
        <time>2022-05-02T09:04:45Z</time>
      </trkpt>
      <trkpt lat="41.63932" lon="9.20843">
        <ele>460.61</ele>
        <time>2022-05-02T09:05:01Z</time>
      </trkpt>
      <trkpt lat="41.63938" lon="9.20855">
        <ele>457.24</ele>
        <time>2022-05-02T09:05:18Z</time>
      </trkpt>
      <trkpt lat="41.63937" lon="9.20854">
        <ele>456.28</ele>
        <time>2022-05-02T09:05:44Z</time>
      </trkpt>
      <trkpt lat="41.63947" lon="9.20876">
        <ele>453.4</ele>
        <time>2022-05-02T09:06:01Z</time>
      </trkpt>
      <trkpt lat="41.63961" lon="9.20896">
        <ele>450.52</ele>
        <time>2022-05-02T09:06:18Z</time>
      </trkpt>
      <trkpt lat="41.63951" lon="9.20905">
        <ele>447.63</ele>
        <time>2022-05-02T09:06:33Z</time>
      </trkpt>
      <trkpt lat="41.63951" lon="9.20905">
        <ele>447.15</ele>
        <time>2022-05-02T09:06:50Z</time>
      </trkpt>
      <trkpt lat="41.6394" lon="9.20905">
        <ele>444.75</ele>
        <time>2022-05-02T09:07:12Z</time>
      </trkpt>
      <trkpt lat="41.63938" lon="9.20905">
        <ele>444.75</ele>
        <time>2022-05-02T09:07:13Z</time>
      </trkpt>
      <trkpt lat="41.63925" lon="9.20899">
        <ele>442.82</ele>
        <time>2022-05-02T09:07:28Z</time>
      </trkpt>
      <trkpt lat="41.63921" lon="9.20895">
        <ele>441.38</ele>
        <time>2022-05-02T09:07:40Z</time>
      </trkpt>
      <trkpt lat="41.63906" lon="9.20892">
        <ele>438.98</ele>
        <time>2022-05-02T09:07:59Z</time>
      </trkpt>
      <trkpt lat="41.63888" lon="9.20887">
        <ele>436.58</ele>
        <time>2022-05-02T09:08:16Z</time>
      </trkpt>
      <trkpt lat="41.63869" lon="9.20886">
        <ele>434.17</ele>
        <time>2022-05-02T09:08:33Z</time>
      </trkpt>
      <trkpt lat="41.63853" lon="9.20888">
        <ele>432.25</ele>
        <time>2022-05-02T09:08:49Z</time>
      </trkpt>
      <trkpt lat="41.6384" lon="9.20888">
        <ele>429.37</ele>
        <time>2022-05-02T09:09:03Z</time>
      </trkpt>
      <trkpt lat="41.63833" lon="9.209">
        <ele>428.89</ele>
        <time>2022-05-02T09:09:25Z</time>
      </trkpt>
      <trkpt lat="41.63825" lon="9.20896">
        <ele>427.92</ele>
        <time>2022-05-02T09:09:46Z</time>
      </trkpt>
      <trkpt lat="41.63812" lon="9.20883">
        <ele>426.48</ele>
        <time>2022-05-02T09:10:04Z</time>
      </trkpt>
      <trkpt lat="41.63793" lon="9.20887">
        <ele>423.12</ele>
        <time>2022-05-02T09:10:21Z</time>
      </trkpt>
      <trkpt lat="41.63788" lon="9.20882">
        <ele>422.16</ele>
        <time>2022-05-02T09:10:42Z</time>
      </trkpt>
      <trkpt lat="41.63767" lon="9.20893">
        <ele>419.27</ele>
        <time>2022-05-02T09:11:01Z</time>
      </trkpt>
      <trkpt lat="41.63755" lon="9.20905">
        <ele>416.87</ele>
        <time>2022-05-02T09:11:18Z</time>
      </trkpt>
      <trkpt lat="41.63754" lon="9.20923">
        <ele>414.95</ele>
        <time>2022-05-02T09:11:34Z</time>
      </trkpt>
      <trkpt lat="41.63748" lon="9.20933">
        <ele>413.98</ele>
        <time>2022-05-02T09:11:52Z</time>
      </trkpt>
      <trkpt lat="41.63741" lon="9.20941">
        <ele>412.06</ele>
        <time>2022-05-02T09:12:09Z</time>
      </trkpt>
      <trkpt lat="41.63735" lon="9.20948">
        <ele>411.58</ele>
        <time>2022-05-02T09:12:26Z</time>
      </trkpt>
      <trkpt lat="41.63734" lon="9.20952">
        <ele>410.62</ele>
        <time>2022-05-02T09:12:47Z</time>
      </trkpt>
      <trkpt lat="41.63736" lon="9.20954">
        <ele>412.06</ele>
        <time>2022-05-02T09:13:17Z</time>
      </trkpt>
      <trkpt lat="41.63735" lon="9.20953">
        <ele>410.62</ele>
        <time>2022-05-02T09:13:19Z</time>
      </trkpt>
      <trkpt lat="41.63734" lon="9.20953">
        <ele>411.1</ele>
        <time>2022-05-02T09:13:48Z</time>
      </trkpt>
      <trkpt lat="41.63738" lon="9.20954">
        <ele>410.62</ele>
        <time>2022-05-02T09:14:18Z</time>
      </trkpt>
      <trkpt lat="41.6374" lon="9.20955">
        <ele>411.1</ele>
        <time>2022-05-02T09:14:46Z</time>
      </trkpt>
      <trkpt lat="41.63741" lon="9.20956">
        <ele>411.1</ele>
        <time>2022-05-02T09:15:13Z</time>
      </trkpt>
      <trkpt lat="41.63737" lon="9.20958">
        <ele>411.1</ele>
        <time>2022-05-02T09:15:34Z</time>
      </trkpt>
      <trkpt lat="41.63741" lon="9.20955">
        <ele>411.58</ele>
        <time>2022-05-02T09:16:00Z</time>
      </trkpt>
      <trkpt lat="41.63735" lon="9.20956">
        <ele>411.58</ele>
        <time>2022-05-02T09:16:31Z</time>
      </trkpt>
      <trkpt lat="41.63733" lon="9.20957">
        <ele>411.58</ele>
        <time>2022-05-02T09:16:46Z</time>
      </trkpt>
      <trkpt lat="41.63721" lon="9.20965">
        <ele>411.1</ele>
        <time>2022-05-02T09:17:02Z</time>
      </trkpt>
      <trkpt lat="41.63711" lon="9.20973">
        <ele>409.66</ele>
        <time>2022-05-02T09:17:17Z</time>
      </trkpt>
      <trkpt lat="41.63704" lon="9.2098">
        <ele>408.7</ele>
        <time>2022-05-02T09:17:25Z</time>
      </trkpt>
      <trkpt lat="41.63683" lon="9.20988">
        <ele>406.77</ele>
        <time>2022-05-02T09:17:44Z</time>
      </trkpt>
      <trkpt lat="41.63669" lon="9.20991">
        <ele>404.37</ele>
        <time>2022-05-02T09:18:03Z</time>
      </trkpt>
      <trkpt lat="41.63654" lon="9.2099">
        <ele>401.97</ele>
        <time>2022-05-02T09:18:21Z</time>
      </trkpt>
      <trkpt lat="41.63641" lon="9.20983">
        <ele>400.53</ele>
        <time>2022-05-02T09:18:39Z</time>
      </trkpt>
      <trkpt lat="41.63635" lon="9.20988">
        <ele>398.6</ele>
        <time>2022-05-02T09:18:54Z</time>
      </trkpt>
      <trkpt lat="41.63641" lon="9.21001">
        <ele>395.72</ele>
        <time>2022-05-02T09:19:09Z</time>
      </trkpt>
      <trkpt lat="41.63645" lon="9.2102">
        <ele>393.8</ele>
        <time>2022-05-02T09:19:26Z</time>
      </trkpt>
      <trkpt lat="41.63646" lon="9.21039">
        <ele>390.91</ele>
        <time>2022-05-02T09:19:42Z</time>
      </trkpt>
      <trkpt lat="41.63652" lon="9.21061">
        <ele>388.51</ele>
        <time>2022-05-02T09:20:00Z</time>
      </trkpt>
      <trkpt lat="41.63658" lon="9.21078">
        <ele>387.07</ele>
        <time>2022-05-02T09:20:16Z</time>
      </trkpt>
      <trkpt lat="41.63663" lon="9.21095">
        <ele>384.18</ele>
        <time>2022-05-02T09:20:32Z</time>
      </trkpt>
      <trkpt lat="41.63663" lon="9.21108">
        <ele>381.78</ele>
        <time>2022-05-02T09:20:46Z</time>
      </trkpt>
      <trkpt lat="41.63667" lon="9.21125">
        <ele>378.42</ele>
        <time>2022-05-02T09:21:02Z</time>
      </trkpt>
      <trkpt lat="41.63665" lon="9.2114">
        <ele>376.01</ele>
        <time>2022-05-02T09:21:16Z</time>
      </trkpt>
      <trkpt lat="41.63659" lon="9.21155">
        <ele>373.61</ele>
        <time>2022-05-02T09:21:32Z</time>
      </trkpt>
      <trkpt lat="41.63644" lon="9.21161">
        <ele>370.73</ele>
        <time>2022-05-02T09:21:50Z</time>
      </trkpt>
      <trkpt lat="41.6364" lon="9.21159">
        <ele>370.73</ele>
        <time>2022-05-02T09:22:08Z</time>
      </trkpt>
      <trkpt lat="41.6364" lon="9.2116">
        <ele>370.24</ele>
        <time>2022-05-02T09:22:40Z</time>
      </trkpt>
      <trkpt lat="41.63637" lon="9.21159">
        <ele>370.73</ele>
        <time>2022-05-02T09:23:03Z</time>
      </trkpt>
      <trkpt lat="41.63637" lon="9.21156">
        <ele>371.21</ele>
        <time>2022-05-02T09:23:44Z</time>
      </trkpt>
      <trkpt lat="41.63637" lon="9.21157">
        <ele>371.21</ele>
        <time>2022-05-02T09:24:21Z</time>
      </trkpt>
      <trkpt lat="41.63637" lon="9.21158">
        <ele>370.24</ele>
        <time>2022-05-02T09:24:58Z</time>
      </trkpt>
      <trkpt lat="41.63637" lon="9.21159">
        <ele>370.24</ele>
        <time>2022-05-02T09:24:59Z</time>
      </trkpt>
      <trkpt lat="41.63631" lon="9.21175">
        <ele>367.36</ele>
        <time>2022-05-02T09:25:14Z</time>
      </trkpt>
      <trkpt lat="41.63623" lon="9.21192">
        <ele>364.48</ele>
        <time>2022-05-02T09:25:30Z</time>
      </trkpt>
      <trkpt lat="41.63612" lon="9.21205">
        <ele>362.55</ele>
        <time>2022-05-02T09:25:45Z</time>
      </trkpt>
      <trkpt lat="41.63607" lon="9.21222">
        <ele>360.63</ele>
        <time>2022-05-02T09:26:00Z</time>
      </trkpt>
      <trkpt lat="41.63594" lon="9.21235">
        <ele>357.75</ele>
        <time>2022-05-02T09:26:16Z</time>
      </trkpt>
      <trkpt lat="41.63583" lon="9.21245">
        <ele>355.83</ele>
        <time>2022-05-02T09:26:31Z</time>
      </trkpt>
      <trkpt lat="41.6357" lon="9.21258">
        <ele>353.9</ele>
        <time>2022-05-02T09:26:46Z</time>
      </trkpt>
      <trkpt lat="41.63559" lon="9.21271">
        <ele>352.46</ele>
        <time>2022-05-02T09:27:00Z</time>
      </trkpt>
      <trkpt lat="41.63554" lon="9.21272">
        <ele>351.5</ele>
        <time>2022-05-02T09:27:20Z</time>
      </trkpt>
      <trkpt lat="41.63553" lon="9.21274">
        <ele>351.5</ele>
        <time>2022-05-02T09:27:22Z</time>
      </trkpt>
      <trkpt lat="41.63535" lon="9.21279">
        <ele>348.13</ele>
        <time>2022-05-02T09:27:38Z</time>
      </trkpt>
      <trkpt lat="41.63522" lon="9.21278">
        <ele>347.17</ele>
        <time>2022-05-02T09:27:51Z</time>
      </trkpt>
      <trkpt lat="41.63517" lon="9.2128">
        <ele>346.69</ele>
        <time>2022-05-02T09:27:56Z</time>
      </trkpt>
      <trkpt lat="41.6351" lon="9.21284">
        <ele>345.73</ele>
        <time>2022-05-02T09:28:03Z</time>
      </trkpt>
      <trkpt lat="41.63498" lon="9.21301">
        <ele>342.85</ele>
        <time>2022-05-02T09:28:20Z</time>
      </trkpt>
      <trkpt lat="41.63499" lon="9.21317">
        <ele>340.44</ele>
        <time>2022-05-02T09:28:34Z</time>
      </trkpt>
      <trkpt lat="41.63501" lon="9.21324">
        <ele>339.48</ele>
        <time>2022-05-02T09:28:50Z</time>
      </trkpt>
      <trkpt lat="41.63501" lon="9.21328">
        <ele>339</ele>
        <time>2022-05-02T09:29:15Z</time>
      </trkpt>
      <trkpt lat="41.63504" lon="9.21343">
        <ele>338.52</ele>
        <time>2022-05-02T09:29:47Z</time>
      </trkpt>
      <trkpt lat="41.63503" lon="9.21361">
        <ele>335.16</ele>
        <time>2022-05-02T09:30:02Z</time>
      </trkpt>
      <trkpt lat="41.63493" lon="9.21373">
        <ele>334.68</ele>
        <time>2022-05-02T09:30:20Z</time>
      </trkpt>
      <trkpt lat="41.63485" lon="9.21379">
        <ele>333.71</ele>
        <time>2022-05-02T09:30:39Z</time>
      </trkpt>
      <trkpt lat="41.63484" lon="9.21379">
        <ele>333.71</ele>
        <time>2022-05-02T09:31:07Z</time>
      </trkpt>
      <trkpt lat="41.63482" lon="9.2138">
        <ele>333.23</ele>
        <time>2022-05-02T09:31:30Z</time>
      </trkpt>
      <trkpt lat="41.63483" lon="9.2138">
        <ele>333.23</ele>
        <time>2022-05-02T09:31:56Z</time>
      </trkpt>
      <trkpt lat="41.63483" lon="9.21378">
        <ele>333.23</ele>
        <time>2022-05-02T09:32:31Z</time>
      </trkpt>
      <trkpt lat="41.63483" lon="9.21381">
        <ele>333.23</ele>
        <time>2022-05-02T09:33:00Z</time>
      </trkpt>
      <trkpt lat="41.63482" lon="9.21387">
        <ele>333.23</ele>
        <time>2022-05-02T09:33:14Z</time>
      </trkpt>
      <trkpt lat="41.63483" lon="9.21393">
        <ele>332.75</ele>
        <time>2022-05-02T09:33:18Z</time>
      </trkpt>
      <trkpt lat="41.63481" lon="9.21403">
        <ele>332.75</ele>
        <time>2022-05-02T09:33:35Z</time>
      </trkpt>
      <trkpt lat="41.6348" lon="9.21412">
        <ele>332.75</ele>
        <time>2022-05-02T09:33:45Z</time>
      </trkpt>
      <trkpt lat="41.6348" lon="9.21414">
        <ele>334.2</ele>
        <time>2022-05-02T09:33:48Z</time>
      </trkpt>
      <trkpt lat="41.6348" lon="9.21417">
        <ele>334.68</ele>
        <time>2022-05-02T09:34:06Z</time>
      </trkpt>
      <trkpt lat="41.63483" lon="9.21414">
        <ele>334.68</ele>
        <time>2022-05-02T09:34:27Z</time>
      </trkpt>
      <trkpt lat="41.63483" lon="9.21409">
        <ele>334.68</ele>
        <time>2022-05-02T09:34:40Z</time>
      </trkpt>
      <trkpt lat="41.63485" lon="9.21412">
        <ele>333.71</ele>
        <time>2022-05-02T09:34:51Z</time>
      </trkpt>
      <trkpt lat="41.63483" lon="9.21416">
        <ele>333.71</ele>
        <time>2022-05-02T09:35:20Z</time>
      </trkpt>
      <trkpt lat="41.63483" lon="9.21416">
        <ele>333.71</ele>
        <time>2022-05-02T09:35:57Z</time>
      </trkpt>
      <trkpt lat="41.63486" lon="9.21409">
        <ele>333.23</ele>
        <time>2022-05-02T09:36:15Z</time>
      </trkpt>
      <trkpt lat="41.63485" lon="9.21396">
        <ele>332.75</ele>
        <time>2022-05-02T09:36:28Z</time>
      </trkpt>
      <trkpt lat="41.6348" lon="9.21382">
        <ele>333.23</ele>
        <time>2022-05-02T09:36:43Z</time>
      </trkpt>
      <trkpt lat="41.63479" lon="9.2138">
        <ele>333.23</ele>
        <time>2022-05-02T09:36:45Z</time>
      </trkpt>
      <trkpt lat="41.63476" lon="9.21379">
        <ele>333.23</ele>
        <time>2022-05-02T09:36:48Z</time>
      </trkpt>
      <trkpt lat="41.63467" lon="9.21379">
        <ele>332.27</ele>
        <time>2022-05-02T09:36:57Z</time>
      </trkpt>
      <trkpt lat="41.63458" lon="9.21374">
        <ele>331.79</ele>
        <time>2022-05-02T09:37:13Z</time>
      </trkpt>
      <trkpt lat="41.6345" lon="9.21374">
        <ele>330.35</ele>
        <time>2022-05-02T09:37:27Z</time>
      </trkpt>
      <trkpt lat="41.63441" lon="9.2137">
        <ele>330.35</ele>
        <time>2022-05-02T09:37:43Z</time>
      </trkpt>
      <trkpt lat="41.63425" lon="9.21359">
        <ele>328.43</ele>
        <time>2022-05-02T09:38:05Z</time>
      </trkpt>
      <trkpt lat="41.63421" lon="9.21358">
        <ele>327.95</ele>
        <time>2022-05-02T09:38:22Z</time>
      </trkpt>
      <trkpt lat="41.63405" lon="9.2135">
        <ele>325.06</ele>
        <time>2022-05-02T09:38:39Z</time>
      </trkpt>
      <trkpt lat="41.63392" lon="9.21344">
        <ele>323.62</ele>
        <time>2022-05-02T09:38:54Z</time>
      </trkpt>
      <trkpt lat="41.6339" lon="9.21342">
        <ele>323.14</ele>
        <time>2022-05-02T09:38:56Z</time>
      </trkpt>
      <trkpt lat="41.63374" lon="9.21338">
        <ele>321.7</ele>
        <time>2022-05-02T09:39:12Z</time>
      </trkpt>
      <trkpt lat="41.63357" lon="9.21329">
        <ele>318.81</ele>
        <time>2022-05-02T09:39:29Z</time>
      </trkpt>
      <trkpt lat="41.63343" lon="9.21312">
        <ele>318.81</ele>
        <time>2022-05-02T09:39:49Z</time>
      </trkpt>
      <trkpt lat="41.63329" lon="9.21304">
        <ele>315.93</ele>
        <time>2022-05-02T09:40:02Z</time>
      </trkpt>
      <trkpt lat="41.63316" lon="9.21298">
        <ele>314.49</ele>
        <time>2022-05-02T09:40:18Z</time>
      </trkpt>
      <trkpt lat="41.63304" lon="9.21289">
        <ele>312.57</ele>
        <time>2022-05-02T09:40:31Z</time>
      </trkpt>
      <trkpt lat="41.63295" lon="9.21286">
        <ele>310.16</ele>
        <time>2022-05-02T09:40:38Z</time>
      </trkpt>
      <trkpt lat="41.63291" lon="9.21285">
        <ele>308.72</ele>
        <time>2022-05-02T09:40:43Z</time>
      </trkpt>
      <trkpt lat="41.63282" lon="9.2128">
        <ele>307.28</ele>
        <time>2022-05-02T09:40:52Z</time>
      </trkpt>
      <trkpt lat="41.63277" lon="9.21284">
        <ele>306.32</ele>
        <time>2022-05-02T09:40:58Z</time>
      </trkpt>
      <trkpt lat="41.63272" lon="9.2129">
        <ele>305.36</ele>
        <time>2022-05-02T09:41:04Z</time>
      </trkpt>
      <trkpt lat="41.63264" lon="9.21295">
        <ele>305.36</ele>
        <time>2022-05-02T09:41:11Z</time>
      </trkpt>
      <trkpt lat="41.63256" lon="9.21294">
        <ele>303.43</ele>
        <time>2022-05-02T09:41:19Z</time>
      </trkpt>
      <trkpt lat="41.63252" lon="9.21294">
        <ele>302.47</ele>
        <time>2022-05-02T09:41:22Z</time>
      </trkpt>
      <trkpt lat="41.63236" lon="9.21303">
        <ele>300.07</ele>
        <time>2022-05-02T09:41:39Z</time>
      </trkpt>
      <trkpt lat="41.63235" lon="9.21305">
        <ele>300.07</ele>
        <time>2022-05-02T09:41:40Z</time>
      </trkpt>
      <trkpt lat="41.63233" lon="9.21318">
        <ele>300.55</ele>
        <time>2022-05-02T09:41:58Z</time>
      </trkpt>
      <trkpt lat="41.63228" lon="9.21327">
        <ele>299.59</ele>
        <time>2022-05-02T09:42:26Z</time>
      </trkpt>
      <trkpt lat="41.63225" lon="9.21332">
        <ele>299.11</ele>
        <time>2022-05-02T09:42:47Z</time>
      </trkpt>
      <trkpt lat="41.63225" lon="9.21333">
        <ele>299.11</ele>
        <time>2022-05-02T09:42:48Z</time>
      </trkpt>
      <trkpt lat="41.63223" lon="9.21348">
        <ele>295.74</ele>
        <time>2022-05-02T09:43:04Z</time>
      </trkpt>
      <trkpt lat="41.63217" lon="9.21365">
        <ele>294.78</ele>
        <time>2022-05-02T09:43:18Z</time>
      </trkpt>
      <trkpt lat="41.63213" lon="9.21375">
        <ele>292.86</ele>
        <time>2022-05-02T09:43:28Z</time>
      </trkpt>
      <trkpt lat="41.63203" lon="9.21366">
        <ele>290.94</ele>
        <time>2022-05-02T09:43:42Z</time>
      </trkpt>
      <trkpt lat="41.63191" lon="9.21359">
        <ele>289.01</ele>
        <time>2022-05-02T09:43:57Z</time>
      </trkpt>
      <trkpt lat="41.63184" lon="9.21358">
        <ele>287.09</ele>
        <time>2022-05-02T09:44:10Z</time>
      </trkpt>
      <trkpt lat="41.63187" lon="9.21358">
        <ele>287.09</ele>
        <time>2022-05-02T09:44:41Z</time>
      </trkpt>
      <trkpt lat="41.63185" lon="9.2136">
        <ele>287.09</ele>
        <time>2022-05-02T09:45:12Z</time>
      </trkpt>
      <trkpt lat="41.63186" lon="9.21359">
        <ele>287.57</ele>
        <time>2022-05-02T09:45:33Z</time>
      </trkpt>
      <trkpt lat="41.63184" lon="9.21358">
        <ele>287.57</ele>
        <time>2022-05-02T09:46:06Z</time>
      </trkpt>
      <trkpt lat="41.6318" lon="9.21357">
        <ele>287.57</ele>
        <time>2022-05-02T09:46:50Z</time>
      </trkpt>
      <trkpt lat="41.63182" lon="9.21357">
        <ele>288.05</ele>
        <time>2022-05-02T09:47:29Z</time>
      </trkpt>
      <trkpt lat="41.63182" lon="9.21357">
        <ele>287.09</ele>
        <time>2022-05-02T09:48:12Z</time>
      </trkpt>
      <trkpt lat="41.63182" lon="9.21356">
        <ele>287.57</ele>
        <time>2022-05-02T09:48:53Z</time>
      </trkpt>
      <trkpt lat="41.63181" lon="9.21359">
        <ele>287.09</ele>
        <time>2022-05-02T09:49:23Z</time>
      </trkpt>
      <trkpt lat="41.63179" lon="9.21358">
        <ele>285.65</ele>
        <time>2022-05-02T09:49:29Z</time>
      </trkpt>
      <trkpt lat="41.63177" lon="9.21361">
        <ele>285.65</ele>
        <time>2022-05-02T09:49:32Z</time>
      </trkpt>
      <trkpt lat="41.63169" lon="9.2138">
        <ele>282.77</ele>
        <time>2022-05-02T09:49:47Z</time>
      </trkpt>
      <trkpt lat="41.63155" lon="9.21389">
        <ele>281.32</ele>
        <time>2022-05-02T09:50:05Z</time>
      </trkpt>
      <trkpt lat="41.63142" lon="9.21401">
        <ele>280.36</ele>
        <time>2022-05-02T09:50:20Z</time>
      </trkpt>
      <trkpt lat="41.63133" lon="9.21411">
        <ele>279.4</ele>
        <time>2022-05-02T09:50:34Z</time>
      </trkpt>
      <trkpt lat="41.6312" lon="9.21403">
        <ele>277</ele>
        <time>2022-05-02T09:50:47Z</time>
      </trkpt>
      <trkpt lat="41.63113" lon="9.21397">
        <ele>276.04</ele>
        <time>2022-05-02T09:50:58Z</time>
      </trkpt>
      <trkpt lat="41.63098" lon="9.21391">
        <ele>273.15</ele>
        <time>2022-05-02T09:51:14Z</time>
      </trkpt>
      <trkpt lat="41.63086" lon="9.21384">
        <ele>272.67</ele>
        <time>2022-05-02T09:51:31Z</time>
      </trkpt>
      <trkpt lat="41.63074" lon="9.21377">
        <ele>272.19</ele>
        <time>2022-05-02T09:51:48Z</time>
      </trkpt>
      <trkpt lat="41.63063" lon="9.21369">
        <ele>270.75</ele>
        <time>2022-05-02T09:52:04Z</time>
      </trkpt>
      <trkpt lat="41.63048" lon="9.21363">
        <ele>268.35</ele>
        <time>2022-05-02T09:52:19Z</time>
      </trkpt>
      <trkpt lat="41.63045" lon="9.21362">
        <ele>267.38</ele>
        <time>2022-05-02T09:52:22Z</time>
      </trkpt>
      <trkpt lat="41.63028" lon="9.21354">
        <ele>264.98</ele>
        <time>2022-05-02T09:52:38Z</time>
      </trkpt>
      <trkpt lat="41.63025" lon="9.21354">
        <ele>264.02</ele>
        <time>2022-05-02T09:52:52Z</time>
      </trkpt>
      <trkpt lat="41.63026" lon="9.21356">
        <ele>264.5</ele>
        <time>2022-05-02T09:53:12Z</time>
      </trkpt>
      <trkpt lat="41.63027" lon="9.21358">
        <ele>264.02</ele>
        <time>2022-05-02T09:53:43Z</time>
      </trkpt>
      <trkpt lat="41.63027" lon="9.21359">
        <ele>264.02</ele>
        <time>2022-05-02T09:54:12Z</time>
      </trkpt>
      <trkpt lat="41.63024" lon="9.2136">
        <ele>264.02</ele>
        <time>2022-05-02T09:54:33Z</time>
      </trkpt>
      <trkpt lat="41.63026" lon="9.21356">
        <ele>264.98</ele>
        <time>2022-05-02T09:54:56Z</time>
      </trkpt>
      <trkpt lat="41.63026" lon="9.21355">
        <ele>264.5</ele>
        <time>2022-05-02T09:55:27Z</time>
      </trkpt>
      <trkpt lat="41.63024" lon="9.21353">
        <ele>264.98</ele>
        <time>2022-05-02T09:55:54Z</time>
      </trkpt>
      <trkpt lat="41.63016" lon="9.21351">
        <ele>262.58</ele>
        <time>2022-05-02T09:56:08Z</time>
      </trkpt>
      <trkpt lat="41.63012" lon="9.2136">
        <ele>260.17</ele>
        <time>2022-05-02T09:56:18Z</time>
      </trkpt>
      <trkpt lat="41.63009" lon="9.21369">
        <ele>258.73</ele>
        <time>2022-05-02T09:56:26Z</time>
      </trkpt>
      <trkpt lat="41.62999" lon="9.21385">
        <ele>256.33</ele>
        <time>2022-05-02T09:56:38Z</time>
      </trkpt>
      <trkpt lat="41.62996" lon="9.21402">
        <ele>254.89</ele>
        <time>2022-05-02T09:56:51Z</time>
      </trkpt>
      <trkpt lat="41.62985" lon="9.21417">
        <ele>252.96</ele>
        <time>2022-05-02T09:57:07Z</time>
      </trkpt>
      <trkpt lat="41.6298" lon="9.21437">
        <ele>250.56</ele>
        <time>2022-05-02T09:57:21Z</time>
      </trkpt>
      <trkpt lat="41.62972" lon="9.21448">
        <ele>248.16</ele>
        <time>2022-05-02T09:57:32Z</time>
      </trkpt>
      <trkpt lat="41.62955" lon="9.21452">
        <ele>244.79</ele>
        <time>2022-05-02T09:57:48Z</time>
      </trkpt>
      <trkpt lat="41.62945" lon="9.21457">
        <ele>244.31</ele>
        <time>2022-05-02T09:57:59Z</time>
      </trkpt>
      <trkpt lat="41.62932" lon="9.21475">
        <ele>243.83</ele>
        <time>2022-05-02T09:58:17Z</time>
      </trkpt>
      <trkpt lat="41.6292" lon="9.21484">
        <ele>242.39</ele>
        <time>2022-05-02T09:58:30Z</time>
      </trkpt>
      <trkpt lat="41.62918" lon="9.21487">
        <ele>242.39</ele>
        <time>2022-05-02T09:58:33Z</time>
      </trkpt>
      <trkpt lat="41.6291" lon="9.21508">
        <ele>241.43</ele>
        <time>2022-05-02T09:58:51Z</time>
      </trkpt>
      <trkpt lat="41.62902" lon="9.2153">
        <ele>241.43</ele>
        <time>2022-05-02T09:59:09Z</time>
      </trkpt>
      <trkpt lat="41.62896" lon="9.21549">
        <ele>240.47</ele>
        <time>2022-05-02T09:59:24Z</time>
      </trkpt>
      <trkpt lat="41.6289" lon="9.21571">
        <ele>239.99</ele>
        <time>2022-05-02T09:59:40Z</time>
      </trkpt>
      <trkpt lat="41.62885" lon="9.2159">
        <ele>239.51</ele>
        <time>2022-05-02T09:59:54Z</time>
      </trkpt>
      <trkpt lat="41.6288" lon="9.21597">
        <ele>240.47</ele>
        <time>2022-05-02T10:00:07Z</time>
      </trkpt>
      <trkpt lat="41.62879" lon="9.21596">
        <ele>239.99</ele>
        <time>2022-05-02T10:00:33Z</time>
      </trkpt>
      <trkpt lat="41.62879" lon="9.21596">
        <ele>239.99</ele>
        <time>2022-05-02T10:01:01Z</time>
      </trkpt>
      <trkpt lat="41.62879" lon="9.21595">
        <ele>240.47</ele>
        <time>2022-05-02T10:01:26Z</time>
      </trkpt>
      <trkpt lat="41.62881" lon="9.21597">
        <ele>239.99</ele>
        <time>2022-05-02T10:02:00Z</time>
      </trkpt>
      <trkpt lat="41.62882" lon="9.21595">
        <ele>239.99</ele>
        <time>2022-05-02T10:02:24Z</time>
      </trkpt>
      <trkpt lat="41.62883" lon="9.21594">
        <ele>240.47</ele>
        <time>2022-05-02T10:02:46Z</time>
      </trkpt>
      <trkpt lat="41.62883" lon="9.21595">
        <ele>239.51</ele>
        <time>2022-05-02T10:03:17Z</time>
      </trkpt>
      <trkpt lat="41.62877" lon="9.21595">
        <ele>239.51</ele>
        <time>2022-05-02T10:03:40Z</time>
      </trkpt>
      <trkpt lat="41.62853" lon="9.21612">
        <ele>239.51</ele>
        <time>2022-05-02T10:04:02Z</time>
      </trkpt>
      <trkpt lat="41.62832" lon="9.21619">
        <ele>239.51</ele>
        <time>2022-05-02T10:04:19Z</time>
      </trkpt>
      <trkpt lat="41.62829" lon="9.21618">
        <ele>238.54</ele>
        <time>2022-05-02T10:04:21Z</time>
      </trkpt>
      <trkpt lat="41.62814" lon="9.21612">
        <ele>239.02</ele>
        <time>2022-05-02T10:04:36Z</time>
      </trkpt>
      <trkpt lat="41.62805" lon="9.21607">
        <ele>235.66</ele>
        <time>2022-05-02T10:04:43Z</time>
      </trkpt>
      <trkpt lat="41.62803" lon="9.21606">
        <ele>240.95</ele>
        <time>2022-05-02T10:04:44Z</time>
      </trkpt>
      <trkpt lat="41.62801" lon="9.21604">
        <ele>237.58</ele>
        <time>2022-05-02T10:04:46Z</time>
      </trkpt>
      <trkpt lat="41.62801" lon="9.21603">
        <ele>237.58</ele>
        <time>2022-05-02T10:04:47Z</time>
      </trkpt>
      <trkpt lat="41.62799" lon="9.21601">
        <ele>239.02</ele>
        <time>2022-05-02T10:04:49Z</time>
      </trkpt>
      <trkpt lat="41.62797" lon="9.216">
        <ele>234.22</ele>
        <time>2022-05-02T10:04:58Z</time>
      </trkpt>
      <trkpt lat="41.62797" lon="9.216">
        <ele>240.95</ele>
        <time>2022-05-02T10:04:59Z</time>
      </trkpt>
      <trkpt lat="41.62797" lon="9.21601">
        <ele>240.95</ele>
        <time>2022-05-02T10:05:00Z</time>
      </trkpt>
      <trkpt lat="41.62797" lon="9.21601">
        <ele>239.02</ele>
        <time>2022-05-02T10:05:02Z</time>
      </trkpt>
      <trkpt lat="41.62796" lon="9.21601">
        <ele>235.66</ele>
        <time>2022-05-02T10:05:06Z</time>
      </trkpt>
      <trkpt lat="41.62796" lon="9.21601">
        <ele>240.95</ele>
        <time>2022-05-02T10:05:07Z</time>
      </trkpt>
      <trkpt lat="41.62796" lon="9.21601">
        <ele>237.58</ele>
        <time>2022-05-02T10:05:09Z</time>
      </trkpt>
      <trkpt lat="41.62797" lon="9.21601">
        <ele>240.95</ele>
        <time>2022-05-02T10:05:17Z</time>
      </trkpt>
      <trkpt lat="41.62797" lon="9.216">
        <ele>240.95</ele>
        <time>2022-05-02T10:05:18Z</time>
      </trkpt>
      <trkpt lat="41.62796" lon="9.21597">
        <ele>239.02</ele>
        <time>2022-05-02T10:05:20Z</time>
      </trkpt>
      <trkpt lat="41.62792" lon="9.21591">
        <ele>238.54</ele>
        <time>2022-05-02T10:05:29Z</time>
      </trkpt>
      <trkpt lat="41.62776" lon="9.21575">
        <ele>239.02</ele>
        <time>2022-05-02T10:05:47Z</time>
      </trkpt>
      <trkpt lat="41.62759" lon="9.21557">
        <ele>239.02</ele>
        <time>2022-05-02T10:06:06Z</time>
      </trkpt>
      <trkpt lat="41.62747" lon="9.21546">
        <ele>239.99</ele>
        <time>2022-05-02T10:06:24Z</time>
      </trkpt>
      <trkpt lat="41.62737" lon="9.21542">
        <ele>239.99</ele>
        <time>2022-05-02T10:06:38Z</time>
      </trkpt>
      <trkpt lat="41.62722" lon="9.21536">
        <ele>240.95</ele>
        <time>2022-05-02T10:06:53Z</time>
      </trkpt>
      <trkpt lat="41.62717" lon="9.21535">
        <ele>241.43</ele>
        <time>2022-05-02T10:06:57Z</time>
      </trkpt>
      <trkpt lat="41.62695" lon="9.21528">
        <ele>240.47</ele>
        <time>2022-05-02T10:07:16Z</time>
      </trkpt>
      <trkpt lat="41.6268" lon="9.21517">
        <ele>239.51</ele>
        <time>2022-05-02T10:07:31Z</time>
      </trkpt>
      <trkpt lat="41.62657" lon="9.21498">
        <ele>239.99</ele>
        <time>2022-05-02T10:07:53Z</time>
      </trkpt>
      <trkpt lat="41.62638" lon="9.21478">
        <ele>239.99</ele>
        <time>2022-05-02T10:08:14Z</time>
      </trkpt>
      <trkpt lat="41.62632" lon="9.21471">
        <ele>239.51</ele>
        <time>2022-05-02T10:08:21Z</time>
      </trkpt>
      <trkpt lat="41.62616" lon="9.21457">
        <ele>237.1</ele>
        <time>2022-05-02T10:08:38Z</time>
      </trkpt>
      <trkpt lat="41.62606" lon="9.2144">
        <ele>235.18</ele>
        <time>2022-05-02T10:08:53Z</time>
      </trkpt>
      <trkpt lat="41.62601" lon="9.21436">
        <ele>234.22</ele>
        <time>2022-05-02T10:08:58Z</time>
      </trkpt>
      <trkpt lat="41.62586" lon="9.21429">
        <ele>232.3</ele>
        <time>2022-05-02T10:09:11Z</time>
      </trkpt>
      <trkpt lat="41.62583" lon="9.21421">
        <ele>231.81</ele>
        <time>2022-05-02T10:09:17Z</time>
      </trkpt>
      <trkpt lat="41.62576" lon="9.21415">
        <ele>231.33</ele>
        <time>2022-05-02T10:09:24Z</time>
      </trkpt>
      <trkpt lat="41.62571" lon="9.21415">
        <ele>230.37</ele>
        <time>2022-05-02T10:09:40Z</time>
      </trkpt>
      <trkpt lat="41.6257" lon="9.21415">
        <ele>230.85</ele>
        <time>2022-05-02T10:09:55Z</time>
      </trkpt>
      <trkpt lat="41.62566" lon="9.21416">
        <ele>229.89</ele>
        <time>2022-05-02T10:10:18Z</time>
      </trkpt>
      <trkpt lat="41.62558" lon="9.21415">
        <ele>227.97</ele>
        <time>2022-05-02T10:10:31Z</time>
      </trkpt>
      <trkpt lat="41.6255" lon="9.2141">
        <ele>224.61</ele>
        <time>2022-05-02T10:10:42Z</time>
      </trkpt>
      <trkpt lat="41.62538" lon="9.21415">
        <ele>222.2</ele>
        <time>2022-05-02T10:10:56Z</time>
      </trkpt>
      <trkpt lat="41.62526" lon="9.21419">
        <ele>219.32</ele>
        <time>2022-05-02T10:11:11Z</time>
      </trkpt>
      <trkpt lat="41.62513" lon="9.21429">
        <ele>218.36</ele>
        <time>2022-05-02T10:11:23Z</time>
      </trkpt>
      <trkpt lat="41.62489" lon="9.21431">
        <ele>215.95</ele>
        <time>2022-05-02T10:11:42Z</time>
      </trkpt>
      <trkpt lat="41.62468" lon="9.21419">
        <ele>215.47</ele>
        <time>2022-05-02T10:12:01Z</time>
      </trkpt>
      <trkpt lat="41.62453" lon="9.21413">
        <ele>214.51</ele>
        <time>2022-05-02T10:12:15Z</time>
      </trkpt>
      <trkpt lat="41.62438" lon="9.21407">
        <ele>213.55</ele>
        <time>2022-05-02T10:12:28Z</time>
      </trkpt>
      <trkpt lat="41.62431" lon="9.21404">
        <ele>212.59</ele>
        <time>2022-05-02T10:12:34Z</time>
      </trkpt>
      <trkpt lat="41.62412" lon="9.21403">
        <ele>212.11</ele>
        <time>2022-05-02T10:12:51Z</time>
      </trkpt>
      <trkpt lat="41.62404" lon="9.21404">
        <ele>212.59</ele>
        <time>2022-05-02T10:13:06Z</time>
      </trkpt>
      <trkpt lat="41.62403" lon="9.21405">
        <ele>212.11</ele>
        <time>2022-05-02T10:13:22Z</time>
      </trkpt>
      <trkpt lat="41.62401" lon="9.21406">
        <ele>212.11</ele>
        <time>2022-05-02T10:13:58Z</time>
      </trkpt>
      <trkpt lat="41.62403" lon="9.21404">
        <ele>211.63</ele>
        <time>2022-05-02T10:14:36Z</time>
      </trkpt>
      <trkpt lat="41.62405" lon="9.21402">
        <ele>211.63</ele>
        <time>2022-05-02T10:15:11Z</time>
      </trkpt>
      <trkpt lat="41.62403" lon="9.21405">
        <ele>212.11</ele>
        <time>2022-05-02T10:15:41Z</time>
      </trkpt>
      <trkpt lat="41.62404" lon="9.21404">
        <ele>212.11</ele>
        <time>2022-05-02T10:16:20Z</time>
      </trkpt>
      <trkpt lat="41.62402" lon="9.214">
        <ele>212.59</ele>
        <time>2022-05-02T10:16:53Z</time>
      </trkpt>
      <trkpt lat="41.62389" lon="9.21396">
        <ele>211.15</ele>
        <time>2022-05-02T10:17:08Z</time>
      </trkpt>
      <trkpt lat="41.62376" lon="9.2139">
        <ele>207.78</ele>
        <time>2022-05-02T10:17:21Z</time>
      </trkpt>
      <trkpt lat="41.62365" lon="9.21386">
        <ele>204.9</ele>
        <time>2022-05-02T10:17:36Z</time>
      </trkpt>
      <trkpt lat="41.6235" lon="9.21384">
        <ele>203.46</ele>
        <time>2022-05-02T10:17:50Z</time>
      </trkpt>
      <trkpt lat="41.62345" lon="9.21381">
        <ele>202.01</ele>
        <time>2022-05-02T10:17:54Z</time>
      </trkpt>
      <trkpt lat="41.62336" lon="9.21389">
        <ele>200.09</ele>
        <time>2022-05-02T10:18:05Z</time>
      </trkpt>
      <trkpt lat="41.62331" lon="9.21387">
        <ele>199.61</ele>
        <time>2022-05-02T10:18:09Z</time>
      </trkpt>
      <trkpt lat="41.62328" lon="9.21383">
        <ele>199.13</ele>
        <time>2022-05-02T10:18:13Z</time>
      </trkpt>
      <trkpt lat="41.62326" lon="9.21379">
        <ele>197.69</ele>
        <time>2022-05-02T10:18:16Z</time>
      </trkpt>
      <trkpt lat="41.62319" lon="9.21372">
        <ele>197.21</ele>
        <time>2022-05-02T10:18:24Z</time>
      </trkpt>
      <trkpt lat="41.62306" lon="9.21364">
        <ele>193.84</ele>
        <time>2022-05-02T10:18:38Z</time>
      </trkpt>
      <trkpt lat="41.62292" lon="9.21346">
        <ele>191.92</ele>
        <time>2022-05-02T10:18:57Z</time>
      </trkpt>
      <trkpt lat="41.62286" lon="9.21345">
        <ele>190.48</ele>
        <time>2022-05-02T10:19:03Z</time>
      </trkpt>
      <trkpt lat="41.62282" lon="9.21344">
        <ele>189.52</ele>
        <time>2022-05-02T10:19:07Z</time>
      </trkpt>
      <trkpt lat="41.62275" lon="9.21333">
        <ele>187.11</ele>
        <time>2022-05-02T10:19:20Z</time>
      </trkpt>
      <trkpt lat="41.62265" lon="9.21318">
        <ele>184.23</ele>
        <time>2022-05-02T10:19:37Z</time>
      </trkpt>
      <trkpt lat="41.62253" lon="9.21317">
        <ele>180.87</ele>
        <time>2022-05-02T10:19:50Z</time>
      </trkpt>
      <trkpt lat="41.62249" lon="9.21316">
        <ele>180.87</ele>
        <time>2022-05-02T10:19:54Z</time>
      </trkpt>
      <trkpt lat="41.62247" lon="9.21315">
        <ele>179.42</ele>
        <time>2022-05-02T10:19:56Z</time>
      </trkpt>
      <trkpt lat="41.6224" lon="9.21314">
        <ele>178.94</ele>
        <time>2022-05-02T10:20:02Z</time>
      </trkpt>
      <trkpt lat="41.62232" lon="9.21317">
        <ele>177.02</ele>
        <time>2022-05-02T10:20:12Z</time>
      </trkpt>
      <trkpt lat="41.6223" lon="9.21324">
        <ele>176.06</ele>
        <time>2022-05-02T10:20:18Z</time>
      </trkpt>
      <trkpt lat="41.62222" lon="9.21322">
        <ele>175.1</ele>
        <time>2022-05-02T10:20:26Z</time>
      </trkpt>
      <trkpt lat="41.62219" lon="9.21322">
        <ele>173.17</ele>
        <time>2022-05-02T10:20:29Z</time>
      </trkpt>
      <trkpt lat="41.62213" lon="9.2132">
        <ele>172.69</ele>
        <time>2022-05-02T10:20:34Z</time>
      </trkpt>
      <trkpt lat="41.62205" lon="9.21317">
        <ele>171.25</ele>
        <time>2022-05-02T10:20:42Z</time>
      </trkpt>
      <trkpt lat="41.622" lon="9.21319">
        <ele>171.73</ele>
        <time>2022-05-02T10:20:47Z</time>
      </trkpt>
      <trkpt lat="41.62189" lon="9.21323">
        <ele>170.29</ele>
        <time>2022-05-02T10:20:57Z</time>
      </trkpt>
      <trkpt lat="41.62185" lon="9.21329">
        <ele>168.85</ele>
        <time>2022-05-02T10:21:02Z</time>
      </trkpt>
      <trkpt lat="41.62183" lon="9.21337">
        <ele>167.89</ele>
        <time>2022-05-02T10:21:07Z</time>
      </trkpt>
      <trkpt lat="41.62181" lon="9.21346">
        <ele>166.45</ele>
        <time>2022-05-02T10:21:15Z</time>
      </trkpt>
      <trkpt lat="41.6218" lon="9.21351">
        <ele>165.96</ele>
        <time>2022-05-02T10:21:18Z</time>
      </trkpt>
      <trkpt lat="41.62173" lon="9.21367">
        <ele>164.04</ele>
        <time>2022-05-02T10:21:33Z</time>
      </trkpt>
      <trkpt lat="41.62171" lon="9.21382">
        <ele>162.12</ele>
        <time>2022-05-02T10:21:47Z</time>
      </trkpt>
      <trkpt lat="41.62169" lon="9.21384">
        <ele>161.16</ele>
        <time>2022-05-02T10:22:01Z</time>
      </trkpt>
      <trkpt lat="41.62167" lon="9.21386">
        <ele>161.16</ele>
        <time>2022-05-02T10:22:32Z</time>
      </trkpt>
      <trkpt lat="41.62169" lon="9.21384">
        <ele>160.68</ele>
        <time>2022-05-02T10:23:13Z</time>
      </trkpt>
      <trkpt lat="41.62168" lon="9.21384">
        <ele>160.68</ele>
        <time>2022-05-02T10:23:45Z</time>
      </trkpt>
      <trkpt lat="41.6217" lon="9.21382">
        <ele>160.2</ele>
        <time>2022-05-02T10:24:19Z</time>
      </trkpt>
      <trkpt lat="41.62168" lon="9.21383">
        <ele>161.16</ele>
        <time>2022-05-02T10:24:48Z</time>
      </trkpt>
      <trkpt lat="41.62168" lon="9.21382">
        <ele>160.68</ele>
        <time>2022-05-02T10:25:19Z</time>
      </trkpt>
      <trkpt lat="41.62168" lon="9.21384">
        <ele>160.68</ele>
        <time>2022-05-02T10:25:57Z</time>
      </trkpt>
      <trkpt lat="41.62168" lon="9.21383">
        <ele>160.2</ele>
        <time>2022-05-02T10:26:32Z</time>
      </trkpt>
      <trkpt lat="41.62169" lon="9.21383">
        <ele>160.68</ele>
        <time>2022-05-02T10:27:12Z</time>
      </trkpt>
      <trkpt lat="41.6217" lon="9.21383">
        <ele>160.2</ele>
        <time>2022-05-02T10:27:49Z</time>
      </trkpt>
      <trkpt lat="41.62169" lon="9.21384">
        <ele>160.2</ele>
        <time>2022-05-02T10:28:26Z</time>
      </trkpt>
      <trkpt lat="41.62169" lon="9.21383">
        <ele>160.68</ele>
        <time>2022-05-02T10:28:50Z</time>
      </trkpt>
      <trkpt lat="41.62171" lon="9.21381">
        <ele>160.68</ele>
        <time>2022-05-02T10:29:14Z</time>
      </trkpt>
      <trkpt lat="41.6217" lon="9.21382">
        <ele>160.68</ele>
        <time>2022-05-02T10:29:47Z</time>
      </trkpt>
      <trkpt lat="41.62169" lon="9.21384">
        <ele>160.2</ele>
        <time>2022-05-02T10:30:09Z</time>
      </trkpt>
      <trkpt lat="41.62168" lon="9.21393">
        <ele>158.75</ele>
        <time>2022-05-02T10:30:26Z</time>
      </trkpt>
      <trkpt lat="41.62167" lon="9.21395">
        <ele>158.27</ele>
        <time>2022-05-02T10:30:28Z</time>
      </trkpt>
      <trkpt lat="41.62153" lon="9.21412">
        <ele>156.35</ele>
        <time>2022-05-02T10:30:46Z</time>
      </trkpt>
      <trkpt lat="41.62144" lon="9.21422">
        <ele>153.95</ele>
        <time>2022-05-02T10:30:59Z</time>
      </trkpt>
      <trkpt lat="41.62135" lon="9.21425">
        <ele>153.95</ele>
        <time>2022-05-02T10:31:15Z</time>
      </trkpt>
      <trkpt lat="41.62121" lon="9.21431">
        <ele>152.99</ele>
        <time>2022-05-02T10:31:31Z</time>
      </trkpt>
      <trkpt lat="41.62104" lon="9.21434">
        <ele>151.54</ele>
        <time>2022-05-02T10:31:47Z</time>
      </trkpt>
      <trkpt lat="41.62102" lon="9.21435">
        <ele>152.03</ele>
        <time>2022-05-02T10:31:49Z</time>
      </trkpt>
      <trkpt lat="41.62084" lon="9.2144">
        <ele>150.58</ele>
        <time>2022-05-02T10:32:06Z</time>
      </trkpt>
      <trkpt lat="41.62062" lon="9.21443">
        <ele>150.58</ele>
        <time>2022-05-02T10:32:26Z</time>
      </trkpt>
      <trkpt lat="41.62048" lon="9.21454">
        <ele>149.14</ele>
        <time>2022-05-02T10:32:44Z</time>
      </trkpt>
      <trkpt lat="41.62027" lon="9.21464">
        <ele>148.66</ele>
        <time>2022-05-02T10:33:03Z</time>
      </trkpt>
      <trkpt lat="41.62009" lon="9.21465">
        <ele>146.26</ele>
        <time>2022-05-02T10:33:19Z</time>
      </trkpt>
      <trkpt lat="41.61988" lon="9.21468">
        <ele>145.3</ele>
        <time>2022-05-02T10:33:37Z</time>
      </trkpt>
      <trkpt lat="41.61979" lon="9.2147">
        <ele>144.34</ele>
        <time>2022-05-02T10:33:52Z</time>
      </trkpt>
      <trkpt lat="41.61979" lon="9.21477">
        <ele>143.37</ele>
        <time>2022-05-02T10:34:06Z</time>
      </trkpt>
      <trkpt lat="41.61986" lon="9.21485">
        <ele>143.85</ele>
        <time>2022-05-02T10:34:16Z</time>
      </trkpt>
      <trkpt lat="41.61992" lon="9.21494">
        <ele>143.37</ele>
        <time>2022-05-02T10:34:25Z</time>
      </trkpt>
      <trkpt lat="41.62008" lon="9.21515">
        <ele>140.01</ele>
        <time>2022-05-02T10:34:45Z</time>
      </trkpt>
      <trkpt lat="41.62016" lon="9.21522">
        <ele>139.05</ele>
        <time>2022-05-02T10:35:01Z</time>
      </trkpt>
      <trkpt lat="41.62033" lon="9.21542">
        <ele>137.13</ele>
        <time>2022-05-02T10:35:23Z</time>
      </trkpt>
      <trkpt lat="41.62039" lon="9.2155">
        <ele>136.16</ele>
        <time>2022-05-02T10:35:31Z</time>
      </trkpt>
      <trkpt lat="41.62048" lon="9.21576">
        <ele>133.76</ele>
        <time>2022-05-02T10:35:50Z</time>
      </trkpt>
      <trkpt lat="41.62051" lon="9.21599">
        <ele>132.8</ele>
        <time>2022-05-02T10:36:07Z</time>
      </trkpt>
      <trkpt lat="41.62054" lon="9.21621">
        <ele>132.32</ele>
        <time>2022-05-02T10:36:24Z</time>
      </trkpt>
      <trkpt lat="41.62054" lon="9.21624">
        <ele>132.32</ele>
        <time>2022-05-02T10:36:27Z</time>
      </trkpt>
      <trkpt lat="41.62056" lon="9.21643">
        <ele>131.36</ele>
        <time>2022-05-02T10:36:41Z</time>
      </trkpt>
      <trkpt lat="41.62055" lon="9.21644">
        <ele>131.84</ele>
        <time>2022-05-02T10:36:54Z</time>
      </trkpt>
      <trkpt lat="41.62056" lon="9.21654">
        <ele>131.84</ele>
        <time>2022-05-02T10:37:13Z</time>
      </trkpt>
      <trkpt lat="41.62058" lon="9.21656">
        <ele>131.84</ele>
        <time>2022-05-02T10:37:16Z</time>
      </trkpt>
      <trkpt lat="41.6206" lon="9.21658">
        <ele>131.84</ele>
        <time>2022-05-02T10:37:18Z</time>
      </trkpt>
      <trkpt lat="41.62066" lon="9.21679">
        <ele>131.36</ele>
        <time>2022-05-02T10:37:36Z</time>
      </trkpt>
      <trkpt lat="41.62073" lon="9.21701">
        <ele>128.47</ele>
        <time>2022-05-02T10:37:53Z</time>
      </trkpt>
      <trkpt lat="41.62074" lon="9.21702">
        <ele>133.76</ele>
        <time>2022-05-02T10:37:54Z</time>
      </trkpt>
      <trkpt lat="41.62074" lon="9.21704">
        <ele>128.47</ele>
        <time>2022-05-02T10:37:55Z</time>
      </trkpt>
      <trkpt lat="41.62075" lon="9.21704">
        <ele>133.28</ele>
        <time>2022-05-02T10:37:56Z</time>
      </trkpt>
      <trkpt lat="41.62076" lon="9.21708">
        <ele>129.92</ele>
        <time>2022-05-02T10:37:59Z</time>
      </trkpt>
      <trkpt lat="41.62083" lon="9.21731">
        <ele>129.92</ele>
        <time>2022-05-02T10:38:16Z</time>
      </trkpt>
      <trkpt lat="41.62084" lon="9.21733">
        <ele>129.92</ele>
        <time>2022-05-02T10:38:17Z</time>
      </trkpt>
      <trkpt lat="41.62095" lon="9.21754">
        <ele>127.99</ele>
        <time>2022-05-02T10:38:34Z</time>
      </trkpt>
      <trkpt lat="41.62106" lon="9.21774">
        <ele>126.55</ele>
        <time>2022-05-02T10:38:51Z</time>
      </trkpt>
      <trkpt lat="41.6211" lon="9.21779">
        <ele>126.07</ele>
        <time>2022-05-02T10:39:03Z</time>
      </trkpt>
      <trkpt lat="41.62117" lon="9.21787">
        <ele>125.11</ele>
        <time>2022-05-02T10:39:19Z</time>
      </trkpt>
      <trkpt lat="41.62118" lon="9.21791">
        <ele>125.11</ele>
        <time>2022-05-02T10:39:36Z</time>
      </trkpt>
      <trkpt lat="41.6212" lon="9.21792">
        <ele>125.11</ele>
        <time>2022-05-02T10:39:43Z</time>
      </trkpt>
      <trkpt lat="41.62128" lon="9.218">
        <ele>125.59</ele>
        <time>2022-05-02T10:39:49Z</time>
      </trkpt>
      <trkpt lat="41.62129" lon="9.218">
        <ele>124.15</ele>
        <time>2022-05-02T10:39:50Z</time>
      </trkpt>
      <trkpt lat="41.6214" lon="9.21808">
        <ele>123.19</ele>
        <time>2022-05-02T10:40:00Z</time>
      </trkpt>
      <trkpt lat="41.62152" lon="9.2181">
        <ele>122.22</ele>
        <time>2022-05-02T10:40:13Z</time>
      </trkpt>
      <trkpt lat="41.62168" lon="9.21812">
        <ele>121.26</ele>
        <time>2022-05-02T10:40:27Z</time>
      </trkpt>
      <trkpt lat="41.62184" lon="9.21814">
        <ele>119.34</ele>
        <time>2022-05-02T10:40:39Z</time>
      </trkpt>
      <trkpt lat="41.6219" lon="9.21815">
        <ele>118.86</ele>
        <time>2022-05-02T10:40:44Z</time>
      </trkpt>
      <trkpt lat="41.62195" lon="9.21816">
        <ele>118.38</ele>
        <time>2022-05-02T10:40:48Z</time>
      </trkpt>
      <trkpt lat="41.62199" lon="9.21819">
        <ele>116.94</ele>
        <time>2022-05-02T10:40:52Z</time>
      </trkpt>
      <trkpt lat="41.62201" lon="9.21823">
        <ele>116.94</ele>
        <time>2022-05-02T10:40:56Z</time>
      </trkpt>
      <trkpt lat="41.62207" lon="9.21835">
        <ele>115.01</ele>
        <time>2022-05-02T10:41:06Z</time>
      </trkpt>
      <trkpt lat="41.62217" lon="9.21863">
        <ele>113.09</ele>
        <time>2022-05-02T10:41:23Z</time>
      </trkpt>
      <trkpt lat="41.62222" lon="9.2188">
        <ele>111.17</ele>
        <time>2022-05-02T10:41:37Z</time>
      </trkpt>
      <trkpt lat="41.62223" lon="9.21881">
        <ele>111.65</ele>
        <time>2022-05-02T10:41:38Z</time>
      </trkpt>
      <trkpt lat="41.62222" lon="9.21902">
        <ele>111.17</ele>
        <time>2022-05-02T10:41:52Z</time>
      </trkpt>
      <trkpt lat="41.6222" lon="9.21922">
        <ele>111.17</ele>
        <time>2022-05-02T10:42:08Z</time>
      </trkpt>
      <trkpt lat="41.62219" lon="9.21924">
        <ele>111.65</ele>
        <time>2022-05-02T10:42:10Z</time>
      </trkpt>
      <trkpt lat="41.62219" lon="9.21951">
        <ele>114.05</ele>
        <time>2022-05-02T10:42:28Z</time>
      </trkpt>
      <trkpt lat="41.62218" lon="9.21971">
        <ele>115.01</ele>
        <time>2022-05-02T10:42:45Z</time>
      </trkpt>
      <trkpt lat="41.62217" lon="9.21975">
        <ele>115.98</ele>
        <time>2022-05-02T10:42:48Z</time>
      </trkpt>
      <trkpt lat="41.62219" lon="9.21996">
        <ele>116.46</ele>
        <time>2022-05-02T10:43:03Z</time>
      </trkpt>
      <trkpt lat="41.62222" lon="9.22016">
        <ele>118.38</ele>
        <time>2022-05-02T10:43:17Z</time>
      </trkpt>
      <trkpt lat="41.62224" lon="9.22032">
        <ele>118.38</ele>
        <time>2022-05-02T10:43:30Z</time>
      </trkpt>
      <trkpt lat="41.62226" lon="9.22052">
        <ele>119.82</ele>
        <time>2022-05-02T10:43:46Z</time>
      </trkpt>
      <trkpt lat="41.62231" lon="9.2207">
        <ele>121.26</ele>
        <time>2022-05-02T10:44:01Z</time>
      </trkpt>
      <trkpt lat="41.62232" lon="9.22087">
        <ele>123.19</ele>
        <time>2022-05-02T10:44:16Z</time>
      </trkpt>
      <trkpt lat="41.62235" lon="9.22111">
        <ele>124.63</ele>
        <time>2022-05-02T10:44:33Z</time>
      </trkpt>
      <trkpt lat="41.62239" lon="9.22133">
        <ele>123.67</ele>
        <time>2022-05-02T10:44:50Z</time>
      </trkpt>
      <trkpt lat="41.62239" lon="9.22146">
        <ele>123.67</ele>
        <time>2022-05-02T10:45:07Z</time>
      </trkpt>
      <trkpt lat="41.62236" lon="9.22144">
        <ele>123.67</ele>
        <time>2022-05-02T10:45:30Z</time>
      </trkpt>
      <trkpt lat="41.62242" lon="9.22158">
        <ele>123.19</ele>
        <time>2022-05-02T10:45:55Z</time>
      </trkpt>
      <trkpt lat="41.62246" lon="9.22178">
        <ele>123.19</ele>
        <time>2022-05-02T10:46:12Z</time>
      </trkpt>
      <trkpt lat="41.62246" lon="9.22182">
        <ele>122.71</ele>
        <time>2022-05-02T10:46:40Z</time>
      </trkpt>
      <trkpt lat="41.62245" lon="9.22183">
        <ele>122.22</ele>
        <time>2022-05-02T10:47:07Z</time>
      </trkpt>
      <trkpt lat="41.62248" lon="9.22183">
        <ele>122.71</ele>
        <time>2022-05-02T10:47:30Z</time>
      </trkpt>
      <trkpt lat="41.62248" lon="9.22183">
        <ele>122.22</ele>
        <time>2022-05-02T10:48:01Z</time>
      </trkpt>
      <trkpt lat="41.62254" lon="9.22195">
        <ele>122.22</ele>
        <time>2022-05-02T10:48:20Z</time>
      </trkpt>
      <trkpt lat="41.62247" lon="9.22212">
        <ele>122.22</ele>
        <time>2022-05-02T10:48:33Z</time>
      </trkpt>
      <trkpt lat="41.62228" lon="9.22223">
        <ele>122.22</ele>
        <time>2022-05-02T10:48:50Z</time>
      </trkpt>
      <trkpt lat="41.62205" lon="9.22233">
        <ele>121.74</ele>
        <time>2022-05-02T10:49:10Z</time>
      </trkpt>
      <trkpt lat="41.62187" lon="9.22239">
        <ele>120.78</ele>
        <time>2022-05-02T10:49:25Z</time>
      </trkpt>
      <trkpt lat="41.6217" lon="9.2224">
        <ele>118.38</ele>
        <time>2022-05-02T10:49:38Z</time>
      </trkpt>
      <trkpt lat="41.62151" lon="9.22239">
        <ele>116.46</ele>
        <time>2022-05-02T10:49:54Z</time>
      </trkpt>
      <trkpt lat="41.62137" lon="9.22229">
        <ele>115.01</ele>
        <time>2022-05-02T10:50:07Z</time>
      </trkpt>
      <trkpt lat="41.62117" lon="9.22226">
        <ele>111.65</ele>
        <time>2022-05-02T10:50:25Z</time>
      </trkpt>
      <trkpt lat="41.62098" lon="9.22239">
        <ele>108.29</ele>
        <time>2022-05-02T10:50:43Z</time>
      </trkpt>
      <trkpt lat="41.62095" lon="9.2224">
        <ele>107.81</ele>
        <time>2022-05-02T10:50:47Z</time>
      </trkpt>
      <trkpt lat="41.62082" lon="9.2225">
        <ele>106.84</ele>
        <time>2022-05-02T10:50:58Z</time>
      </trkpt>
      <trkpt lat="41.62082" lon="9.22252">
        <ele>106.36</ele>
        <time>2022-05-02T10:50:59Z</time>
      </trkpt>
      <trkpt lat="41.62081" lon="9.22254">
        <ele>106.36</ele>
        <time>2022-05-02T10:51:00Z</time>
      </trkpt>
      <trkpt lat="41.62071" lon="9.22266">
        <ele>104.92</ele>
        <time>2022-05-02T10:51:11Z</time>
      </trkpt>
      <trkpt lat="41.62071" lon="9.22268">
        <ele>105.4</ele>
        <time>2022-05-02T10:51:12Z</time>
      </trkpt>
      <trkpt lat="41.62071" lon="9.2227">
        <ele>105.4</ele>
        <time>2022-05-02T10:51:13Z</time>
      </trkpt>
      <trkpt lat="41.62071" lon="9.22274">
        <ele>104.92</ele>
        <time>2022-05-02T10:51:15Z</time>
      </trkpt>
      <trkpt lat="41.62068" lon="9.22278">
        <ele>104.44</ele>
        <time>2022-05-02T10:51:27Z</time>
      </trkpt>
      <trkpt lat="41.62067" lon="9.2228">
        <ele>104.44</ele>
        <time>2022-05-02T10:51:28Z</time>
      </trkpt>
      <trkpt lat="41.62065" lon="9.22305">
        <ele>101.56</ele>
        <time>2022-05-02T10:51:43Z</time>
      </trkpt>
      <trkpt lat="41.62061" lon="9.22328">
        <ele>99.63</ele>
        <time>2022-05-02T10:51:58Z</time>
      </trkpt>
      <trkpt lat="41.62057" lon="9.22359">
        <ele>96.75</ele>
        <time>2022-05-02T10:52:16Z</time>
      </trkpt>
      <trkpt lat="41.6205" lon="9.22386">
        <ele>93.39</ele>
        <time>2022-05-02T10:52:33Z</time>
      </trkpt>
      <trkpt lat="41.6204" lon="9.22418">
        <ele>91.94</ele>
        <time>2022-05-02T10:52:54Z</time>
      </trkpt>
      <trkpt lat="41.6204" lon="9.2242">
        <ele>91.46</ele>
        <time>2022-05-02T10:53:07Z</time>
      </trkpt>
      <trkpt lat="41.62033" lon="9.22433">
        <ele>90.02</ele>
        <time>2022-05-02T10:53:17Z</time>
      </trkpt>
      <trkpt lat="41.62032" lon="9.22435">
        <ele>90.02</ele>
        <time>2022-05-02T10:53:18Z</time>
      </trkpt>
      <trkpt lat="41.62032" lon="9.22437">
        <ele>89.54</ele>
        <time>2022-05-02T10:53:19Z</time>
      </trkpt>
      <trkpt lat="41.62031" lon="9.22438">
        <ele>89.54</ele>
        <time>2022-05-02T10:53:20Z</time>
      </trkpt>
      <trkpt lat="41.6203" lon="9.2244">
        <ele>89.54</ele>
        <time>2022-05-02T10:53:21Z</time>
      </trkpt>
      <trkpt lat="41.62017" lon="9.22467">
        <ele>86.66</ele>
        <time>2022-05-02T10:53:41Z</time>
      </trkpt>
      <trkpt lat="41.62009" lon="9.2248">
        <ele>85.69</ele>
        <time>2022-05-02T10:53:57Z</time>
      </trkpt>
      <trkpt lat="41.6201" lon="9.22478">
        <ele>85.69</ele>
        <time>2022-05-02T10:54:13Z</time>
      </trkpt>
      <trkpt lat="41.62006" lon="9.22486">
        <ele>84.73</ele>
        <time>2022-05-02T10:54:25Z</time>
      </trkpt>
      <trkpt lat="41.61996" lon="9.22498">
        <ele>84.73</ele>
        <time>2022-05-02T10:54:38Z</time>
      </trkpt>
      <trkpt lat="41.61992" lon="9.22504">
        <ele>85.21</ele>
        <time>2022-05-02T10:54:44Z</time>
      </trkpt>
      <trkpt lat="41.61979" lon="9.22518">
        <ele>84.25</ele>
        <time>2022-05-02T10:55:01Z</time>
      </trkpt>
      <trkpt lat="41.61969" lon="9.22535">
        <ele>83.29</ele>
        <time>2022-05-02T10:55:14Z</time>
      </trkpt>
      <trkpt lat="41.61965" lon="9.22541">
        <ele>83.77</ele>
        <time>2022-05-02T10:55:19Z</time>
      </trkpt>
      <trkpt lat="41.61959" lon="9.22563">
        <ele>83.77</ele>
        <time>2022-05-02T10:55:36Z</time>
      </trkpt>
      <trkpt lat="41.61958" lon="9.22568">
        <ele>83.29</ele>
        <time>2022-05-02T10:55:40Z</time>
      </trkpt>
      <trkpt lat="41.61956" lon="9.22572">
        <ele>82.81</ele>
        <time>2022-05-02T10:55:43Z</time>
      </trkpt>
      <trkpt lat="41.61956" lon="9.22574">
        <ele>82.81</ele>
        <time>2022-05-02T10:55:44Z</time>
      </trkpt>
      <trkpt lat="41.61955" lon="9.22577">
        <ele>82.81</ele>
        <time>2022-05-02T10:55:46Z</time>
      </trkpt>
      <trkpt lat="41.61954" lon="9.2258">
        <ele>83.29</ele>
        <time>2022-05-02T10:55:52Z</time>
      </trkpt>
      <trkpt lat="41.61943" lon="9.226">
        <ele>83.77</ele>
        <time>2022-05-02T10:56:08Z</time>
      </trkpt>
      <trkpt lat="41.61937" lon="9.2261">
        <ele>83.29</ele>
        <time>2022-05-02T10:56:20Z</time>
      </trkpt>
      <trkpt lat="41.61936" lon="9.22611">
        <ele>82.81</ele>
        <time>2022-05-02T10:56:21Z</time>
      </trkpt>
      <trkpt lat="41.61935" lon="9.22613">
        <ele>83.29</ele>
        <time>2022-05-02T10:56:22Z</time>
      </trkpt>
      <trkpt lat="41.61917" lon="9.22627">
        <ele>82.81</ele>
        <time>2022-05-02T10:56:40Z</time>
      </trkpt>
      <trkpt lat="41.61904" lon="9.22638">
        <ele>82.81</ele>
        <time>2022-05-02T10:56:55Z</time>
      </trkpt>
      <trkpt lat="41.61893" lon="9.22651">
        <ele>82.81</ele>
        <time>2022-05-02T10:57:07Z</time>
      </trkpt>
      <trkpt lat="41.61889" lon="9.22655">
        <ele>82.81</ele>
        <time>2022-05-02T10:57:12Z</time>
      </trkpt>
      <trkpt lat="41.61888" lon="9.22656">
        <ele>82.81</ele>
        <time>2022-05-02T10:57:13Z</time>
      </trkpt>
      <trkpt lat="41.61877" lon="9.22666">
        <ele>83.77</ele>
        <time>2022-05-02T10:57:26Z</time>
      </trkpt>
      <trkpt lat="41.61865" lon="9.22676">
        <ele>82.81</ele>
        <time>2022-05-02T10:57:38Z</time>
      </trkpt>
      <trkpt lat="41.61863" lon="9.22677">
        <ele>82.81</ele>
        <time>2022-05-02T10:57:41Z</time>
      </trkpt>
      <trkpt lat="41.61862" lon="9.22678">
        <ele>83.29</ele>
        <time>2022-05-02T10:57:42Z</time>
      </trkpt>
      <trkpt lat="41.61848" lon="9.22694">
        <ele>81.85</ele>
        <time>2022-05-02T10:57:57Z</time>
      </trkpt>
      <trkpt lat="41.61839" lon="9.22701">
        <ele>78.48</ele>
        <time>2022-05-02T10:58:06Z</time>
      </trkpt>
      <trkpt lat="41.61838" lon="9.22703">
        <ele>83.77</ele>
        <time>2022-05-02T10:58:07Z</time>
      </trkpt>
      <trkpt lat="41.61836" lon="9.22705">
        <ele>79.93</ele>
        <time>2022-05-02T10:58:09Z</time>
      </trkpt>
      <trkpt lat="41.61835" lon="9.22706">
        <ele>79.93</ele>
        <time>2022-05-02T10:58:10Z</time>
      </trkpt>
      <trkpt lat="41.6183" lon="9.22713">
        <ele>82.81</ele>
        <time>2022-05-02T10:58:16Z</time>
      </trkpt>
      <trkpt lat="41.61828" lon="9.22717">
        <ele>78.97</ele>
        <time>2022-05-02T10:58:19Z</time>
      </trkpt>
      <trkpt lat="41.61824" lon="9.22724">
        <ele>81.85</ele>
        <time>2022-05-02T10:58:24Z</time>
      </trkpt>
      <trkpt lat="41.61823" lon="9.22725">
        <ele>78.97</ele>
        <time>2022-05-02T10:58:25Z</time>
      </trkpt>
      <trkpt lat="41.61809" lon="9.22748">
        <ele>79.45</ele>
        <time>2022-05-02T10:58:43Z</time>
      </trkpt>
      <trkpt lat="41.61797" lon="9.2276">
        <ele>78.97</ele>
        <time>2022-05-02T10:58:59Z</time>
      </trkpt>
      <trkpt lat="41.61796" lon="9.22761">
        <ele>78</ele>
        <time>2022-05-02T10:59:00Z</time>
      </trkpt>
      <trkpt lat="41.61784" lon="9.22769">
        <ele>78.48</ele>
        <time>2022-05-02T10:59:12Z</time>
      </trkpt>
      <trkpt lat="41.61771" lon="9.22776">
        <ele>78</ele>
        <time>2022-05-02T10:59:25Z</time>
      </trkpt>
      <trkpt lat="41.61772" lon="9.22779">
        <ele>78</ele>
        <time>2022-05-02T10:59:41Z</time>
      </trkpt>
      <trkpt lat="41.61771" lon="9.2278">
        <ele>78</ele>
        <time>2022-05-02T10:59:42Z</time>
      </trkpt>
      <trkpt lat="41.61768" lon="9.22784">
        <ele>77.52</ele>
        <time>2022-05-02T10:59:46Z</time>
      </trkpt>
      <trkpt lat="41.61767" lon="9.22784">
        <ele>78</ele>
        <time>2022-05-02T10:59:47Z</time>
      </trkpt>
      <trkpt lat="41.61766" lon="9.22785">
        <ele>78</ele>
        <time>2022-05-02T10:59:48Z</time>
      </trkpt>
      <trkpt lat="41.61764" lon="9.22786">
        <ele>78</ele>
        <time>2022-05-02T10:59:49Z</time>
      </trkpt>
      <trkpt lat="41.61763" lon="9.22787">
        <ele>77.52</ele>
        <time>2022-05-02T10:59:50Z</time>
      </trkpt>
      <trkpt lat="41.61758" lon="9.22791">
        <ele>78.48</ele>
        <time>2022-05-02T10:59:55Z</time>
      </trkpt>
      <trkpt lat="41.61741" lon="9.22802">
        <ele>77.52</ele>
        <time>2022-05-02T11:00:14Z</time>
      </trkpt>
      <trkpt lat="41.61724" lon="9.22814">
        <ele>78</ele>
        <time>2022-05-02T11:00:32Z</time>
      </trkpt>
      <trkpt lat="41.61717" lon="9.22819">
        <ele>77.52</ele>
        <time>2022-05-02T11:00:39Z</time>
      </trkpt>
      <trkpt lat="41.61716" lon="9.2282">
        <ele>78</ele>
        <time>2022-05-02T11:00:40Z</time>
      </trkpt>
      <trkpt lat="41.61715" lon="9.22821">
        <ele>78.48</ele>
        <time>2022-05-02T11:00:41Z</time>
      </trkpt>
      <trkpt lat="41.61696" lon="9.22834">
        <ele>77.52</ele>
        <time>2022-05-02T11:01:00Z</time>
      </trkpt>
      <trkpt lat="41.61687" lon="9.2284">
        <ele>78</ele>
        <time>2022-05-02T11:01:10Z</time>
      </trkpt>
      <trkpt lat="41.61682" lon="9.22845">
        <ele>78</ele>
        <time>2022-05-02T11:01:21Z</time>
      </trkpt>
      <trkpt lat="41.61681" lon="9.22845">
        <ele>77.52</ele>
        <time>2022-05-02T11:01:22Z</time>
      </trkpt>
      <trkpt lat="41.6168" lon="9.22846">
        <ele>77.52</ele>
        <time>2022-05-02T11:01:23Z</time>
      </trkpt>
      <trkpt lat="41.6167" lon="9.22849">
        <ele>78.97</ele>
        <time>2022-05-02T11:01:37Z</time>
      </trkpt>
      <trkpt lat="41.61668" lon="9.22847">
        <ele>78.48</ele>
        <time>2022-05-02T11:01:50Z</time>
      </trkpt>
      <trkpt lat="41.61656" lon="9.22847">
        <ele>78</ele>
        <time>2022-05-02T11:02:01Z</time>
      </trkpt>
      <trkpt lat="41.61655" lon="9.22847">
        <ele>77.52</ele>
        <time>2022-05-02T11:02:02Z</time>
      </trkpt>
      <trkpt lat="41.61653" lon="9.22848">
        <ele>77.52</ele>
        <time>2022-05-02T11:02:03Z</time>
      </trkpt>
      <trkpt lat="41.61649" lon="9.22853">
        <ele>77.52</ele>
        <time>2022-05-02T11:02:09Z</time>
      </trkpt>
      <trkpt lat="41.61648" lon="9.22856">
        <ele>77.04</ele>
        <time>2022-05-02T11:02:10Z</time>
      </trkpt>
      <trkpt lat="41.61638" lon="9.22875">
        <ele>76.56</ele>
        <time>2022-05-02T11:02:24Z</time>
      </trkpt>
      <trkpt lat="41.61629" lon="9.22898">
        <ele>74.64</ele>
        <time>2022-05-02T11:02:39Z</time>
      </trkpt>
      <trkpt lat="41.61621" lon="9.22907">
        <ele>75.6</ele>
        <time>2022-05-02T11:02:57Z</time>
      </trkpt>
      <trkpt lat="41.61618" lon="9.22906">
        <ele>75.6</ele>
        <time>2022-05-02T11:03:37Z</time>
      </trkpt>
      <trkpt lat="41.61613" lon="9.2293">
        <ele>74.64</ele>
        <time>2022-05-02T11:03:53Z</time>
      </trkpt>
      <trkpt lat="41.61601" lon="9.22949">
        <ele>75.12</ele>
        <time>2022-05-02T11:04:10Z</time>
      </trkpt>
      <trkpt lat="41.61597" lon="9.22951">
        <ele>75.12</ele>
        <time>2022-05-02T11:04:25Z</time>
      </trkpt>
      <trkpt lat="41.61597" lon="9.22951">
        <ele>75.12</ele>
        <time>2022-05-02T11:04:41Z</time>
      </trkpt>
      <trkpt lat="41.61598" lon="9.22956">
        <ele>75.12</ele>
        <time>2022-05-02T11:05:00Z</time>
      </trkpt>
      <trkpt lat="41.61598" lon="9.22956">
        <ele>75.12</ele>
        <time>2022-05-02T11:05:27Z</time>
      </trkpt>
      <trkpt lat="41.61597" lon="9.22952">
        <ele>75.12</ele>
        <time>2022-05-02T11:05:47Z</time>
      </trkpt>
      <trkpt lat="41.61598" lon="9.22951">
        <ele>75.12</ele>
        <time>2022-05-02T11:06:10Z</time>
      </trkpt>
      <trkpt lat="41.61594" lon="9.22953">
        <ele>75.12</ele>
        <time>2022-05-02T11:06:34Z</time>
      </trkpt>
      <trkpt lat="41.61585" lon="9.22959">
        <ele>74.16</ele>
        <time>2022-05-02T11:06:43Z</time>
      </trkpt>
      <trkpt lat="41.61583" lon="9.22959">
        <ele>74.16</ele>
        <time>2022-05-02T11:06:45Z</time>
      </trkpt>
      <trkpt lat="41.61582" lon="9.22959">
        <ele>73.68</ele>
        <time>2022-05-02T11:06:46Z</time>
      </trkpt>
      <trkpt lat="41.61565" lon="9.22961">
        <ele>74.16</ele>
        <time>2022-05-02T11:07:01Z</time>
      </trkpt>
      <trkpt lat="41.61556" lon="9.22966">
        <ele>74.64</ele>
        <time>2022-05-02T11:07:11Z</time>
      </trkpt>
      <trkpt lat="41.61543" lon="9.22983">
        <ele>74.64</ele>
        <time>2022-05-02T11:07:27Z</time>
      </trkpt>
      <trkpt lat="41.61531" lon="9.23002">
        <ele>74.64</ele>
        <time>2022-05-02T11:07:45Z</time>
      </trkpt>
      <trkpt lat="41.6153" lon="9.23003">
        <ele>74.64</ele>
        <time>2022-05-02T11:07:46Z</time>
      </trkpt>
      <trkpt lat="41.61529" lon="9.23005">
        <ele>74.64</ele>
        <time>2022-05-02T11:07:47Z</time>
      </trkpt>
      <trkpt lat="41.61529" lon="9.23006">
        <ele>74.16</ele>
        <time>2022-05-02T11:07:48Z</time>
      </trkpt>
      <trkpt lat="41.61527" lon="9.23008">
        <ele>74.16</ele>
        <time>2022-05-02T11:07:50Z</time>
      </trkpt>
      <trkpt lat="41.61526" lon="9.23009">
        <ele>74.16</ele>
        <time>2022-05-02T11:07:51Z</time>
      </trkpt>
      <trkpt lat="41.61522" lon="9.23013">
        <ele>74.16</ele>
        <time>2022-05-02T11:07:56Z</time>
      </trkpt>
      <trkpt lat="41.61519" lon="9.23021">
        <ele>74.16</ele>
        <time>2022-05-02T11:08:07Z</time>
      </trkpt>
      <trkpt lat="41.61512" lon="9.23029">
        <ele>74.16</ele>
        <time>2022-05-02T11:08:20Z</time>
      </trkpt>
      <trkpt lat="41.61503" lon="9.23042">
        <ele>74.16</ele>
        <time>2022-05-02T11:08:32Z</time>
      </trkpt>
      <trkpt lat="41.615" lon="9.23048">
        <ele>74.16</ele>
        <time>2022-05-02T11:08:37Z</time>
      </trkpt>
      <trkpt lat="41.61492" lon="9.23059">
        <ele>73.68</ele>
        <time>2022-05-02T11:08:50Z</time>
      </trkpt>
      <trkpt lat="41.61491" lon="9.23067">
        <ele>74.16</ele>
        <time>2022-05-02T11:08:58Z</time>
      </trkpt>
      <trkpt lat="41.6149" lon="9.23069">
        <ele>73.68</ele>
        <time>2022-05-02T11:09:00Z</time>
      </trkpt>
      <trkpt lat="41.61489" lon="9.23071">
        <ele>74.16</ele>
        <time>2022-05-02T11:09:01Z</time>
      </trkpt>
      <trkpt lat="41.6148" lon="9.23083">
        <ele>73.2</ele>
        <time>2022-05-02T11:09:13Z</time>
      </trkpt>
      <trkpt lat="41.61471" lon="9.23097">
        <ele>73.68</ele>
        <time>2022-05-02T11:09:26Z</time>
      </trkpt>
      <trkpt lat="41.61463" lon="9.23113">
        <ele>73.2</ele>
        <time>2022-05-02T11:09:40Z</time>
      </trkpt>
      <trkpt lat="41.61453" lon="9.23133">
        <ele>73.68</ele>
        <time>2022-05-02T11:09:56Z</time>
      </trkpt>
      <trkpt lat="41.6144" lon="9.23147">
        <ele>73.68</ele>
        <time>2022-05-02T11:10:10Z</time>
      </trkpt>
      <trkpt lat="41.61434" lon="9.2315">
        <ele>73.68</ele>
        <time>2022-05-02T11:10:17Z</time>
      </trkpt>
      <trkpt lat="41.61419" lon="9.2316">
        <ele>73.2</ele>
        <time>2022-05-02T11:10:32Z</time>
      </trkpt>
      <trkpt lat="41.61411" lon="9.23165">
        <ele>73.2</ele>
        <time>2022-05-02T11:10:40Z</time>
      </trkpt>
      <trkpt lat="41.61409" lon="9.23166">
        <ele>72.72</ele>
        <time>2022-05-02T11:10:41Z</time>
      </trkpt>
      <trkpt lat="41.61408" lon="9.23166">
        <ele>73.2</ele>
        <time>2022-05-02T11:10:42Z</time>
      </trkpt>
      <trkpt lat="41.61404" lon="9.23176">
        <ele>73.2</ele>
        <time>2022-05-02T11:10:54Z</time>
      </trkpt>
      <trkpt lat="41.61403" lon="9.23174">
        <ele>73.2</ele>
        <time>2022-05-02T11:11:05Z</time>
      </trkpt>
      <trkpt lat="41.614" lon="9.23169">
        <ele>73.2</ele>
        <time>2022-05-02T11:11:19Z</time>
      </trkpt>
      <trkpt lat="41.61398" lon="9.23168">
        <ele>73.2</ele>
        <time>2022-05-02T11:11:24Z</time>
      </trkpt>
      <trkpt lat="41.61383" lon="9.2317">
        <ele>72.72</ele>
        <time>2022-05-02T11:11:39Z</time>
      </trkpt>
      <trkpt lat="41.61367" lon="9.23184">
        <ele>72.72</ele>
        <time>2022-05-02T11:11:56Z</time>
      </trkpt>
      <trkpt lat="41.61355" lon="9.23197">
        <ele>72.72</ele>
        <time>2022-05-02T11:12:12Z</time>
      </trkpt>
      <trkpt lat="41.61346" lon="9.23209">
        <ele>71.76</ele>
        <time>2022-05-02T11:12:27Z</time>
      </trkpt>
      <trkpt lat="41.61331" lon="9.23223">
        <ele>71.76</ele>
        <time>2022-05-02T11:12:44Z</time>
      </trkpt>
      <trkpt lat="41.61326" lon="9.23228">
        <ele>71.76</ele>
        <time>2022-05-02T11:12:57Z</time>
      </trkpt>
      <trkpt lat="41.61325" lon="9.2323">
        <ele>71.76</ele>
        <time>2022-05-02T11:12:58Z</time>
      </trkpt>
      <trkpt lat="41.61324" lon="9.23231">
        <ele>71.76</ele>
        <time>2022-05-02T11:12:59Z</time>
      </trkpt>
      <trkpt lat="41.61308" lon="9.23245">
        <ele>71.27</ele>
        <time>2022-05-02T11:13:16Z</time>
      </trkpt>
      <trkpt lat="41.6129" lon="9.23255">
        <ele>70.79</ele>
        <time>2022-05-02T11:13:32Z</time>
      </trkpt>
      <trkpt lat="41.61271" lon="9.23267">
        <ele>69.83</ele>
        <time>2022-05-02T11:13:53Z</time>
      </trkpt>
      <trkpt lat="41.61264" lon="9.23267">
        <ele>69.83</ele>
        <time>2022-05-02T11:14:07Z</time>
      </trkpt>
      <trkpt lat="41.61264" lon="9.23269">
        <ele>69.83</ele>
        <time>2022-05-02T11:14:31Z</time>
      </trkpt>
      <trkpt lat="41.61263" lon="9.23266">
        <ele>69.35</ele>
        <time>2022-05-02T11:14:52Z</time>
      </trkpt>
      <trkpt lat="41.61264" lon="9.23264">
        <ele>69.35</ele>
        <time>2022-05-02T11:15:22Z</time>
      </trkpt>
      <trkpt lat="41.61264" lon="9.23264">
        <ele>68.87</ele>
        <time>2022-05-02T11:15:25Z</time>
      </trkpt>
      <trkpt lat="41.61264" lon="9.23266">
        <ele>60.22</ele>
        <time>2022-05-02T11:47:04Z</time>
      </trkpt>
      <trkpt lat="41.6128" lon="9.23275">
        <ele>60.22</ele>
        <time>2022-05-02T11:47:28Z</time>
      </trkpt>
      <trkpt lat="41.61283" lon="9.23289">
        <ele>60.22</ele>
        <time>2022-05-02T11:47:43Z</time>
      </trkpt>
      <trkpt lat="41.61283" lon="9.23304">
        <ele>60.7</ele>
        <time>2022-05-02T11:48:00Z</time>
      </trkpt>
      <trkpt lat="41.61287" lon="9.23331">
        <ele>60.22</ele>
        <time>2022-05-02T11:48:20Z</time>
      </trkpt>
      <trkpt lat="41.6129" lon="9.23357">
        <ele>60.22</ele>
        <time>2022-05-02T11:48:41Z</time>
      </trkpt>
      <trkpt lat="41.61292" lon="9.2338">
        <ele>60.22</ele>
        <time>2022-05-02T11:48:59Z</time>
      </trkpt>
      <trkpt lat="41.61296" lon="9.2339">
        <ele>60.7</ele>
        <time>2022-05-02T11:49:14Z</time>
      </trkpt>
      <trkpt lat="41.61302" lon="9.23411">
        <ele>60.22</ele>
        <time>2022-05-02T11:49:31Z</time>
      </trkpt>
      <trkpt lat="41.61302" lon="9.23412">
        <ele>60.22</ele>
        <time>2022-05-02T11:49:32Z</time>
      </trkpt>
      <trkpt lat="41.61302" lon="9.23433">
        <ele>60.7</ele>
        <time>2022-05-02T11:49:50Z</time>
      </trkpt>
      <trkpt lat="41.61299" lon="9.23452">
        <ele>60.7</ele>
        <time>2022-05-02T11:50:07Z</time>
      </trkpt>
      <trkpt lat="41.61296" lon="9.23461">
        <ele>60.7</ele>
        <time>2022-05-02T11:50:15Z</time>
      </trkpt>
      <trkpt lat="41.61282" lon="9.23449">
        <ele>60.7</ele>
        <time>2022-05-02T11:50:32Z</time>
      </trkpt>
      <trkpt lat="41.61268" lon="9.23422">
        <ele>61.66</ele>
        <time>2022-05-02T11:50:55Z</time>
      </trkpt>
      <trkpt lat="41.61256" lon="9.23415">
        <ele>62.14</ele>
        <time>2022-05-02T11:51:12Z</time>
      </trkpt>
      <trkpt lat="41.61244" lon="9.23401">
        <ele>62.62</ele>
        <time>2022-05-02T11:51:27Z</time>
      </trkpt>
      <trkpt lat="41.61225" lon="9.23384">
        <ele>63.1</ele>
        <time>2022-05-02T11:51:47Z</time>
      </trkpt>
      <trkpt lat="41.61222" lon="9.23382">
        <ele>63.1</ele>
        <time>2022-05-02T11:51:51Z</time>
      </trkpt>
      <trkpt lat="41.6122" lon="9.23379">
        <ele>63.1</ele>
        <time>2022-05-02T11:51:53Z</time>
      </trkpt>
      <trkpt lat="41.61218" lon="9.23378">
        <ele>62.62</ele>
        <time>2022-05-02T11:51:55Z</time>
      </trkpt>
      <trkpt lat="41.61203" lon="9.23369">
        <ele>62.14</ele>
        <time>2022-05-02T11:52:10Z</time>
      </trkpt>
      <trkpt lat="41.61178" lon="9.2337">
        <ele>59.26</ele>
        <time>2022-05-02T11:52:34Z</time>
      </trkpt>
      <trkpt lat="41.6117" lon="9.2337">
        <ele>58.78</ele>
        <time>2022-05-02T11:52:49Z</time>
      </trkpt>
      <trkpt lat="41.61146" lon="9.23369">
        <ele>57.82</ele>
        <time>2022-05-02T11:53:09Z</time>
      </trkpt>
      <trkpt lat="41.61119" lon="9.23368">
        <ele>57.34</ele>
        <time>2022-05-02T11:53:28Z</time>
      </trkpt>
      <trkpt lat="41.61105" lon="9.23363">
        <ele>57.34</ele>
        <time>2022-05-02T11:53:41Z</time>
      </trkpt>
      <trkpt lat="41.61094" lon="9.23356">
        <ele>57.34</ele>
        <time>2022-05-02T11:53:51Z</time>
      </trkpt>
      <trkpt lat="41.61093" lon="9.23356">
        <ele>57.34</ele>
        <time>2022-05-02T11:53:52Z</time>
      </trkpt>
      <trkpt lat="41.61073" lon="9.23353">
        <ele>57.82</ele>
        <time>2022-05-02T11:54:07Z</time>
      </trkpt>
      <trkpt lat="41.61062" lon="9.23356">
        <ele>57.34</ele>
        <time>2022-05-02T11:54:20Z</time>
      </trkpt>
      <trkpt lat="41.61053" lon="9.23363">
        <ele>56.37</ele>
        <time>2022-05-02T11:54:29Z</time>
      </trkpt>
      <trkpt lat="41.61052" lon="9.23364">
        <ele>56.37</ele>
        <time>2022-05-02T11:54:30Z</time>
      </trkpt>
      <trkpt lat="41.6105" lon="9.23365">
        <ele>55.89</ele>
        <time>2022-05-02T11:54:31Z</time>
      </trkpt>
      <trkpt lat="41.61049" lon="9.23366">
        <ele>56.37</ele>
        <time>2022-05-02T11:54:32Z</time>
      </trkpt>
      <trkpt lat="41.61047" lon="9.23367">
        <ele>56.37</ele>
        <time>2022-05-02T11:54:33Z</time>
      </trkpt>
      <trkpt lat="41.6103" lon="9.23372">
        <ele>56.37</ele>
        <time>2022-05-02T11:54:48Z</time>
      </trkpt>
      <trkpt lat="41.61014" lon="9.23381">
        <ele>55.89</ele>
        <time>2022-05-02T11:55:02Z</time>
      </trkpt>
      <trkpt lat="41.61006" lon="9.23382">
        <ele>55.41</ele>
        <time>2022-05-02T11:55:14Z</time>
      </trkpt>
      <trkpt lat="41.60994" lon="9.23387">
        <ele>55.41</ele>
        <time>2022-05-02T11:55:26Z</time>
      </trkpt>
      <trkpt lat="41.60982" lon="9.2339">
        <ele>55.89</ele>
        <time>2022-05-02T11:55:36Z</time>
      </trkpt>
      <trkpt lat="41.6097" lon="9.23395">
        <ele>55.89</ele>
        <time>2022-05-02T11:55:47Z</time>
      </trkpt>
      <trkpt lat="41.60951" lon="9.23403">
        <ele>55.89</ele>
        <time>2022-05-02T11:56:04Z</time>
      </trkpt>
      <trkpt lat="41.6093" lon="9.23417">
        <ele>55.41</ele>
        <time>2022-05-02T11:56:23Z</time>
      </trkpt>
      <trkpt lat="41.60918" lon="9.23428">
        <ele>54.45</ele>
        <time>2022-05-02T11:56:37Z</time>
      </trkpt>
      <trkpt lat="41.60917" lon="9.23428">
        <ele>54.93</ele>
        <time>2022-05-02T11:56:38Z</time>
      </trkpt>
      <trkpt lat="41.60916" lon="9.23429">
        <ele>55.41</ele>
        <time>2022-05-02T11:56:39Z</time>
      </trkpt>
      <trkpt lat="41.60915" lon="9.2343">
        <ele>54.93</ele>
        <time>2022-05-02T11:56:40Z</time>
      </trkpt>
      <trkpt lat="41.6091" lon="9.23434">
        <ele>54.93</ele>
        <time>2022-05-02T11:56:46Z</time>
      </trkpt>
      <trkpt lat="41.60907" lon="9.23443">
        <ele>54.93</ele>
        <time>2022-05-02T11:56:53Z</time>
      </trkpt>
      <trkpt lat="41.60906" lon="9.23444">
        <ele>54.93</ele>
        <time>2022-05-02T11:56:54Z</time>
      </trkpt>
      <trkpt lat="41.60905" lon="9.23446">
        <ele>54.93</ele>
        <time>2022-05-02T11:56:55Z</time>
      </trkpt>
      <trkpt lat="41.60904" lon="9.23447">
        <ele>54.45</ele>
        <time>2022-05-02T11:56:56Z</time>
      </trkpt>
      <trkpt lat="41.60903" lon="9.23449">
        <ele>54.45</ele>
        <time>2022-05-02T11:56:57Z</time>
      </trkpt>
      <trkpt lat="41.60903" lon="9.2345">
        <ele>54.45</ele>
        <time>2022-05-02T11:56:58Z</time>
      </trkpt>
      <trkpt lat="41.60902" lon="9.23451">
        <ele>54.93</ele>
        <time>2022-05-02T11:56:59Z</time>
      </trkpt>
      <trkpt lat="41.60901" lon="9.23452">
        <ele>54.93</ele>
        <time>2022-05-02T11:57:00Z</time>
      </trkpt>
      <trkpt lat="41.60889" lon="9.23468">
        <ele>53.97</ele>
        <time>2022-05-02T11:57:13Z</time>
      </trkpt>
      <trkpt lat="41.60888" lon="9.23469">
        <ele>54.45</ele>
        <time>2022-05-02T11:57:14Z</time>
      </trkpt>
      <trkpt lat="41.60874" lon="9.23478">
        <ele>53.49</ele>
        <time>2022-05-02T11:57:26Z</time>
      </trkpt>
      <trkpt lat="41.60862" lon="9.23485">
        <ele>53.97</ele>
        <time>2022-05-02T11:57:38Z</time>
      </trkpt>
      <trkpt lat="41.60845" lon="9.23494">
        <ele>53.49</ele>
        <time>2022-05-02T11:57:52Z</time>
      </trkpt>
      <trkpt lat="41.60829" lon="9.23502">
        <ele>53.49</ele>
        <time>2022-05-02T11:58:07Z</time>
      </trkpt>
      <trkpt lat="41.60809" lon="9.23513">
        <ele>53.49</ele>
        <time>2022-05-02T11:58:23Z</time>
      </trkpt>
      <trkpt lat="41.60797" lon="9.23519">
        <ele>53.01</ele>
        <time>2022-05-02T11:58:34Z</time>
      </trkpt>
      <trkpt lat="41.60787" lon="9.23526">
        <ele>53.01</ele>
        <time>2022-05-02T11:58:45Z</time>
      </trkpt>
      <trkpt lat="41.60773" lon="9.23536">
        <ele>52.53</ele>
        <time>2022-05-02T11:58:58Z</time>
      </trkpt>
      <trkpt lat="41.60762" lon="9.23544">
        <ele>53.01</ele>
        <time>2022-05-02T11:59:09Z</time>
      </trkpt>
      <trkpt lat="41.6076" lon="9.23544">
        <ele>52.53</ele>
        <time>2022-05-02T11:59:10Z</time>
      </trkpt>
      <trkpt lat="41.60759" lon="9.23545">
        <ele>52.53</ele>
        <time>2022-05-02T11:59:11Z</time>
      </trkpt>
      <trkpt lat="41.60744" lon="9.23551">
        <ele>53.49</ele>
        <time>2022-05-02T11:59:25Z</time>
      </trkpt>
      <trkpt lat="41.60722" lon="9.23561">
        <ele>53.01</ele>
        <time>2022-05-02T11:59:44Z</time>
      </trkpt>
      <trkpt lat="41.60703" lon="9.2357">
        <ele>53.01</ele>
        <time>2022-05-02T12:00:02Z</time>
      </trkpt>
      <trkpt lat="41.60684" lon="9.23579">
        <ele>51.57</ele>
        <time>2022-05-02T12:00:20Z</time>
      </trkpt>
      <trkpt lat="41.60663" lon="9.23587">
        <ele>52.05</ele>
        <time>2022-05-02T12:00:38Z</time>
      </trkpt>
      <trkpt lat="41.60643" lon="9.23591">
        <ele>52.05</ele>
        <time>2022-05-02T12:00:55Z</time>
      </trkpt>
      <trkpt lat="41.6062" lon="9.23591">
        <ele>52.05</ele>
        <time>2022-05-02T12:01:15Z</time>
      </trkpt>
      <trkpt lat="41.60599" lon="9.23593">
        <ele>52.05</ele>
        <time>2022-05-02T12:01:32Z</time>
      </trkpt>
      <trkpt lat="41.60589" lon="9.23594">
        <ele>51.57</ele>
        <time>2022-05-02T12:01:40Z</time>
      </trkpt>
      <trkpt lat="41.60588" lon="9.23595">
        <ele>52.05</ele>
        <time>2022-05-02T12:01:41Z</time>
      </trkpt>
      <trkpt lat="41.60565" lon="9.236">
        <ele>52.05</ele>
        <time>2022-05-02T12:02:00Z</time>
      </trkpt>
      <trkpt lat="41.60549" lon="9.23608">
        <ele>52.05</ele>
        <time>2022-05-02T12:02:14Z</time>
      </trkpt>
      <trkpt lat="41.60544" lon="9.23624">
        <ele>51.09</ele>
        <time>2022-05-02T12:02:27Z</time>
      </trkpt>
      <trkpt lat="41.60538" lon="9.2364">
        <ele>51.09</ele>
        <time>2022-05-02T12:02:39Z</time>
      </trkpt>
      <trkpt lat="41.60532" lon="9.23657">
        <ele>51.09</ele>
        <time>2022-05-02T12:02:51Z</time>
      </trkpt>
      <trkpt lat="41.60519" lon="9.23673">
        <ele>50.61</ele>
        <time>2022-05-02T12:03:04Z</time>
      </trkpt>
      <trkpt lat="41.60507" lon="9.23689">
        <ele>50.61</ele>
        <time>2022-05-02T12:03:18Z</time>
      </trkpt>
      <trkpt lat="41.60506" lon="9.23691">
        <ele>50.61</ele>
        <time>2022-05-02T12:03:20Z</time>
      </trkpt>
      <trkpt lat="41.60499" lon="9.23698">
        <ele>51.09</ele>
        <time>2022-05-02T12:03:30Z</time>
      </trkpt>
      <trkpt lat="41.60497" lon="9.23708">
        <ele>50.13</ele>
        <time>2022-05-02T12:03:43Z</time>
      </trkpt>
      <trkpt lat="41.60499" lon="9.2371">
        <ele>52.53</ele>
        <time>2022-05-02T12:04:04Z</time>
      </trkpt>
      <trkpt lat="41.60497" lon="9.23707">
        <ele>51.57</ele>
        <time>2022-05-02T12:04:27Z</time>
      </trkpt>
      <trkpt lat="41.60495" lon="9.23704">
        <ele>51.57</ele>
        <time>2022-05-02T12:04:38Z</time>
      </trkpt>
      <trkpt lat="41.60491" lon="9.23708">
        <ele>52.05</ele>
        <time>2022-05-02T12:04:42Z</time>
      </trkpt>
      <trkpt lat="41.6049" lon="9.23709">
        <ele>52.05</ele>
        <time>2022-05-02T12:04:43Z</time>
      </trkpt>
      <trkpt lat="41.6049" lon="9.2371">
        <ele>52.53</ele>
        <time>2022-05-02T12:04:44Z</time>
      </trkpt>
      <trkpt lat="41.60489" lon="9.23712">
        <ele>51.57</ele>
        <time>2022-05-02T12:04:45Z</time>
      </trkpt>
      <trkpt lat="41.60481" lon="9.23725">
        <ele>51.57</ele>
        <time>2022-05-02T12:04:59Z</time>
      </trkpt>
      <trkpt lat="41.60475" lon="9.2373">
        <ele>52.05</ele>
        <time>2022-05-02T12:05:18Z</time>
      </trkpt>
      <trkpt lat="41.60469" lon="9.2374">
        <ele>52.05</ele>
        <time>2022-05-02T12:05:26Z</time>
      </trkpt>
      <trkpt lat="41.60468" lon="9.23741">
        <ele>51.57</ele>
        <time>2022-05-02T12:05:27Z</time>
      </trkpt>
      <trkpt lat="41.60454" lon="9.23757">
        <ele>52.05</ele>
        <time>2022-05-02T12:05:43Z</time>
      </trkpt>
      <trkpt lat="41.60437" lon="9.23761">
        <ele>52.05</ele>
        <time>2022-05-02T12:05:59Z</time>
      </trkpt>
      <trkpt lat="41.60426" lon="9.23757">
        <ele>52.05</ele>
        <time>2022-05-02T12:06:13Z</time>
      </trkpt>
      <trkpt lat="41.60422" lon="9.23757">
        <ele>55.89</ele>
        <time>2022-05-02T12:06:23Z</time>
      </trkpt>
      <trkpt lat="41.60422" lon="9.23757">
        <ele>52.53</ele>
        <time>2022-05-02T12:06:24Z</time>
      </trkpt>
      <trkpt lat="41.6041" lon="9.23752">
        <ele>52.05</ele>
        <time>2022-05-02T12:06:41Z</time>
      </trkpt>
      <trkpt lat="41.60396" lon="9.23751">
        <ele>52.05</ele>
        <time>2022-05-02T12:06:55Z</time>
      </trkpt>
      <trkpt lat="41.60381" lon="9.2375">
        <ele>52.05</ele>
        <time>2022-05-02T12:07:10Z</time>
      </trkpt>
      <trkpt lat="41.60362" lon="9.23752">
        <ele>51.57</ele>
        <time>2022-05-02T12:07:27Z</time>
      </trkpt>
      <trkpt lat="41.60355" lon="9.23753">
        <ele>51.57</ele>
        <time>2022-05-02T12:07:42Z</time>
      </trkpt>
      <trkpt lat="41.60341" lon="9.23754">
        <ele>51.57</ele>
        <time>2022-05-02T12:07:54Z</time>
      </trkpt>
      <trkpt lat="41.6034" lon="9.23754">
        <ele>51.09</ele>
        <time>2022-05-02T12:07:55Z</time>
      </trkpt>
      <trkpt lat="41.60339" lon="9.23754">
        <ele>51.57</ele>
        <time>2022-05-02T12:07:56Z</time>
      </trkpt>
      <trkpt lat="41.60337" lon="9.23754">
        <ele>51.57</ele>
        <time>2022-05-02T12:07:57Z</time>
      </trkpt>
      <trkpt lat="41.60336" lon="9.23753">
        <ele>51.57</ele>
        <time>2022-05-02T12:07:58Z</time>
      </trkpt>
      <trkpt lat="41.60334" lon="9.23753">
        <ele>51.57</ele>
        <time>2022-05-02T12:07:59Z</time>
      </trkpt>
      <trkpt lat="41.60333" lon="9.23753">
        <ele>51.57</ele>
        <time>2022-05-02T12:08:00Z</time>
      </trkpt>
      <trkpt lat="41.60322" lon="9.23754">
        <ele>52.05</ele>
        <time>2022-05-02T12:08:11Z</time>
      </trkpt>
      <trkpt lat="41.60315" lon="9.23753">
        <ele>53.01</ele>
        <time>2022-05-02T12:08:18Z</time>
      </trkpt>
      <trkpt lat="41.60313" lon="9.23752">
        <ele>52.05</ele>
        <time>2022-05-02T12:08:19Z</time>
      </trkpt>
      <trkpt lat="41.60312" lon="9.23752">
        <ele>52.05</ele>
        <time>2022-05-02T12:08:20Z</time>
      </trkpt>
      <trkpt lat="41.603" lon="9.23757">
        <ele>53.01</ele>
        <time>2022-05-02T12:08:35Z</time>
      </trkpt>
      <trkpt lat="41.60293" lon="9.23764">
        <ele>54.93</ele>
        <time>2022-05-02T12:08:51Z</time>
      </trkpt>
      <trkpt lat="41.60293" lon="9.23765">
        <ele>54.93</ele>
        <time>2022-05-02T12:08:52Z</time>
      </trkpt>
      <trkpt lat="41.6029" lon="9.23783">
        <ele>57.34</ele>
        <time>2022-05-02T12:09:06Z</time>
      </trkpt>
      <trkpt lat="41.60291" lon="9.2379">
        <ele>57.82</ele>
        <time>2022-05-02T12:09:11Z</time>
      </trkpt>
      <trkpt lat="41.6028" lon="9.23819">
        <ele>58.78</ele>
        <time>2022-05-02T12:09:32Z</time>
      </trkpt>
      <trkpt lat="41.60275" lon="9.23822">
        <ele>58.78</ele>
        <time>2022-05-02T12:09:36Z</time>
      </trkpt>
      <trkpt lat="41.60263" lon="9.23832">
        <ele>58.78</ele>
        <time>2022-05-02T12:09:50Z</time>
      </trkpt>
      <trkpt lat="41.60255" lon="9.23845">
        <ele>58.78</ele>
        <time>2022-05-02T12:10:06Z</time>
      </trkpt>
      <trkpt lat="41.60257" lon="9.23845">
        <ele>59.26</ele>
        <time>2022-05-02T12:10:27Z</time>
      </trkpt>
      <trkpt lat="41.60251" lon="9.23849">
        <ele>59.26</ele>
        <time>2022-05-02T12:10:41Z</time>
      </trkpt>
      <trkpt lat="41.60249" lon="9.2385">
        <ele>58.78</ele>
        <time>2022-05-02T12:10:42Z</time>
      </trkpt>
      <trkpt lat="41.60231" lon="9.23866">
        <ele>59.74</ele>
        <time>2022-05-02T12:11:00Z</time>
      </trkpt>
      <trkpt lat="41.60217" lon="9.23878">
        <ele>60.7</ele>
        <time>2022-05-02T12:11:15Z</time>
      </trkpt>
      <trkpt lat="41.60207" lon="9.23893">
        <ele>60.7</ele>
        <time>2022-05-02T12:11:30Z</time>
      </trkpt>
      <trkpt lat="41.60203" lon="9.23905">
        <ele>61.18</ele>
        <time>2022-05-02T12:11:44Z</time>
      </trkpt>
      <trkpt lat="41.60191" lon="9.23918">
        <ele>62.14</ele>
        <time>2022-05-02T12:11:58Z</time>
      </trkpt>
      <trkpt lat="41.6019" lon="9.23919">
        <ele>62.62</ele>
        <time>2022-05-02T12:11:59Z</time>
      </trkpt>
      <trkpt lat="41.60178" lon="9.2393">
        <ele>64.07</ele>
        <time>2022-05-02T12:12:16Z</time>
      </trkpt>
      <trkpt lat="41.60168" lon="9.23938">
        <ele>65.51</ele>
        <time>2022-05-02T12:12:31Z</time>
      </trkpt>
      <trkpt lat="41.60158" lon="9.23946">
        <ele>66.95</ele>
        <time>2022-05-02T12:12:47Z</time>
      </trkpt>
      <trkpt lat="41.60148" lon="9.23953">
        <ele>68.39</ele>
        <time>2022-05-02T12:13:00Z</time>
      </trkpt>
      <trkpt lat="41.60137" lon="9.23966">
        <ele>69.83</ele>
        <time>2022-05-02T12:13:17Z</time>
      </trkpt>
      <trkpt lat="41.60133" lon="9.23988">
        <ele>71.27</ele>
        <time>2022-05-02T12:13:35Z</time>
      </trkpt>
      <trkpt lat="41.6013" lon="9.24006">
        <ele>72.72</ele>
        <time>2022-05-02T12:13:50Z</time>
      </trkpt>
      <trkpt lat="41.60117" lon="9.24026">
        <ele>74.64</ele>
        <time>2022-05-02T12:14:09Z</time>
      </trkpt>
      <trkpt lat="41.60108" lon="9.24045">
        <ele>75.6</ele>
        <time>2022-05-02T12:14:26Z</time>
      </trkpt>
      <trkpt lat="41.601" lon="9.24059">
        <ele>77.04</ele>
        <time>2022-05-02T12:14:42Z</time>
      </trkpt>
      <trkpt lat="41.60089" lon="9.2408">
        <ele>78.97</ele>
        <time>2022-05-02T12:15:00Z</time>
      </trkpt>
      <trkpt lat="41.60081" lon="9.24097">
        <ele>79.45</ele>
        <time>2022-05-02T12:15:15Z</time>
      </trkpt>
      <trkpt lat="41.60074" lon="9.24115">
        <ele>79.93</ele>
        <time>2022-05-02T12:15:29Z</time>
      </trkpt>
      <trkpt lat="41.6007" lon="9.24131">
        <ele>79.93</ele>
        <time>2022-05-02T12:15:40Z</time>
      </trkpt>
      <trkpt lat="41.60068" lon="9.2415">
        <ele>80.41</ele>
        <time>2022-05-02T12:15:53Z</time>
      </trkpt>
      <trkpt lat="41.60064" lon="9.24167">
        <ele>80.89</ele>
        <time>2022-05-02T12:16:10Z</time>
      </trkpt>
      <trkpt lat="41.60066" lon="9.24173">
        <ele>81.37</ele>
        <time>2022-05-02T12:16:36Z</time>
      </trkpt>
      <trkpt lat="41.60072" lon="9.24175">
        <ele>80.41</ele>
        <time>2022-05-02T12:17:16Z</time>
      </trkpt>
      <trkpt lat="41.6007" lon="9.24173">
        <ele>80.89</ele>
        <time>2022-05-02T12:17:54Z</time>
      </trkpt>
      <trkpt lat="41.60069" lon="9.24173">
        <ele>80.89</ele>
        <time>2022-05-02T12:18:18Z</time>
      </trkpt>
      <trkpt lat="41.6007" lon="9.24176">
        <ele>81.37</ele>
        <time>2022-05-02T12:18:46Z</time>
      </trkpt>
      <trkpt lat="41.60071" lon="9.24175">
        <ele>81.37</ele>
        <time>2022-05-02T12:19:19Z</time>
      </trkpt>
      <trkpt lat="41.60069" lon="9.24175">
        <ele>81.37</ele>
        <time>2022-05-02T12:19:42Z</time>
      </trkpt>
      <trkpt lat="41.60067" lon="9.24175">
        <ele>81.37</ele>
        <time>2022-05-02T12:20:07Z</time>
      </trkpt>
      <trkpt lat="41.60067" lon="9.24173">
        <ele>81.37</ele>
        <time>2022-05-02T12:20:26Z</time>
      </trkpt>
      <trkpt lat="41.60066" lon="9.24173">
        <ele>81.37</ele>
        <time>2022-05-02T12:20:39Z</time>
      </trkpt>
      <trkpt lat="41.60069" lon="9.24175">
        <ele>82.33</ele>
        <time>2022-05-02T12:21:05Z</time>
      </trkpt>
      <trkpt lat="41.60065" lon="9.24184">
        <ele>81.85</ele>
        <time>2022-05-02T12:21:21Z</time>
      </trkpt>
      <trkpt lat="41.60062" lon="9.24192">
        <ele>81.37</ele>
        <time>2022-05-02T12:21:36Z</time>
      </trkpt>
      <trkpt lat="41.60063" lon="9.24218">
        <ele>80.41</ele>
        <time>2022-05-02T12:21:51Z</time>
      </trkpt>
      <trkpt lat="41.60063" lon="9.24219">
        <ele>79.93</ele>
        <time>2022-05-02T12:21:52Z</time>
      </trkpt>
      <trkpt lat="41.60064" lon="9.24221">
        <ele>79.93</ele>
        <time>2022-05-02T12:21:53Z</time>
      </trkpt>
      <trkpt lat="41.60064" lon="9.24223">
        <ele>79.45</ele>
        <time>2022-05-02T12:21:54Z</time>
      </trkpt>
      <trkpt lat="41.60064" lon="9.24227">
        <ele>79.45</ele>
        <time>2022-05-02T12:21:57Z</time>
      </trkpt>
      <trkpt lat="41.60063" lon="9.24255">
        <ele>78</ele>
        <time>2022-05-02T12:22:13Z</time>
      </trkpt>
      <trkpt lat="41.60065" lon="9.24283">
        <ele>77.04</ele>
        <time>2022-05-02T12:22:31Z</time>
      </trkpt>
      <trkpt lat="41.60069" lon="9.24297">
        <ele>74.16</ele>
        <time>2022-05-02T12:22:41Z</time>
      </trkpt>
      <trkpt lat="41.60069" lon="9.24299">
        <ele>73.68</ele>
        <time>2022-05-02T12:22:42Z</time>
      </trkpt>
      <trkpt lat="41.60064" lon="9.24323">
        <ele>72.72</ele>
        <time>2022-05-02T12:22:59Z</time>
      </trkpt>
      <trkpt lat="41.60064" lon="9.24321">
        <ele>72.24</ele>
        <time>2022-05-02T12:23:19Z</time>
      </trkpt>
      <trkpt lat="41.60058" lon="9.24339">
        <ele>71.27</ele>
        <time>2022-05-02T12:23:34Z</time>
      </trkpt>
      <trkpt lat="41.60057" lon="9.24341">
        <ele>70.79</ele>
        <time>2022-05-02T12:23:35Z</time>
      </trkpt>
      <trkpt lat="41.60057" lon="9.24342">
        <ele>71.27</ele>
        <time>2022-05-02T12:23:36Z</time>
      </trkpt>
      <trkpt lat="41.60056" lon="9.24343">
        <ele>70.79</ele>
        <time>2022-05-02T12:23:37Z</time>
      </trkpt>
      <trkpt lat="41.60055" lon="9.24344">
        <ele>70.31</ele>
        <time>2022-05-02T12:23:38Z</time>
      </trkpt>
      <trkpt lat="41.60041" lon="9.24363">
        <ele>67.43</ele>
        <time>2022-05-02T12:23:56Z</time>
      </trkpt>
      <trkpt lat="41.60026" lon="9.24375">
        <ele>64.07</ele>
        <time>2022-05-02T12:24:12Z</time>
      </trkpt>
      <trkpt lat="41.60005" lon="9.24396">
        <ele>62.14</ele>
        <time>2022-05-02T12:24:32Z</time>
      </trkpt>
      <trkpt lat="41.60002" lon="9.244">
        <ele>60.7</ele>
        <time>2022-05-02T12:24:36Z</time>
      </trkpt>
      <trkpt lat="41.60001" lon="9.24401">
        <ele>61.18</ele>
        <time>2022-05-02T12:24:37Z</time>
      </trkpt>
      <trkpt lat="41.59997" lon="9.24407">
        <ele>60.7</ele>
        <time>2022-05-02T12:24:49Z</time>
      </trkpt>
      <trkpt lat="41.59991" lon="9.24413">
        <ele>60.22</ele>
        <time>2022-05-02T12:25:05Z</time>
      </trkpt>
      <trkpt lat="41.59981" lon="9.24425">
        <ele>58.3</ele>
        <time>2022-05-02T12:25:29Z</time>
      </trkpt>
      <trkpt lat="41.59962" lon="9.24451">
        <ele>55.41</ele>
        <time>2022-05-02T12:25:50Z</time>
      </trkpt>
      <trkpt lat="41.59944" lon="9.24475">
        <ele>53.97</ele>
        <time>2022-05-02T12:26:07Z</time>
      </trkpt>
      <trkpt lat="41.5993" lon="9.24491">
        <ele>51.57</ele>
        <time>2022-05-02T12:26:24Z</time>
      </trkpt>
      <trkpt lat="41.59922" lon="9.24498">
        <ele>51.09</ele>
        <time>2022-05-02T12:26:31Z</time>
      </trkpt>
      <trkpt lat="41.59907" lon="9.24508">
        <ele>49.16</ele>
        <time>2022-05-02T12:26:46Z</time>
      </trkpt>
      <trkpt lat="41.59889" lon="9.24527">
        <ele>47.72</ele>
        <time>2022-05-02T12:27:04Z</time>
      </trkpt>
      <trkpt lat="41.59871" lon="9.24538">
        <ele>46.28</ele>
        <time>2022-05-02T12:27:22Z</time>
      </trkpt>
      <trkpt lat="41.59861" lon="9.24541">
        <ele>46.28</ele>
        <time>2022-05-02T12:27:37Z</time>
      </trkpt>
      <trkpt lat="41.59841" lon="9.24555">
        <ele>44.84</ele>
        <time>2022-05-02T12:27:54Z</time>
      </trkpt>
      <trkpt lat="41.59833" lon="9.24562">
        <ele>44.36</ele>
        <time>2022-05-02T12:28:02Z</time>
      </trkpt>
      <trkpt lat="41.59816" lon="9.24571">
        <ele>43.4</ele>
        <time>2022-05-02T12:28:22Z</time>
      </trkpt>
      <trkpt lat="41.59809" lon="9.24575">
        <ele>43.4</ele>
        <time>2022-05-02T12:28:49Z</time>
      </trkpt>
      <trkpt lat="41.5979" lon="9.24589">
        <ele>42.44</ele>
        <time>2022-05-02T12:29:07Z</time>
      </trkpt>
      <trkpt lat="41.59787" lon="9.2459">
        <ele>42.44</ele>
        <time>2022-05-02T12:29:10Z</time>
      </trkpt>
      <trkpt lat="41.59768" lon="9.24599">
        <ele>41.95</ele>
        <time>2022-05-02T12:29:27Z</time>
      </trkpt>
      <trkpt lat="41.59756" lon="9.246">
        <ele>41.47</ele>
        <time>2022-05-02T12:29:40Z</time>
      </trkpt>
      <trkpt lat="41.59747" lon="9.24601">
        <ele>41.47</ele>
        <time>2022-05-02T12:29:48Z</time>
      </trkpt>
      <trkpt lat="41.59746" lon="9.24601">
        <ele>41.47</ele>
        <time>2022-05-02T12:29:49Z</time>
      </trkpt>
      <trkpt lat="41.59739" lon="9.24603">
        <ele>40.99</ele>
        <time>2022-05-02T12:29:54Z</time>
      </trkpt>
      <trkpt lat="41.59735" lon="9.24605">
        <ele>40.99</ele>
        <time>2022-05-02T12:29:58Z</time>
      </trkpt>
      <trkpt lat="41.59723" lon="9.24607">
        <ele>40.99</ele>
        <time>2022-05-02T12:30:09Z</time>
      </trkpt>
      <trkpt lat="41.59708" lon="9.24611">
        <ele>40.03</ele>
        <time>2022-05-02T12:30:22Z</time>
      </trkpt>
      <trkpt lat="41.59691" lon="9.24623">
        <ele>39.55</ele>
        <time>2022-05-02T12:30:37Z</time>
      </trkpt>
      <trkpt lat="41.59687" lon="9.24626">
        <ele>40.03</ele>
        <time>2022-05-02T12:30:41Z</time>
      </trkpt>
      <trkpt lat="41.59686" lon="9.24628">
        <ele>40.03</ele>
        <time>2022-05-02T12:30:42Z</time>
      </trkpt>
      <trkpt lat="41.59685" lon="9.24629">
        <ele>40.03</ele>
        <time>2022-05-02T12:30:43Z</time>
      </trkpt>
      <trkpt lat="41.59684" lon="9.2463">
        <ele>39.55</ele>
        <time>2022-05-02T12:30:44Z</time>
      </trkpt>
      <trkpt lat="41.59683" lon="9.24631">
        <ele>40.03</ele>
        <time>2022-05-02T12:30:45Z</time>
      </trkpt>
      <trkpt lat="41.59682" lon="9.24631">
        <ele>40.03</ele>
        <time>2022-05-02T12:30:46Z</time>
      </trkpt>
      <trkpt lat="41.59681" lon="9.24632">
        <ele>40.03</ele>
        <time>2022-05-02T12:30:47Z</time>
      </trkpt>
      <trkpt lat="41.5968" lon="9.24633">
        <ele>39.55</ele>
        <time>2022-05-02T12:30:48Z</time>
      </trkpt>
      <trkpt lat="41.59679" lon="9.24634">
        <ele>39.55</ele>
        <time>2022-05-02T12:30:49Z</time>
      </trkpt>
      <trkpt lat="41.59678" lon="9.24635">
        <ele>39.07</ele>
        <time>2022-05-02T12:30:50Z</time>
      </trkpt>
      <trkpt lat="41.59677" lon="9.24636">
        <ele>39.55</ele>
        <time>2022-05-02T12:30:51Z</time>
      </trkpt>
      <trkpt lat="41.59676" lon="9.24637">
        <ele>39.55</ele>
        <time>2022-05-02T12:30:52Z</time>
      </trkpt>
      <trkpt lat="41.59675" lon="9.24638">
        <ele>40.03</ele>
        <time>2022-05-02T12:30:53Z</time>
      </trkpt>
      <trkpt lat="41.59674" lon="9.24639">
        <ele>39.55</ele>
        <time>2022-05-02T12:30:54Z</time>
      </trkpt>
      <trkpt lat="41.59674" lon="9.2464">
        <ele>39.55</ele>
        <time>2022-05-02T12:30:55Z</time>
      </trkpt>
      <trkpt lat="41.59657" lon="9.24654">
        <ele>39.55</ele>
        <time>2022-05-02T12:31:13Z</time>
      </trkpt>
      <trkpt lat="41.59647" lon="9.24664">
        <ele>40.51</ele>
        <time>2022-05-02T12:31:27Z</time>
      </trkpt>
      <trkpt lat="41.59631" lon="9.2468">
        <ele>40.03</ele>
        <time>2022-05-02T12:31:43Z</time>
      </trkpt>
      <trkpt lat="41.59619" lon="9.24692">
        <ele>39.07</ele>
        <time>2022-05-02T12:31:55Z</time>
      </trkpt>
      <trkpt lat="41.596" lon="9.24712">
        <ele>39.55</ele>
        <time>2022-05-02T12:32:14Z</time>
      </trkpt>
      <trkpt lat="41.59588" lon="9.24721">
        <ele>39.07</ele>
        <time>2022-05-02T12:32:27Z</time>
      </trkpt>
      <trkpt lat="41.59587" lon="9.24722">
        <ele>39.07</ele>
        <time>2022-05-02T12:32:28Z</time>
      </trkpt>
      <trkpt lat="41.59586" lon="9.24722">
        <ele>39.07</ele>
        <time>2022-05-02T12:32:29Z</time>
      </trkpt>
      <trkpt lat="41.59579" lon="9.24727">
        <ele>38.11</ele>
        <time>2022-05-02T12:32:36Z</time>
      </trkpt>
      <trkpt lat="41.59578" lon="9.24728">
        <ele>38.59</ele>
        <time>2022-05-02T12:32:37Z</time>
      </trkpt>
      <trkpt lat="41.59576" lon="9.24729">
        <ele>38.59</ele>
        <time>2022-05-02T12:32:38Z</time>
      </trkpt>
      <trkpt lat="41.59564" lon="9.24744">
        <ele>38.11</ele>
        <time>2022-05-02T12:32:50Z</time>
      </trkpt>
      <trkpt lat="41.5956" lon="9.24746">
        <ele>38.59</ele>
        <time>2022-05-02T12:32:54Z</time>
      </trkpt>
      <trkpt lat="41.59557" lon="9.24749">
        <ele>38.11</ele>
        <time>2022-05-02T12:32:57Z</time>
      </trkpt>
      <trkpt lat="41.59557" lon="9.2475">
        <ele>38.11</ele>
        <time>2022-05-02T12:32:58Z</time>
      </trkpt>
      <trkpt lat="41.59556" lon="9.24752">
        <ele>38.59</ele>
        <time>2022-05-02T12:32:59Z</time>
      </trkpt>
      <trkpt lat="41.59548" lon="9.24771">
        <ele>38.59</ele>
        <time>2022-05-02T12:33:11Z</time>
      </trkpt>
      <trkpt lat="41.59538" lon="9.24794">
        <ele>37.63</ele>
        <time>2022-05-02T12:33:27Z</time>
      </trkpt>
      <trkpt lat="41.59529" lon="9.2481">
        <ele>37.63</ele>
        <time>2022-05-02T12:33:39Z</time>
      </trkpt>
      <trkpt lat="41.59514" lon="9.24839">
        <ele>37.63</ele>
        <time>2022-05-02T12:34:00Z</time>
      </trkpt>
      <trkpt lat="41.59511" lon="9.24851">
        <ele>37.15</ele>
        <time>2022-05-02T12:34:08Z</time>
      </trkpt>
      <trkpt lat="41.59503" lon="9.24873">
        <ele>37.15</ele>
        <time>2022-05-02T12:34:22Z</time>
      </trkpt>
      <trkpt lat="41.59495" lon="9.24899">
        <ele>37.63</ele>
        <time>2022-05-02T12:34:40Z</time>
      </trkpt>
      <trkpt lat="41.5949" lon="9.2491">
        <ele>38.11</ele>
        <time>2022-05-02T12:34:49Z</time>
      </trkpt>
      <trkpt lat="41.59489" lon="9.24911">
        <ele>37.63</ele>
        <time>2022-05-02T12:34:50Z</time>
      </trkpt>
      <trkpt lat="41.59487" lon="9.24911">
        <ele>37.63</ele>
        <time>2022-05-02T12:34:51Z</time>
      </trkpt>
      <trkpt lat="41.59486" lon="9.24912">
        <ele>37.63</ele>
        <time>2022-05-02T12:34:52Z</time>
      </trkpt>
      <trkpt lat="41.59485" lon="9.24913">
        <ele>37.15</ele>
        <time>2022-05-02T12:34:53Z</time>
      </trkpt>
      <trkpt lat="41.59478" lon="9.24937">
        <ele>37.63</ele>
        <time>2022-05-02T12:35:07Z</time>
      </trkpt>
      <trkpt lat="41.59472" lon="9.24964">
        <ele>37.15</ele>
        <time>2022-05-02T12:35:23Z</time>
      </trkpt>
      <trkpt lat="41.59469" lon="9.2499">
        <ele>36.67</ele>
        <time>2022-05-02T12:35:39Z</time>
      </trkpt>
      <trkpt lat="41.5947" lon="9.2501">
        <ele>36.19</ele>
        <time>2022-05-02T12:35:51Z</time>
      </trkpt>
      <trkpt lat="41.59469" lon="9.25017">
        <ele>36.19</ele>
        <time>2022-05-02T12:35:54Z</time>
      </trkpt>
      <trkpt lat="41.59469" lon="9.25018">
        <ele>36.19</ele>
        <time>2022-05-02T12:35:55Z</time>
      </trkpt>
      <trkpt lat="41.59471" lon="9.2504">
        <ele>34.74</ele>
        <time>2022-05-02T12:36:09Z</time>
      </trkpt>
      <trkpt lat="41.59471" lon="9.25072">
        <ele>34.74</ele>
        <time>2022-05-02T12:36:27Z</time>
      </trkpt>
      <trkpt lat="41.59473" lon="9.25094">
        <ele>33.78</ele>
        <time>2022-05-02T12:36:39Z</time>
      </trkpt>
      <trkpt lat="41.59473" lon="9.25098">
        <ele>34.26</ele>
        <time>2022-05-02T12:36:41Z</time>
      </trkpt>
      <trkpt lat="41.59473" lon="9.25099">
        <ele>34.26</ele>
        <time>2022-05-02T12:36:42Z</time>
      </trkpt>
      <trkpt lat="41.59474" lon="9.2512">
        <ele>33.3</ele>
        <time>2022-05-02T12:36:56Z</time>
      </trkpt>
      <trkpt lat="41.59477" lon="9.2514">
        <ele>34.74</ele>
        <time>2022-05-02T12:37:06Z</time>
      </trkpt>
      <trkpt lat="41.59482" lon="9.25164">
        <ele>32.34</ele>
        <time>2022-05-02T12:37:22Z</time>
      </trkpt>
      <trkpt lat="41.59485" lon="9.25191">
        <ele>32.82</ele>
        <time>2022-05-02T12:37:35Z</time>
      </trkpt>
      <trkpt lat="41.59485" lon="9.25203">
        <ele>32.34</ele>
        <time>2022-05-02T12:37:45Z</time>
      </trkpt>
      <trkpt lat="41.59485" lon="9.25204">
        <ele>31.86</ele>
        <time>2022-05-02T12:37:46Z</time>
      </trkpt>
      <trkpt lat="41.59485" lon="9.25207">
        <ele>31.86</ele>
        <time>2022-05-02T12:37:47Z</time>
      </trkpt>
      <trkpt lat="41.59487" lon="9.25232">
        <ele>32.82</ele>
        <time>2022-05-02T12:38:00Z</time>
      </trkpt>
      <trkpt lat="41.59488" lon="9.25235">
        <ele>32.34</ele>
        <time>2022-05-02T12:38:03Z</time>
      </trkpt>
      <trkpt lat="41.59489" lon="9.25237">
        <ele>32.34</ele>
        <time>2022-05-02T12:38:04Z</time>
      </trkpt>
      <trkpt lat="41.59489" lon="9.25239">
        <ele>32.34</ele>
        <time>2022-05-02T12:38:05Z</time>
      </trkpt>
      <trkpt lat="41.5949" lon="9.25265">
        <ele>31.86</ele>
        <time>2022-05-02T12:38:20Z</time>
      </trkpt>
      <trkpt lat="41.5949" lon="9.25283">
        <ele>31.86</ele>
        <time>2022-05-02T12:38:31Z</time>
      </trkpt>
      <trkpt lat="41.59491" lon="9.25287">
        <ele>31.38</ele>
        <time>2022-05-02T12:38:35Z</time>
      </trkpt>
      <trkpt lat="41.59491" lon="9.25289">
        <ele>31.38</ele>
        <time>2022-05-02T12:38:36Z</time>
      </trkpt>
      <trkpt lat="41.5949" lon="9.25316">
        <ele>31.38</ele>
        <time>2022-05-02T12:38:49Z</time>
      </trkpt>
      <trkpt lat="41.59487" lon="9.25345">
        <ele>31.38</ele>
        <time>2022-05-02T12:39:06Z</time>
      </trkpt>
      <trkpt lat="41.59487" lon="9.25346">
        <ele>30.42</ele>
        <time>2022-05-02T12:39:07Z</time>
      </trkpt>
      <trkpt lat="41.59487" lon="9.25359">
        <ele>30.9</ele>
        <time>2022-05-02T12:39:16Z</time>
      </trkpt>
      <trkpt lat="41.59487" lon="9.25361">
        <ele>30.42</ele>
        <time>2022-05-02T12:39:17Z</time>
      </trkpt>
      <trkpt lat="41.59484" lon="9.25388">
        <ele>30.42</ele>
        <time>2022-05-02T12:39:31Z</time>
      </trkpt>
      <trkpt lat="41.59482" lon="9.25392">
        <ele>30.42</ele>
        <time>2022-05-02T12:39:34Z</time>
      </trkpt>
      <trkpt lat="41.59482" lon="9.25394">
        <ele>30.42</ele>
        <time>2022-05-02T12:39:35Z</time>
      </trkpt>
      <trkpt lat="41.59482" lon="9.25396">
        <ele>30.42</ele>
        <time>2022-05-02T12:39:36Z</time>
      </trkpt>
      <trkpt lat="41.59476" lon="9.2542">
        <ele>30.42</ele>
        <time>2022-05-02T12:39:49Z</time>
      </trkpt>
      <trkpt lat="41.59468" lon="9.25444">
        <ele>30.42</ele>
        <time>2022-05-02T12:40:06Z</time>
      </trkpt>
      <trkpt lat="41.59459" lon="9.25475">
        <ele>29.46</ele>
        <time>2022-05-02T12:40:25Z</time>
      </trkpt>
      <trkpt lat="41.59456" lon="9.25486">
        <ele>30.42</ele>
        <time>2022-05-02T12:40:32Z</time>
      </trkpt>
      <trkpt lat="41.59456" lon="9.25488">
        <ele>30.42</ele>
        <time>2022-05-02T12:40:33Z</time>
      </trkpt>
      <trkpt lat="41.59455" lon="9.2549">
        <ele>29.94</ele>
        <time>2022-05-02T12:40:34Z</time>
      </trkpt>
      <trkpt lat="41.59454" lon="9.25497">
        <ele>30.42</ele>
        <time>2022-05-02T12:40:38Z</time>
      </trkpt>
      <trkpt lat="41.59454" lon="9.25498">
        <ele>29.94</ele>
        <time>2022-05-02T12:40:39Z</time>
      </trkpt>
      <trkpt lat="41.59453" lon="9.25525">
        <ele>29.46</ele>
        <time>2022-05-02T12:40:55Z</time>
      </trkpt>
      <trkpt lat="41.59455" lon="9.25554">
        <ele>28.98</ele>
        <time>2022-05-02T12:41:11Z</time>
      </trkpt>
      <trkpt lat="41.59455" lon="9.25556">
        <ele>28.98</ele>
        <time>2022-05-02T12:41:12Z</time>
      </trkpt>
      <trkpt lat="41.59455" lon="9.25558">
        <ele>28.98</ele>
        <time>2022-05-02T12:41:13Z</time>
      </trkpt>
      <trkpt lat="41.59455" lon="9.2556">
        <ele>28.5</ele>
        <time>2022-05-02T12:41:14Z</time>
      </trkpt>
      <trkpt lat="41.59455" lon="9.25562">
        <ele>29.46</ele>
        <time>2022-05-02T12:41:15Z</time>
      </trkpt>
      <trkpt lat="41.59456" lon="9.25569">
        <ele>28.98</ele>
        <time>2022-05-02T12:41:19Z</time>
      </trkpt>
      <trkpt lat="41.59459" lon="9.25599">
        <ele>28.98</ele>
        <time>2022-05-02T12:41:37Z</time>
      </trkpt>
      <trkpt lat="41.59462" lon="9.25626">
        <ele>28.5</ele>
        <time>2022-05-02T12:41:52Z</time>
      </trkpt>
      <trkpt lat="41.59464" lon="9.25655">
        <ele>28.5</ele>
        <time>2022-05-02T12:42:09Z</time>
      </trkpt>
      <trkpt lat="41.59465" lon="9.25685">
        <ele>28.02</ele>
        <time>2022-05-02T12:42:24Z</time>
      </trkpt>
      <trkpt lat="41.59465" lon="9.25694">
        <ele>28.02</ele>
        <time>2022-05-02T12:42:31Z</time>
      </trkpt>
      <trkpt lat="41.59465" lon="9.25703">
        <ele>28.02</ele>
        <time>2022-05-02T12:42:38Z</time>
      </trkpt>
      <trkpt lat="41.59465" lon="9.25705">
        <ele>27.53</ele>
        <time>2022-05-02T12:42:39Z</time>
      </trkpt>
      <trkpt lat="41.59467" lon="9.25728">
        <ele>27.05</ele>
        <time>2022-05-02T12:42:53Z</time>
      </trkpt>
      <trkpt lat="41.59467" lon="9.2573">
        <ele>27.53</ele>
        <time>2022-05-02T12:42:54Z</time>
      </trkpt>
      <trkpt lat="41.59468" lon="9.25741">
        <ele>27.53</ele>
        <time>2022-05-02T12:43:00Z</time>
      </trkpt>
      <trkpt lat="41.59469" lon="9.25748">
        <ele>27.53</ele>
        <time>2022-05-02T12:43:10Z</time>
      </trkpt>
      <trkpt lat="41.59466" lon="9.25751">
        <ele>27.05</ele>
        <time>2022-05-02T12:43:13Z</time>
      </trkpt>
      <trkpt lat="41.59465" lon="9.25752">
        <ele>28.02</ele>
        <time>2022-05-02T12:43:14Z</time>
      </trkpt>
      <trkpt lat="41.59464" lon="9.25756">
        <ele>27.53</ele>
        <time>2022-05-02T12:43:18Z</time>
      </trkpt>
      <trkpt lat="41.59463" lon="9.25761">
        <ele>27.53</ele>
        <time>2022-05-02T12:43:21Z</time>
      </trkpt>
      <trkpt lat="41.59463" lon="9.25762">
        <ele>27.53</ele>
        <time>2022-05-02T12:43:35Z</time>
      </trkpt>
      <trkpt lat="41.59461" lon="9.25766">
        <ele>27.53</ele>
        <time>2022-05-02T12:43:46Z</time>
      </trkpt>
      <trkpt lat="41.5946" lon="9.25774">
        <ele>27.53</ele>
        <time>2022-05-02T12:44:03Z</time>
      </trkpt>
      <trkpt lat="41.59461" lon="9.25806">
        <ele>28.02</ele>
        <time>2022-05-02T12:44:21Z</time>
      </trkpt>
      <trkpt lat="41.59462" lon="9.25835">
        <ele>27.53</ele>
        <time>2022-05-02T12:44:39Z</time>
      </trkpt>
      <trkpt lat="41.59464" lon="9.25861">
        <ele>28.02</ele>
        <time>2022-05-02T12:44:55Z</time>
      </trkpt>
      <trkpt lat="41.59466" lon="9.25882">
        <ele>28.02</ele>
        <time>2022-05-02T12:45:09Z</time>
      </trkpt>
      <trkpt lat="41.59463" lon="9.25889">
        <ele>27.53</ele>
        <time>2022-05-02T12:45:18Z</time>
      </trkpt>
      <trkpt lat="41.59463" lon="9.25895">
        <ele>28.02</ele>
        <time>2022-05-02T12:45:23Z</time>
      </trkpt>
      <trkpt lat="41.59463" lon="9.25896">
        <ele>28.02</ele>
        <time>2022-05-02T12:45:24Z</time>
      </trkpt>
      <trkpt lat="41.59466" lon="9.25918">
        <ele>27.53</ele>
        <time>2022-05-02T12:45:37Z</time>
      </trkpt>
      <trkpt lat="41.59466" lon="9.2592">
        <ele>28.02</ele>
        <time>2022-05-02T12:45:38Z</time>
      </trkpt>
      <trkpt lat="41.59466" lon="9.25921">
        <ele>27.53</ele>
        <time>2022-05-02T12:45:39Z</time>
      </trkpt>
      <trkpt lat="41.59466" lon="9.25923">
        <ele>28.5</ele>
        <time>2022-05-02T12:45:40Z</time>
      </trkpt>
      <trkpt lat="41.59465" lon="9.25925">
        <ele>27.53</ele>
        <time>2022-05-02T12:45:41Z</time>
      </trkpt>
      <trkpt lat="41.59465" lon="9.25926">
        <ele>28.02</ele>
        <time>2022-05-02T12:45:42Z</time>
      </trkpt>
      <trkpt lat="41.59463" lon="9.25937">
        <ele>24.65</ele>
        <time>2022-05-02T12:45:48Z</time>
      </trkpt>
      <trkpt lat="41.59463" lon="9.25938">
        <ele>28.02</ele>
        <time>2022-05-02T12:45:49Z</time>
      </trkpt>
      <trkpt lat="41.59461" lon="9.25966">
        <ele>26.57</ele>
        <time>2022-05-02T12:46:06Z</time>
      </trkpt>
      <trkpt lat="41.59457" lon="9.25996">
        <ele>27.05</ele>
        <time>2022-05-02T12:46:24Z</time>
      </trkpt>
      <trkpt lat="41.59455" lon="9.26021">
        <ele>27.53</ele>
        <time>2022-05-02T12:46:41Z</time>
      </trkpt>
      <trkpt lat="41.59456" lon="9.26019">
        <ele>27.05</ele>
        <time>2022-05-02T12:47:00Z</time>
      </trkpt>
      <trkpt lat="41.59458" lon="9.26021">
        <ele>27.05</ele>
        <time>2022-05-02T12:47:21Z</time>
      </trkpt>
      <trkpt lat="41.59458" lon="9.26025">
        <ele>26.09</ele>
        <time>2022-05-02T12:47:39Z</time>
      </trkpt>
      <trkpt lat="41.59458" lon="9.26023">
        <ele>26.57</ele>
        <time>2022-05-02T12:47:59Z</time>
      </trkpt>
      <trkpt lat="41.59456" lon="9.26022">
        <ele>27.53</ele>
        <time>2022-05-02T12:48:34Z</time>
      </trkpt>
      <trkpt lat="41.59457" lon="9.26018">
        <ele>26.57</ele>
        <time>2022-05-02T12:49:09Z</time>
      </trkpt>
      <trkpt lat="41.59459" lon="9.2603">
        <ele>26.57</ele>
        <time>2022-05-02T12:49:28Z</time>
      </trkpt>
      <trkpt lat="41.59456" lon="9.26052">
        <ele>24.17</ele>
        <time>2022-05-02T12:49:45Z</time>
      </trkpt>
      <trkpt lat="41.59455" lon="9.26054">
        <ele>24.17</ele>
        <time>2022-05-02T12:49:46Z</time>
      </trkpt>
      <trkpt lat="41.59455" lon="9.26056">
        <ele>24.17</ele>
        <time>2022-05-02T12:49:47Z</time>
      </trkpt>
      <trkpt lat="41.59455" lon="9.26059">
        <ele>24.65</ele>
        <time>2022-05-02T12:49:48Z</time>
      </trkpt>
      <trkpt lat="41.59454" lon="9.26061">
        <ele>24.17</ele>
        <time>2022-05-02T12:49:49Z</time>
      </trkpt>
      <trkpt lat="41.59454" lon="9.26063">
        <ele>24.65</ele>
        <time>2022-05-02T12:49:50Z</time>
      </trkpt>
      <trkpt lat="41.59454" lon="9.26065">
        <ele>24.17</ele>
        <time>2022-05-02T12:49:51Z</time>
      </trkpt>
      <trkpt lat="41.59449" lon="9.2608">
        <ele>24.17</ele>
        <time>2022-05-02T12:50:01Z</time>
      </trkpt>
      <trkpt lat="41.59441" lon="9.26105">
        <ele>24.17</ele>
        <time>2022-05-02T12:50:16Z</time>
      </trkpt>
      <trkpt lat="41.59438" lon="9.26125">
        <ele>23.21</ele>
        <time>2022-05-02T12:50:30Z</time>
      </trkpt>
      <trkpt lat="41.5943" lon="9.26144">
        <ele>23.69</ele>
        <time>2022-05-02T12:50:43Z</time>
      </trkpt>
      <trkpt lat="41.59418" lon="9.26164">
        <ele>24.17</ele>
        <time>2022-05-02T12:50:58Z</time>
      </trkpt>
      <trkpt lat="41.59407" lon="9.26179">
        <ele>24.17</ele>
        <time>2022-05-02T12:51:11Z</time>
      </trkpt>
      <trkpt lat="41.59394" lon="9.26196">
        <ele>25.13</ele>
        <time>2022-05-02T12:51:27Z</time>
      </trkpt>
      <trkpt lat="41.59381" lon="9.26216">
        <ele>24.65</ele>
        <time>2022-05-02T12:51:39Z</time>
      </trkpt>
      <trkpt lat="41.59376" lon="9.26223">
        <ele>26.09</ele>
        <time>2022-05-02T12:51:46Z</time>
      </trkpt>
      <trkpt lat="41.5937" lon="9.26223">
        <ele>26.09</ele>
        <time>2022-05-02T12:51:59Z</time>
      </trkpt>
      <trkpt lat="41.59372" lon="9.26228">
        <ele>26.09</ele>
        <time>2022-05-02T12:52:14Z</time>
      </trkpt>
      <trkpt lat="41.59367" lon="9.26239">
        <ele>26.09</ele>
        <time>2022-05-02T12:52:28Z</time>
      </trkpt>
      <trkpt lat="41.59359" lon="9.2626">
        <ele>26.57</ele>
        <time>2022-05-02T12:52:43Z</time>
      </trkpt>
      <trkpt lat="41.59356" lon="9.26264">
        <ele>27.53</ele>
        <time>2022-05-02T12:52:50Z</time>
      </trkpt>
      <trkpt lat="41.59355" lon="9.26266">
        <ele>27.53</ele>
        <time>2022-05-02T12:52:52Z</time>
      </trkpt>
      <trkpt lat="41.59347" lon="9.26287">
        <ele>29.46</ele>
        <time>2022-05-02T12:53:09Z</time>
      </trkpt>
      <trkpt lat="41.59342" lon="9.26295">
        <ele>32.82</ele>
        <time>2022-05-02T12:53:17Z</time>
      </trkpt>
      <trkpt lat="41.59337" lon="9.26302">
        <ele>30.9</ele>
        <time>2022-05-02T12:53:32Z</time>
      </trkpt>
      <trkpt lat="41.59335" lon="9.26306">
        <ele>31.38</ele>
        <time>2022-05-02T12:53:42Z</time>
      </trkpt>
      <trkpt lat="41.59332" lon="9.26309">
        <ele>31.38</ele>
        <time>2022-05-02T12:53:45Z</time>
      </trkpt>
      <trkpt lat="41.59329" lon="9.26312">
        <ele>31.86</ele>
        <time>2022-05-02T12:53:56Z</time>
      </trkpt>
      <trkpt lat="41.59328" lon="9.26314">
        <ele>32.34</ele>
        <time>2022-05-02T12:54:05Z</time>
      </trkpt>
      <trkpt lat="41.59319" lon="9.26324">
        <ele>33.3</ele>
        <time>2022-05-02T12:54:15Z</time>
      </trkpt>
      <trkpt lat="41.59316" lon="9.26328">
        <ele>33.3</ele>
        <time>2022-05-02T12:54:18Z</time>
      </trkpt>
      <trkpt lat="41.59311" lon="9.26334">
        <ele>33.3</ele>
        <time>2022-05-02T12:54:23Z</time>
      </trkpt>
      <trkpt lat="41.59311" lon="9.26335">
        <ele>33.78</ele>
        <time>2022-05-02T12:54:24Z</time>
      </trkpt>
      <trkpt lat="41.59309" lon="9.26336">
        <ele>33.78</ele>
        <time>2022-05-02T12:54:25Z</time>
      </trkpt>
      <trkpt lat="41.59297" lon="9.26351">
        <ele>34.74</ele>
        <time>2022-05-02T12:54:40Z</time>
      </trkpt>
      <trkpt lat="41.59285" lon="9.26374">
        <ele>37.63</ele>
        <time>2022-05-02T12:55:00Z</time>
      </trkpt>
      <trkpt lat="41.59274" lon="9.26396">
        <ele>39.55</ele>
        <time>2022-05-02T12:55:20Z</time>
      </trkpt>
      <trkpt lat="41.59271" lon="9.264">
        <ele>39.55</ele>
        <time>2022-05-02T12:55:34Z</time>
      </trkpt>
      <trkpt lat="41.59256" lon="9.26408">
        <ele>40.51</ele>
        <time>2022-05-02T12:55:49Z</time>
      </trkpt>
      <trkpt lat="41.59242" lon="9.26407">
        <ele>40.51</ele>
        <time>2022-05-02T12:56:02Z</time>
      </trkpt>
      <trkpt lat="41.59231" lon="9.26417">
        <ele>40.51</ele>
        <time>2022-05-02T12:56:14Z</time>
      </trkpt>
      <trkpt lat="41.59225" lon="9.26437">
        <ele>40.51</ele>
        <time>2022-05-02T12:56:27Z</time>
      </trkpt>
      <trkpt lat="41.59228" lon="9.26457">
        <ele>40.99</ele>
        <time>2022-05-02T12:56:40Z</time>
      </trkpt>
      <trkpt lat="41.59226" lon="9.26464">
        <ele>41.47</ele>
        <time>2022-05-02T12:56:46Z</time>
      </trkpt>
      <trkpt lat="41.59218" lon="9.26469">
        <ele>42.44</ele>
        <time>2022-05-02T12:56:57Z</time>
      </trkpt>
      <trkpt lat="41.59217" lon="9.26469">
        <ele>42.92</ele>
        <time>2022-05-02T12:57:16Z</time>
      </trkpt>
      <trkpt lat="41.59208" lon="9.26477">
        <ele>42.44</ele>
        <time>2022-05-02T12:57:34Z</time>
      </trkpt>
      <trkpt lat="41.59198" lon="9.26481">
        <ele>43.4</ele>
        <time>2022-05-02T12:57:44Z</time>
      </trkpt>
      <trkpt lat="41.59181" lon="9.26481">
        <ele>44.84</ele>
        <time>2022-05-02T12:58:00Z</time>
      </trkpt>
      <trkpt lat="41.5917" lon="9.26481">
        <ele>46.28</ele>
        <time>2022-05-02T12:58:13Z</time>
      </trkpt>
      <trkpt lat="41.59156" lon="9.26494">
        <ele>47.72</ele>
        <time>2022-05-02T12:58:29Z</time>
      </trkpt>
      <trkpt lat="41.59141" lon="9.26503">
        <ele>48.68</ele>
        <time>2022-05-02T12:58:45Z</time>
      </trkpt>
      <trkpt lat="41.5913" lon="9.26514">
        <ele>50.13</ele>
        <time>2022-05-02T12:58:59Z</time>
      </trkpt>
      <trkpt lat="41.59129" lon="9.26515">
        <ele>50.13</ele>
        <time>2022-05-02T12:59:00Z</time>
      </trkpt>
      <trkpt lat="41.59128" lon="9.26516">
        <ele>50.13</ele>
        <time>2022-05-02T12:59:01Z</time>
      </trkpt>
      <trkpt lat="41.5912" lon="9.26525">
        <ele>50.61</ele>
        <time>2022-05-02T12:59:11Z</time>
      </trkpt>
      <trkpt lat="41.59108" lon="9.26539">
        <ele>51.09</ele>
        <time>2022-05-02T12:59:25Z</time>
      </trkpt>
      <trkpt lat="41.59095" lon="9.26552">
        <ele>51.09</ele>
        <time>2022-05-02T12:59:40Z</time>
      </trkpt>
      <trkpt lat="41.59095" lon="9.26554">
        <ele>52.05</ele>
        <time>2022-05-02T12:59:41Z</time>
      </trkpt>
      <trkpt lat="41.59093" lon="9.26557">
        <ele>52.53</ele>
        <time>2022-05-02T12:59:43Z</time>
      </trkpt>
      <trkpt lat="41.59089" lon="9.26567">
        <ele>52.05</ele>
        <time>2022-05-02T12:59:50Z</time>
      </trkpt>
      <trkpt lat="41.59088" lon="9.26568">
        <ele>51.57</ele>
        <time>2022-05-02T12:59:51Z</time>
      </trkpt>
      <trkpt lat="41.59087" lon="9.2657">
        <ele>51.09</ele>
        <time>2022-05-02T12:59:52Z</time>
      </trkpt>
      <trkpt lat="41.59077" lon="9.26587">
        <ele>52.05</ele>
        <time>2022-05-02T13:00:06Z</time>
      </trkpt>
      <trkpt lat="41.59077" lon="9.26588">
        <ele>52.05</ele>
        <time>2022-05-02T13:00:07Z</time>
      </trkpt>
      <trkpt lat="41.59074" lon="9.26591">
        <ele>52.53</ele>
        <time>2022-05-02T13:00:21Z</time>
      </trkpt>
      <trkpt lat="41.59068" lon="9.26609">
        <ele>52.53</ele>
        <time>2022-05-02T13:00:34Z</time>
      </trkpt>
      <trkpt lat="41.59061" lon="9.26624">
        <ele>52.05</ele>
        <time>2022-05-02T13:00:47Z</time>
      </trkpt>
      <trkpt lat="41.59054" lon="9.26644">
        <ele>53.01</ele>
        <time>2022-05-02T13:01:03Z</time>
      </trkpt>
      <trkpt lat="41.59051" lon="9.26656">
        <ele>53.49</ele>
        <time>2022-05-02T13:01:14Z</time>
      </trkpt>
      <trkpt lat="41.59052" lon="9.26657">
        <ele>53.49</ele>
        <time>2022-05-02T13:01:15Z</time>
      </trkpt>
      <trkpt lat="41.59053" lon="9.26662">
        <ele>53.01</ele>
        <time>2022-05-02T13:01:19Z</time>
      </trkpt>
      <trkpt lat="41.59053" lon="9.26664">
        <ele>53.01</ele>
        <time>2022-05-02T13:01:20Z</time>
      </trkpt>
      <trkpt lat="41.59053" lon="9.26665">
        <ele>52.53</ele>
        <time>2022-05-02T13:01:21Z</time>
      </trkpt>
      <trkpt lat="41.59054" lon="9.26667">
        <ele>53.01</ele>
        <time>2022-05-02T13:01:22Z</time>
      </trkpt>
      <trkpt lat="41.59055" lon="9.26668">
        <ele>52.53</ele>
        <time>2022-05-02T13:01:23Z</time>
      </trkpt>
      <trkpt lat="41.59056" lon="9.26669">
        <ele>53.01</ele>
        <time>2022-05-02T13:01:24Z</time>
      </trkpt>
      <trkpt lat="41.59065" lon="9.26684">
        <ele>53.49</ele>
        <time>2022-05-02T13:01:36Z</time>
      </trkpt>
      <trkpt lat="41.59072" lon="9.26701">
        <ele>54.45</ele>
        <time>2022-05-02T13:01:48Z</time>
      </trkpt>
      <trkpt lat="41.59075" lon="9.26709">
        <ele>54.93</ele>
        <time>2022-05-02T13:01:55Z</time>
      </trkpt>
      <trkpt lat="41.59074" lon="9.26714">
        <ele>54.93</ele>
        <time>2022-05-02T13:01:58Z</time>
      </trkpt>
      <trkpt lat="41.59075" lon="9.2672">
        <ele>54.93</ele>
        <time>2022-05-02T13:02:02Z</time>
      </trkpt>
      <trkpt lat="41.59074" lon="9.26721">
        <ele>55.41</ele>
        <time>2022-05-02T13:02:03Z</time>
      </trkpt>
      <trkpt lat="41.5907" lon="9.26743">
        <ele>55.89</ele>
        <time>2022-05-02T13:02:19Z</time>
      </trkpt>
      <trkpt lat="41.59065" lon="9.26758">
        <ele>55.89</ele>
        <time>2022-05-02T13:02:30Z</time>
      </trkpt>
      <trkpt lat="41.59063" lon="9.26759">
        <ele>55.41</ele>
        <time>2022-05-02T13:02:31Z</time>
      </trkpt>
      <trkpt lat="41.59062" lon="9.2676">
        <ele>55.89</ele>
        <time>2022-05-02T13:02:32Z</time>
      </trkpt>
      <trkpt lat="41.59062" lon="9.26762">
        <ele>55.89</ele>
        <time>2022-05-02T13:02:33Z</time>
      </trkpt>
      <trkpt lat="41.59061" lon="9.26764">
        <ele>55.89</ele>
        <time>2022-05-02T13:02:34Z</time>
      </trkpt>
      <trkpt lat="41.59061" lon="9.26766">
        <ele>55.89</ele>
        <time>2022-05-02T13:02:35Z</time>
      </trkpt>
      <trkpt lat="41.59061" lon="9.26767">
        <ele>55.89</ele>
        <time>2022-05-02T13:02:36Z</time>
      </trkpt>
      <trkpt lat="41.5906" lon="9.26782">
        <ele>56.37</ele>
        <time>2022-05-02T13:02:44Z</time>
      </trkpt>
      <trkpt lat="41.59055" lon="9.268">
        <ele>56.86</ele>
        <time>2022-05-02T13:02:59Z</time>
      </trkpt>
      <trkpt lat="41.5906" lon="9.26799">
        <ele>56.37</ele>
        <time>2022-05-02T13:03:15Z</time>
      </trkpt>
      <trkpt lat="41.59062" lon="9.26797">
        <ele>56.86</ele>
        <time>2022-05-02T13:03:36Z</time>
      </trkpt>
      <trkpt lat="41.59057" lon="9.26798">
        <ele>57.34</ele>
        <time>2022-05-02T13:04:03Z</time>
      </trkpt>
      <trkpt lat="41.59055" lon="9.26807">
        <ele>56.37</ele>
        <time>2022-05-02T13:04:33Z</time>
      </trkpt>
      <trkpt lat="41.59056" lon="9.26805">
        <ele>56.86</ele>
        <time>2022-05-02T13:04:57Z</time>
      </trkpt>
      <trkpt lat="41.59054" lon="9.26806">
        <ele>56.86</ele>
        <time>2022-05-02T13:05:16Z</time>
      </trkpt>
      <trkpt lat="41.59051" lon="9.26812">
        <ele>56.86</ele>
        <time>2022-05-02T13:05:20Z</time>
      </trkpt>
      <trkpt lat="41.5905" lon="9.26813">
        <ele>56.86</ele>
        <time>2022-05-02T13:05:21Z</time>
      </trkpt>
      <trkpt lat="41.59044" lon="9.26825">
        <ele>56.86</ele>
        <time>2022-05-02T13:05:30Z</time>
      </trkpt>
      <trkpt lat="41.59044" lon="9.26826">
        <ele>56.37</ele>
        <time>2022-05-02T13:05:31Z</time>
      </trkpt>
      <trkpt lat="41.59038" lon="9.26837">
        <ele>57.34</ele>
        <time>2022-05-02T13:05:42Z</time>
      </trkpt>
      <trkpt lat="41.59032" lon="9.2685">
        <ele>57.82</ele>
        <time>2022-05-02T13:05:54Z</time>
      </trkpt>
      <trkpt lat="41.59031" lon="9.26862">
        <ele>57.82</ele>
        <time>2022-05-02T13:06:01Z</time>
      </trkpt>
      <trkpt lat="41.59034" lon="9.26881">
        <ele>58.3</ele>
        <time>2022-05-02T13:06:14Z</time>
      </trkpt>
      <trkpt lat="41.59041" lon="9.26897">
        <ele>58.3</ele>
        <time>2022-05-02T13:06:26Z</time>
      </trkpt>
      <trkpt lat="41.59042" lon="9.269">
        <ele>58.3</ele>
        <time>2022-05-02T13:06:28Z</time>
      </trkpt>
      <trkpt lat="41.59043" lon="9.26901">
        <ele>58.3</ele>
        <time>2022-05-02T13:06:29Z</time>
      </trkpt>
      <trkpt lat="41.59044" lon="9.26903">
        <ele>58.3</ele>
        <time>2022-05-02T13:06:30Z</time>
      </trkpt>
      <trkpt lat="41.59052" lon="9.26923">
        <ele>58.78</ele>
        <time>2022-05-02T13:06:46Z</time>
      </trkpt>
      <trkpt lat="41.59053" lon="9.26925">
        <ele>58.3</ele>
        <time>2022-05-02T13:06:49Z</time>
      </trkpt>
      <trkpt lat="41.59055" lon="9.26922">
        <ele>58.78</ele>
        <time>2022-05-02T13:06:58Z</time>
      </trkpt>
      <trkpt lat="41.59058" lon="9.26927">
        <ele>58.3</ele>
        <time>2022-05-02T13:07:12Z</time>
      </trkpt>
      <trkpt lat="41.59073" lon="9.26929">
        <ele>58.3</ele>
        <time>2022-05-02T13:07:25Z</time>
      </trkpt>
      <trkpt lat="41.59088" lon="9.26938">
        <ele>60.22</ele>
        <time>2022-05-02T13:07:39Z</time>
      </trkpt>
      <trkpt lat="41.59096" lon="9.26958">
        <ele>60.7</ele>
        <time>2022-05-02T13:07:53Z</time>
      </trkpt>
      <trkpt lat="41.59097" lon="9.26962">
        <ele>60.7</ele>
        <time>2022-05-02T13:08:11Z</time>
      </trkpt>
      <trkpt lat="41.59101" lon="9.2698">
        <ele>61.66</ele>
        <time>2022-05-02T13:08:25Z</time>
      </trkpt>
      <trkpt lat="41.591" lon="9.26997">
        <ele>64.55</ele>
        <time>2022-05-02T13:08:41Z</time>
      </trkpt>
      <trkpt lat="41.59088" lon="9.27005">
        <ele>65.99</ele>
        <time>2022-05-02T13:08:55Z</time>
      </trkpt>
      <trkpt lat="41.59078" lon="9.27011">
        <ele>67.43</ele>
        <time>2022-05-02T13:09:07Z</time>
      </trkpt>
      <trkpt lat="41.59071" lon="9.27012">
        <ele>68.87</ele>
        <time>2022-05-02T13:09:21Z</time>
      </trkpt>
      <trkpt lat="41.59074" lon="9.2701">
        <ele>68.87</ele>
        <time>2022-05-02T13:09:46Z</time>
      </trkpt>
      <trkpt lat="41.59067" lon="9.27016">
        <ele>67.91</ele>
        <time>2022-05-02T13:10:16Z</time>
      </trkpt>
      <trkpt lat="41.59051" lon="9.27029">
        <ele>68.39</ele>
        <time>2022-05-02T13:10:30Z</time>
      </trkpt>
      <trkpt lat="41.59039" lon="9.2704">
        <ele>69.83</ele>
        <time>2022-05-02T13:10:45Z</time>
      </trkpt>
      <trkpt lat="41.59028" lon="9.27051">
        <ele>72.72</ele>
        <time>2022-05-02T13:11:00Z</time>
      </trkpt>
      <trkpt lat="41.59019" lon="9.2706">
        <ele>74.16</ele>
        <time>2022-05-02T13:11:12Z</time>
      </trkpt>
      <trkpt lat="41.59018" lon="9.27061">
        <ele>75.12</ele>
        <time>2022-05-02T13:11:13Z</time>
      </trkpt>
      <trkpt lat="41.59017" lon="9.27062">
        <ele>74.64</ele>
        <time>2022-05-02T13:11:14Z</time>
      </trkpt>
      <trkpt lat="41.5901" lon="9.27071">
        <ele>77.52</ele>
        <time>2022-05-02T13:11:26Z</time>
      </trkpt>
      <trkpt lat="41.59005" lon="9.27075">
        <ele>78.48</ele>
        <time>2022-05-02T13:11:39Z</time>
      </trkpt>
      <trkpt lat="41.59004" lon="9.27075">
        <ele>78.48</ele>
        <time>2022-05-02T13:11:49Z</time>
      </trkpt>
      <trkpt lat="41.59" lon="9.27079">
        <ele>78.97</ele>
        <time>2022-05-02T13:12:06Z</time>
      </trkpt>
      <trkpt lat="41.58993" lon="9.2709">
        <ele>81.37</ele>
        <time>2022-05-02T13:12:19Z</time>
      </trkpt>
      <trkpt lat="41.58983" lon="9.27105">
        <ele>83.29</ele>
        <time>2022-05-02T13:12:33Z</time>
      </trkpt>
      <trkpt lat="41.58973" lon="9.27123">
        <ele>85.21</ele>
        <time>2022-05-02T13:12:48Z</time>
      </trkpt>
      <trkpt lat="41.58967" lon="9.27128">
        <ele>86.66</ele>
        <time>2022-05-02T13:13:03Z</time>
      </trkpt>
      <trkpt lat="41.58965" lon="9.27131">
        <ele>86.66</ele>
        <time>2022-05-02T13:13:18Z</time>
      </trkpt>
      <trkpt lat="41.58963" lon="9.27133">
        <ele>87.14</ele>
        <time>2022-05-02T13:13:30Z</time>
      </trkpt>
      <trkpt lat="41.58962" lon="9.27134">
        <ele>87.14</ele>
        <time>2022-05-02T13:13:31Z</time>
      </trkpt>
      <trkpt lat="41.58961" lon="9.27134">
        <ele>87.62</ele>
        <time>2022-05-02T13:13:32Z</time>
      </trkpt>
      <trkpt lat="41.5896" lon="9.27135">
        <ele>87.14</ele>
        <time>2022-05-02T13:13:33Z</time>
      </trkpt>
      <trkpt lat="41.58958" lon="9.27135">
        <ele>87.14</ele>
        <time>2022-05-02T13:13:34Z</time>
      </trkpt>
      <trkpt lat="41.58951" lon="9.27142">
        <ele>87.62</ele>
        <time>2022-05-02T13:13:47Z</time>
      </trkpt>
      <trkpt lat="41.58951" lon="9.27141">
        <ele>87.62</ele>
        <time>2022-05-02T13:14:01Z</time>
      </trkpt>
      <trkpt lat="41.58947" lon="9.27145">
        <ele>87.62</ele>
        <time>2022-05-02T13:14:14Z</time>
      </trkpt>
      <trkpt lat="41.58947" lon="9.27144">
        <ele>87.62</ele>
        <time>2022-05-02T13:14:30Z</time>
      </trkpt>
      <trkpt lat="41.58947" lon="9.27147">
        <ele>88.58</ele>
        <time>2022-05-02T13:15:08Z</time>
      </trkpt>
      <trkpt lat="41.58946" lon="9.27149">
        <ele>88.1</ele>
        <time>2022-05-02T13:15:25Z</time>
      </trkpt>
      <trkpt lat="41.5895" lon="9.27144">
        <ele>87.14</ele>
        <time>2022-05-02T13:15:53Z</time>
      </trkpt>
      <trkpt lat="41.58945" lon="9.2715">
        <ele>88.1</ele>
        <time>2022-05-02T13:16:00Z</time>
      </trkpt>
      <trkpt lat="41.58944" lon="9.27151">
        <ele>88.1</ele>
        <time>2022-05-02T13:16:01Z</time>
      </trkpt>
      <trkpt lat="41.58944" lon="9.27153">
        <ele>87.62</ele>
        <time>2022-05-02T13:16:02Z</time>
      </trkpt>
      <trkpt lat="41.58943" lon="9.27155">
        <ele>87.62</ele>
        <time>2022-05-02T13:16:03Z</time>
      </trkpt>
      <trkpt lat="41.58943" lon="9.27156">
        <ele>88.1</ele>
        <time>2022-05-02T13:16:04Z</time>
      </trkpt>
      <trkpt lat="41.58943" lon="9.2718">
        <ele>88.58</ele>
        <time>2022-05-02T13:16:20Z</time>
      </trkpt>
      <trkpt lat="41.58941" lon="9.272">
        <ele>87.14</ele>
        <time>2022-05-02T13:16:32Z</time>
      </trkpt>
      <trkpt lat="41.58942" lon="9.27218">
        <ele>86.66</ele>
        <time>2022-05-02T13:16:44Z</time>
      </trkpt>
      <trkpt lat="41.58952" lon="9.27233">
        <ele>87.14</ele>
        <time>2022-05-02T13:16:57Z</time>
      </trkpt>
      <trkpt lat="41.58963" lon="9.27248">
        <ele>86.18</ele>
        <time>2022-05-02T13:17:11Z</time>
      </trkpt>
      <trkpt lat="41.58971" lon="9.27274">
        <ele>85.21</ele>
        <time>2022-05-02T13:17:30Z</time>
      </trkpt>
      <trkpt lat="41.58975" lon="9.27299">
        <ele>83.77</ele>
        <time>2022-05-02T13:17:48Z</time>
      </trkpt>
      <trkpt lat="41.58978" lon="9.27319">
        <ele>82.81</ele>
        <time>2022-05-02T13:18:03Z</time>
      </trkpt>
      <trkpt lat="41.58978" lon="9.2733">
        <ele>82.33</ele>
        <time>2022-05-02T13:18:15Z</time>
      </trkpt>
      <trkpt lat="41.58982" lon="9.27352">
        <ele>81.85</ele>
        <time>2022-05-02T13:18:31Z</time>
      </trkpt>
      <trkpt lat="41.58984" lon="9.27376">
        <ele>81.37</ele>
        <time>2022-05-02T13:18:46Z</time>
      </trkpt>
      <trkpt lat="41.58987" lon="9.27391">
        <ele>81.85</ele>
        <time>2022-05-02T13:19:02Z</time>
      </trkpt>
      <trkpt lat="41.58992" lon="9.27409">
        <ele>80.89</ele>
        <time>2022-05-02T13:19:18Z</time>
      </trkpt>
      <trkpt lat="41.58992" lon="9.27411">
        <ele>80.89</ele>
        <time>2022-05-02T13:19:19Z</time>
      </trkpt>
      <trkpt lat="41.58997" lon="9.27433">
        <ele>79.45</ele>
        <time>2022-05-02T13:19:35Z</time>
      </trkpt>
      <trkpt lat="41.58998" lon="9.27441">
        <ele>78</ele>
        <time>2022-05-02T13:19:41Z</time>
      </trkpt>
      <trkpt lat="41.59003" lon="9.27466">
        <ele>79.45</ele>
        <time>2022-05-02T13:19:58Z</time>
      </trkpt>
      <trkpt lat="41.59009" lon="9.27489">
        <ele>79.45</ele>
        <time>2022-05-02T13:20:14Z</time>
      </trkpt>
      <trkpt lat="41.59013" lon="9.27488">
        <ele>78.48</ele>
        <time>2022-05-02T13:20:29Z</time>
      </trkpt>
      <trkpt lat="41.59008" lon="9.27493">
        <ele>78</ele>
        <time>2022-05-02T13:20:46Z</time>
      </trkpt>
      <trkpt lat="41.59006" lon="9.27499">
        <ele>78.48</ele>
        <time>2022-05-02T13:21:14Z</time>
      </trkpt>
      <trkpt lat="41.59016" lon="9.27509">
        <ele>76.56</ele>
        <time>2022-05-02T13:21:29Z</time>
      </trkpt>
      <trkpt lat="41.59022" lon="9.27521">
        <ele>75.12</ele>
        <time>2022-05-02T13:21:43Z</time>
      </trkpt>
      <trkpt lat="41.59029" lon="9.27536">
        <ele>73.2</ele>
        <time>2022-05-02T13:21:58Z</time>
      </trkpt>
      <trkpt lat="41.5903" lon="9.27541">
        <ele>72.72</ele>
        <time>2022-05-02T13:22:01Z</time>
      </trkpt>
      <trkpt lat="41.5904" lon="9.2756">
        <ele>71.27</ele>
        <time>2022-05-02T13:22:17Z</time>
      </trkpt>
      <trkpt lat="41.59046" lon="9.27577">
        <ele>69.83</ele>
        <time>2022-05-02T13:22:30Z</time>
      </trkpt>
      <trkpt lat="41.59046" lon="9.27575">
        <ele>70.79</ele>
        <time>2022-05-02T13:22:54Z</time>
      </trkpt>
      <trkpt lat="41.59045" lon="9.2759">
        <ele>70.79</ele>
        <time>2022-05-02T13:23:09Z</time>
      </trkpt>
      <trkpt lat="41.59044" lon="9.27591">
        <ele>69.83</ele>
        <time>2022-05-02T13:23:10Z</time>
      </trkpt>
      <trkpt lat="41.5904" lon="9.27613">
        <ele>69.35</ele>
        <time>2022-05-02T13:23:25Z</time>
      </trkpt>
      <trkpt lat="41.5904" lon="9.2762">
        <ele>69.83</ele>
        <time>2022-05-02T13:23:30Z</time>
      </trkpt>
      <trkpt lat="41.59039" lon="9.27623">
        <ele>68.87</ele>
        <time>2022-05-02T13:23:32Z</time>
      </trkpt>
      <trkpt lat="41.59038" lon="9.27629">
        <ele>69.35</ele>
        <time>2022-05-02T13:23:36Z</time>
      </trkpt>
      <trkpt lat="41.59029" lon="9.27647">
        <ele>67.91</ele>
        <time>2022-05-02T13:23:50Z</time>
      </trkpt>
      <trkpt lat="41.59026" lon="9.27664">
        <ele>66.95</ele>
        <time>2022-05-02T13:24:02Z</time>
      </trkpt>
      <trkpt lat="41.59027" lon="9.27668">
        <ele>66.47</ele>
        <time>2022-05-02T13:24:05Z</time>
      </trkpt>
      <trkpt lat="41.5903" lon="9.27678">
        <ele>65.99</ele>
        <time>2022-05-02T13:24:09Z</time>
      </trkpt>
      <trkpt lat="41.59034" lon="9.27693">
        <ele>64.07</ele>
        <time>2022-05-02T13:24:20Z</time>
      </trkpt>
      <trkpt lat="41.59038" lon="9.27711">
        <ele>62.14</ele>
        <time>2022-05-02T13:24:33Z</time>
      </trkpt>
      <trkpt lat="41.59038" lon="9.27734">
        <ele>61.18</ele>
        <time>2022-05-02T13:24:48Z</time>
      </trkpt>
      <trkpt lat="41.59036" lon="9.27752">
        <ele>60.7</ele>
        <time>2022-05-02T13:25:01Z</time>
      </trkpt>
      <trkpt lat="41.59036" lon="9.27752">
        <ele>60.22</ele>
        <time>2022-05-02T13:25:02Z</time>
      </trkpt>
      <trkpt lat="41.59033" lon="9.27759">
        <ele>59.74</ele>
        <time>2022-05-02T13:25:12Z</time>
      </trkpt>
      <trkpt lat="41.59035" lon="9.27758">
        <ele>60.22</ele>
        <time>2022-05-02T13:25:23Z</time>
      </trkpt>
      <trkpt lat="41.59034" lon="9.27764">
        <ele>59.74</ele>
        <time>2022-05-02T13:25:47Z</time>
      </trkpt>
      <trkpt lat="41.59036" lon="9.27765">
        <ele>59.74</ele>
        <time>2022-05-02T13:26:04Z</time>
      </trkpt>
      <trkpt lat="41.59038" lon="9.27767">
        <ele>59.74</ele>
        <time>2022-05-02T13:26:08Z</time>
      </trkpt>
      <trkpt lat="41.59044" lon="9.2777">
        <ele>59.74</ele>
        <time>2022-05-02T13:26:14Z</time>
      </trkpt>
      <trkpt lat="41.59047" lon="9.2777">
        <ele>59.74</ele>
        <time>2022-05-02T13:26:20Z</time>
      </trkpt>
      <trkpt lat="41.59056" lon="9.27778">
        <ele>59.74</ele>
        <time>2022-05-02T13:26:32Z</time>
      </trkpt>
      <trkpt lat="41.59067" lon="9.27786">
        <ele>59.74</ele>
        <time>2022-05-02T13:26:45Z</time>
      </trkpt>
      <trkpt lat="41.59082" lon="9.27792">
        <ele>58.78</ele>
        <time>2022-05-02T13:27:01Z</time>
      </trkpt>
      <trkpt lat="41.59096" lon="9.27786">
        <ele>58.3</ele>
        <time>2022-05-02T13:27:20Z</time>
      </trkpt>
      <trkpt lat="41.5911" lon="9.27795">
        <ele>57.82</ele>
        <time>2022-05-02T13:27:34Z</time>
      </trkpt>
      <trkpt lat="41.5912" lon="9.27802">
        <ele>56.86</ele>
        <time>2022-05-02T13:27:50Z</time>
      </trkpt>
      <trkpt lat="41.59134" lon="9.27806">
        <ele>55.89</ele>
        <time>2022-05-02T13:28:04Z</time>
      </trkpt>
      <trkpt lat="41.59139" lon="9.27811">
        <ele>55.89</ele>
        <time>2022-05-02T13:28:11Z</time>
      </trkpt>
      <trkpt lat="41.59146" lon="9.27816">
        <ele>55.89</ele>
        <time>2022-05-02T13:28:19Z</time>
      </trkpt>
      <trkpt lat="41.59165" lon="9.27827">
        <ele>54.93</ele>
        <time>2022-05-02T13:28:38Z</time>
      </trkpt>
      <trkpt lat="41.59181" lon="9.27818">
        <ele>54.45</ele>
        <time>2022-05-02T13:28:54Z</time>
      </trkpt>
      <trkpt lat="41.59196" lon="9.27823">
        <ele>53.49</ele>
        <time>2022-05-02T13:29:08Z</time>
      </trkpt>
      <trkpt lat="41.59204" lon="9.27825">
        <ele>53.49</ele>
        <time>2022-05-02T13:29:20Z</time>
      </trkpt>
      <trkpt lat="41.59213" lon="9.27828">
        <ele>52.53</ele>
        <time>2022-05-02T13:29:42Z</time>
      </trkpt>
      <trkpt lat="41.59226" lon="9.27836">
        <ele>52.05</ele>
        <time>2022-05-02T13:30:00Z</time>
      </trkpt>
      <trkpt lat="41.59225" lon="9.27843">
        <ele>52.05</ele>
        <time>2022-05-02T13:30:21Z</time>
      </trkpt>
      <trkpt lat="41.59228" lon="9.27844">
        <ele>51.57</ele>
        <time>2022-05-02T13:30:43Z</time>
      </trkpt>
      <trkpt lat="41.59227" lon="9.27843">
        <ele>52.53</ele>
        <time>2022-05-02T13:31:08Z</time>
      </trkpt>
      <trkpt lat="41.5923" lon="9.27845">
        <ele>52.05</ele>
        <time>2022-05-02T13:31:34Z</time>
      </trkpt>
      <trkpt lat="41.59234" lon="9.27847">
        <ele>43.2</ele>
      </trkpt>
      <trkpt lat="41.5924" lon="9.27848">
        <ele>43.3</ele>
      </trkpt>
      <trkpt lat="41.59247" lon="9.2785">
        <ele>43.2</ele>
        <time>2022-05-02T13:32:06Z</time>
      </trkpt>
      <trkpt lat="41.59252" lon="9.27851">
        <ele>43.1</ele>
      </trkpt>
      <trkpt lat="41.59258" lon="9.27854">
        <ele>42.7</ele>
      </trkpt>
      <trkpt lat="41.59262" lon="9.27855">
        <ele>42.4</ele>
      </trkpt>
      <trkpt lat="41.59269" lon="9.27857">
        <ele>41.9</ele>
        <time>2022-05-02T13:32:29Z</time>
      </trkpt>
    </trkseg>
  </trk>
</gpx>